Provisional Data: Ninemile Run near Walton, PA


Please select a monitoring station.
Please select start date.
Please select start date.

Toggle Unit: C/F Toggle Unit: C/F
Sample Time Temperature (C) Temperature (F) Specific Conductivity (mS/cm) pH   Turbidity (NTU+) DO (mg/L)
12/23/2021 12:00:00 AM 2.93 37.274 0.047 6.78 3.03 12.73
12/23/2021 12:15:00 AM 2.91 37.238 0.047 6.79 3.14 12.73
12/23/2021 12:30:00 AM 2.9 37.22 0.047 6.78 2.89 12.74
12/23/2021 12:45:00 AM 2.88 37.184 0.047 6.76 2.99 12.75
12/23/2021 1:00:00 AM 2.87 37.166 0.047 6.78 2.85 12.76
12/23/2021 1:15:00 AM 2.85 37.13 0.047 6.79 2.94 12.76
12/23/2021 1:30:00 AM 2.84 37.112 0.046 6.78 3 12.77
12/23/2021 1:45:00 AM 2.83 37.094 0.047 6.77 2.93 12.77
12/23/2021 2:00:00 AM 2.82 37.076 0.047 6.8 2.9 12.77
12/23/2021 2:15:00 AM 2.81 37.058 0.047 6.78 3 12.78
12/23/2021 2:30:00 AM 2.79 37.022 0.047 6.79 3.21 12.79
12/23/2021 2:45:00 AM 2.76 36.968 0.046 6.78 3.28 12.8
12/23/2021 3:00:00 AM 2.73 36.914 0.046 6.77 3.05 12.81
12/23/2021 3:15:00 AM 2.7 36.86 0.046 6.77 3.08 12.82
12/23/2021 3:30:00 AM 2.67 36.806 0.046 6.75 3.38 12.83
12/23/2021 3:45:00 AM 2.65 36.77 0.046 6.76 3.17 12.83
12/23/2021 4:00:00 AM 2.64 36.752 0.046 6.77 3.19 12.85
12/23/2021 4:15:00 AM 2.62 36.716 0.046 6.78 3.28 12.85
12/23/2021 4:30:00 AM 2.61 36.698 0.046 6.77 3.14 12.86
12/23/2021 4:45:00 AM 2.59 36.662 0.046 6.76 2.97 12.87
12/23/2021 5:00:00 AM 2.57 36.626 0.046 6.78 2.94 12.88
12/23/2021 5:15:00 AM 2.55 36.59 0.046 6.78 3.01 12.89
12/23/2021 5:30:00 AM 2.54 36.572 0.046 6.77 2.99 12.9
12/23/2021 5:45:00 AM 2.53 36.554 0.046 6.78 3.41 12.9
12/23/2021 6:00:00 AM 2.53 36.554 0.046 6.76 3.04 12.9
12/23/2021 6:15:00 AM 2.52 36.536 0.046 6.75 3.11 12.91
12/23/2021 6:30:00 AM 2.51 36.518 0.046 6.77 3.13 12.92
12/23/2021 6:45:00 AM 2.51 36.518 0.046 6.77 3.09 12.93
12/23/2021 7:00:00 AM 2.5 36.5 0.046 6.76 2.84 12.94
12/23/2021 7:15:00 AM 2.49 36.482 0.046 6.77 2.99 12.94
12/23/2021 7:30:00 AM 2.48 36.464 0.046 6.76 2.87 12.94
12/23/2021 7:45:00 AM 2.47 36.446 0.046 6.75 2.9 12.96
12/23/2021 8:00:00 AM 2.47 36.446 0.046 6.76 3.3 12.98
12/23/2021 8:15:00 AM 2.47 36.446 0.046 6.75 2.96 13.01
12/23/2021 8:30:00 AM 2.47 36.446 0.046 6.79 2.91 13.05
12/23/2021 8:45:00 AM 2.47 36.446 0.046 6.81 2.8 13.1
12/23/2021 9:00:00 AM 2.46 36.428 0.046 6.81 2.96 13.13
12/23/2021 9:15:00 AM 2.46 36.428 0.046 6.81 2.86 13.17
12/23/2021 9:30:00 AM 2.46 36.428 0.046 6.84 2.82 13.21
12/23/2021 9:45:00 AM 2.49 36.482 0.046 6.84 2.78 13.24
12/23/2021 10:00:00 AM 2.52 36.536 0.046 6.85 2.86 13.26
12/23/2021 10:15:00 AM 2.55 36.59 0.046 6.88 2.78 13.27
12/23/2021 10:30:00 AM 2.6 36.68 0.046 6.87 2.89 13.29
12/23/2021 10:45:00 AM 2.65 36.77 0.046 6.88 2.81 13.29
12/23/2021 11:00:00 AM 2.7 36.86 0.046 6.89 3.01 13.29
12/23/2021 11:15:00 AM 2.74 36.932 0.046 6.89 2.87 13.29
12/23/2021 11:30:00 AM 2.77 36.986 0.045 6.91 2.75 13.28
12/23/2021 11:45:00 AM 2.83 37.094 0.046 6.89 2.76 13.28
12/23/2021 12:00:00 PM 2.88 37.184 0.045 6.91 2.82 13.25
12/23/2021 12:15:00 PM 2.94 37.292 0.045 6.9 2.59 13.22
12/23/2021 12:30:00 PM 3 37.4 0.045 6.89 2.81 13.19
12/23/2021 12:45:00 PM 3.05 37.49 0.045 6.93 2.69 13.17
12/23/2021 1:00:00 PM 3.12 37.616 0.045 6.92 2.84 13.17
12/23/2021 1:15:00 PM 3.17 37.706 0.045 6.84 2.73 13.14
12/23/2021 1:30:00 PM 3.21 37.778 0.045 6.91 2.78 13.12
12/23/2021 1:45:00 PM 3.28 37.904 0.045 6.91 2.75 13.11
12/23/2021 2:00:00 PM 3.3 37.94 0.045 6.93 3.02 13.08
12/23/2021 2:15:00 PM 3.32 37.976 0.045 6.91 3.09 13.06
12/23/2021 2:30:00 PM 3.35 38.03 0.045 6.93 2.96 13.04
12/23/2021 2:45:00 PM 3.38 38.084 0.045 6.92 3.17 13.02
12/23/2021 3:00:00 PM 3.41 38.138 0.045 6.92 3.27 13
12/23/2021 3:15:00 PM 3.42 38.156 0.045 6.91 2.95 12.98
12/23/2021 3:30:00 PM 3.42 38.156 0.045 6.91 2.88 12.95
12/23/2021 3:45:00 PM 3.42 38.156 0.045 6.9 2.86 12.92
12/23/2021 4:00:00 PM 3.41 38.138 0.045 6.9 3.07 12.87
12/23/2021 4:15:00 PM 3.4 38.12 0.045 6.88 2.88 12.84
12/23/2021 4:30:00 PM 3.39 38.102 0.045 6.85 2.94 12.79
12/23/2021 4:45:00 PM 3.39 38.102 0.046 6.88 2.86 12.74
12/23/2021 5:00:00 PM 3.38 38.084 0.046 6.88 2.87 12.71
12/23/2021 5:15:00 PM 3.38 38.084 0.046 6.85 3.19 12.68
12/23/2021 5:30:00 PM 3.37 38.066 0.046 6.83 3.32 12.66
12/23/2021 5:45:00 PM 3.34 38.012 0.046 6.81 3.03 12.64
12/23/2021 6:00:00 PM 3.21 37.778 0.046 6.78 3.43 12.65
12/23/2021 6:15:00 PM 3.19 37.742 0.046 6.81 3.03 12.64
12/23/2021 6:30:00 PM 3.22 37.796 0.046 6.81 3.1 12.64
12/23/2021 6:45:00 PM 3.22 37.796 0.046 6.84 3.18 12.64
12/23/2021 7:00:00 PM 3.22 37.796 0.046 6.82 3.07 12.64
12/23/2021 7:15:00 PM 3.22 37.796 0.046 6.79 2.92 12.64
12/23/2021 7:30:00 PM 3.21 37.778 0.046 6.78 3.09 12.64
12/23/2021 7:45:00 PM 3.2 37.76 0.046 6.79 2.97 12.65
12/23/2021 8:00:00 PM 3.19 37.742 0.046 6.81 3.37 12.65
12/23/2021 8:15:00 PM 3.2 37.76 0.046 6.78 3.08 12.65
12/23/2021 8:30:00 PM 3.21 37.778 0.046 6.79 3.15 12.64
12/23/2021 8:45:00 PM 3.21 37.778 0.046 6.78 3.03 12.64
12/23/2021 9:00:00 PM 3.21 37.778 0.046 6.8 2.83 12.64
12/23/2021 9:15:00 PM 3.21 37.778 0.046 6.79 3.25 12.64
12/23/2021 9:30:00 PM 3.21 37.778 0.046 6.8 2.92 12.63
12/23/2021 9:45:00 PM 3.21 37.778 0.046 6.8 2.96 12.63
12/23/2021 10:00:00 PM 3.2 37.76 0.046 6.78 3.05 12.63
12/23/2021 10:15:00 PM 3.2 37.76 0.046 6.8 3.28 12.63
12/23/2021 10:30:00 PM 3.2 37.76 0.046 6.78 3.28 12.63
12/23/2021 10:45:00 PM 3.2 37.76 0.046 6.77 3.86 12.63
12/23/2021 11:00:00 PM 3.2 37.76 0.046 6.78 3.23 12.63
12/23/2021 11:15:00 PM 3.19 37.742 0.046 6.76 2.99 12.62
12/23/2021 11:30:00 PM 3.14 37.652 0.046 6.77 3.24 12.62
12/23/2021 11:45:00 PM 3.06 37.508 0.046 6.77 3.03 12.63
12/24/2021 12:00:00 AM 2.96 37.328 0.046 6.78 3.34 12.64
12/24/2021 12:15:00 AM 2.96 37.328 0.046 6.78 3.12 12.65
12/24/2021 12:30:00 AM 2.96 37.328 0.046 6.78 2.94 12.67
12/24/2021 12:45:00 AM 2.95 37.31 0.046 6.77 3.09 12.67
12/24/2021 1:00:00 AM 2.95 37.31 0.046 6.76 3.2 12.68
12/24/2021 1:15:00 AM 2.93 37.274 0.046 6.78 3.12 12.69
12/24/2021 1:30:00 AM 2.91 37.238 0.046 6.77 3.11 12.7
12/24/2021 1:45:00 AM 2.9 37.22 0.046 6.76 3.05 12.71
12/24/2021 2:00:00 AM 2.91 37.238 0.046 6.76 3.04 12.7
12/24/2021 2:15:00 AM 2.92 37.256 0.046 6.78 3.06 12.7
12/24/2021 2:30:00 AM 2.94 37.292 0.046 6.76 2.96 12.7
12/24/2021 2:45:00 AM 2.95 37.31 0.046 6.78 3.33 12.7
12/24/2021 3:00:00 AM 2.96 37.328 0.046 6.76 2.96 12.7
12/24/2021 3:15:00 AM 2.97 37.346 0.046 6.78 3.26 12.69
12/24/2021 3:30:00 AM 2.99 37.382 0.046 6.76 3.59 12.69
12/24/2021 3:45:00 AM 3 37.4 0.046 6.78 3.16 12.68
12/24/2021 4:00:00 AM 3.02 37.436 0.046 6.75 3.29 12.68
12/24/2021 4:15:00 AM 3.03 37.454 0.046 6.74 3.2 12.67
12/24/2021 4:30:00 AM 3.05 37.49 0.046 6.76 3.25 12.67
12/24/2021 4:45:00 AM 3.07 37.526 0.046 6.78 3.62 12.67
12/24/2021 5:00:00 AM 3.08 37.544 0.046 6.78 3.06 12.66
12/24/2021 5:15:00 AM 3.1 37.58 0.046 6.75 3.26 12.65
12/24/2021 5:30:00 AM 3.12 37.616 0.046 6.76 3.25 12.65
12/24/2021 5:45:00 AM 3.13 37.634 0.046 6.79 3.43 12.65
12/24/2021 6:00:00 AM 3.15 37.67 0.046 6.76 3.7 12.64
12/24/2021 6:15:00 AM 3.16 37.688 0.046 6.76 3.32 12.63
12/24/2021 6:30:00 AM 3.18 37.724 0.046 6.76 3.01 12.63
12/24/2021 6:45:00 AM 3.2 37.76 0.046 6.77 2.93 12.62
12/24/2021 7:00:00 AM 3.21 37.778 0.046 6.77 2.92 12.62
12/24/2021 7:15:00 AM 3.23 37.814 0.046 6.76 2.97 12.61
12/24/2021 7:30:00 AM 3.25 37.85 0.046 6.77 2.89 12.62
12/24/2021 7:45:00 AM 3.26 37.868 0.046 6.77 2.92 12.61
12/24/2021 8:00:00 AM 3.28 37.904 0.046 6.75 2.9 12.61
12/24/2021 8:15:00 AM 3.3 37.94 0.046 6.78 3.13 12.62
12/24/2021 8:30:00 AM 3.33 37.994 0.046 6.77 2.79 12.63
12/24/2021 8:45:00 AM 3.35 38.03 0.046 6.73 2.81 12.65
12/24/2021 9:00:00 AM 3.37 38.066 0.046 6.77 2.92 12.66
12/24/2021 9:15:00 AM 3.4 38.12 0.046 6.81 2.78 12.69
12/24/2021 9:30:00 AM 3.44 38.192 0.046 6.81 3.2 12.71
12/24/2021 9:45:00 AM 3.47 38.246 0.046 6.83 2.8 12.74
12/24/2021 10:00:00 AM 3.52 38.336 0.046 6.8 2.84 12.76
12/24/2021 10:15:00 AM 3.57 38.426 0.046 6.84 2.81 12.8
12/24/2021 10:30:00 AM 3.63 38.534 0.046 6.85 2.81 12.81
12/24/2021 10:45:00 AM 3.7 38.66 0.046 6.89 2.78 12.84
12/24/2021 11:00:00 AM 3.78 38.804 0.046 6.87 3.39 12.84
12/24/2021 11:15:00 AM 3.86 38.948 0.045 6.9 2.86 12.83
12/24/2021 11:30:00 AM 3.92 39.056 0.045 6.89 2.78 12.82
12/24/2021 11:45:00 AM 3.98 39.164 0.045 6.9 2.87 12.79
12/24/2021 12:00:00 PM 4.05 39.29 0.045 6.9 2.81 12.76
12/24/2021 12:15:00 PM 4.13 39.434 0.045 6.91 2.99 12.74
12/24/2021 12:30:00 PM 4.22 39.596 0.045 6.92 2.84 12.72
12/24/2021 12:45:00 PM 4.3 39.74 0.045 6.89 2.81 12.7
12/24/2021 1:00:00 PM 4.37 39.866 0.045 6.92 2.94 12.67
12/24/2021 1:15:00 PM 4.41 39.938 0.045 6.91 2.78 12.64
12/24/2021 1:30:00 PM 4.47 40.046 0.045 6.91 3.02 12.62
12/24/2021 1:45:00 PM 4.54 40.172 0.045 6.94 2.84 12.59
12/24/2021 2:00:00 PM 4.6 40.28 0.045 6.94 2.91 12.56
12/24/2021 2:15:00 PM 4.65 40.37 0.045 6.91 2.83 12.54
12/24/2021 2:30:00 PM 4.7 40.46 0.045 6.93 2.83 12.51
12/24/2021 2:45:00 PM 4.74 40.532 0.045 6.93 3.46 12.48
12/24/2021 3:00:00 PM 4.78 40.604 0.045 6.91 2.89 12.44
12/24/2021 3:15:00 PM 4.81 40.658 0.045 6.91 3.35 12.4
12/24/2021 3:30:00 PM 4.86 40.748 0.045 6.91 2.89 12.38
12/24/2021 3:45:00 PM 4.89 40.802 0.045 6.9 2.92 12.35
12/24/2021 4:00:00 PM 4.91 40.838 0.045 6.9 2.89 12.33
12/24/2021 4:15:00 PM 4.91 40.838 0.045 6.87 2.95 12.26
12/24/2021 4:30:00 PM 4.89 40.802 0.045 6.87 3.04 12.21
12/24/2021 4:45:00 PM 4.87 40.766 0.045 6.85 2.78 12.17
12/24/2021 5:00:00 PM 4.84 40.712 0.045 6.84 3.22 12.13
12/24/2021 5:15:00 PM 4.83 40.694 0.045 6.83 2.84 12.1
12/24/2021 5:30:00 PM 4.82 40.676 0.045 6.81 2.91 12.07
12/24/2021 5:45:00 PM 4.82 40.676 0.045 6.81 3.01 12.06
12/24/2021 6:00:00 PM 4.81 40.658 0.046 6.81 3.13 12.04
12/24/2021 6:15:00 PM 4.8 40.64 0.046 6.8 2.95 12.03
12/24/2021 6:30:00 PM 4.79 40.622 0.046 6.79 3.27 12.03
12/24/2021 6:45:00 PM 4.78 40.604 0.046 6.78 3.24 12.03
12/24/2021 7:00:00 PM 4.77 40.586 0.046 6.79 3.19 12.02
12/24/2021 7:15:00 PM 4.77 40.586 0.046 6.79 3.43 12.03
12/24/2021 7:30:00 PM 4.76 40.568 0.046 6.78 3.17 12.02
12/24/2021 7:45:00 PM 4.76 40.568 0.046 6.77 3.1 12.03
12/24/2021 8:00:00 PM 4.76 40.568 0.046 6.76 3.17 12.02
12/24/2021 8:15:00 PM 4.75 40.55 0.046 6.78 3.34 12.03
12/24/2021 8:30:00 PM 4.75 40.55 0.046 6.77 3.3 12.02
12/24/2021 8:45:00 PM 4.75 40.55 0.046 6.79 3.24 12.02
12/24/2021 9:00:00 PM 4.75 40.55 0.046 6.77 3.08 12.03
12/24/2021 9:15:00 PM 4.75 40.55 0.046 6.77 3.05 12.02
12/24/2021 9:30:00 PM 4.75 40.55 0.046 6.77 2.99 12.02
12/24/2021 9:45:00 PM 4.75 40.55 0.047 6.78 3.22 12.02
12/24/2021 10:00:00 PM 4.75 40.55 0.047 6.78 3.03 12.02
12/24/2021 10:15:00 PM 4.75 40.55 0.047 6.78 3.12 12.02
12/24/2021 10:30:00 PM 4.75 40.55 0.047 6.78 2.96 12.02
12/24/2021 10:45:00 PM 4.75 40.55 0.046 6.47 2.84 12.01
12/24/2021 11:00:00 PM 4.75 40.55 0.047 6.77 3.07 12.01
12/24/2021 11:15:00 PM 4.75 40.55 0.047 6.78 3.36 12
12/24/2021 11:30:00 PM 4.75 40.55 0.047 6.77 3.03 12.01
12/24/2021 11:45:00 PM 4.76 40.568 0.047 6.76 3.54 12.01
12/25/2021 12:00:00 AM 4.76 40.568 0.047 6.76 3.4 12
12/25/2021 12:15:00 AM 4.77 40.586 0.047 6.78 3.18 11.99
12/25/2021 12:30:00 AM 4.78 40.604 0.047 6.76 3.08 12
12/25/2021 12:45:00 AM 4.78 40.604 0.047 6.76 2.99 11.99
12/25/2021 1:00:00 AM 4.79 40.622 0.047 6.75 3.15 11.98
12/25/2021 1:15:00 AM 4.8 40.64 0.047 6.75 3.11 11.97
12/25/2021 1:30:00 AM 4.8 40.64 0.047 6.75 3.64 11.96
12/25/2021 1:45:00 AM 4.81 40.658 0.046 6.77 3.45 11.96
12/25/2021 2:00:00 AM 4.82 40.676 0.046 6.79 3.32 11.95
12/25/2021 2:15:00 AM 4.83 40.694 0.046 6.78 3.19 11.94
12/25/2021 2:30:00 AM 4.84 40.712 0.046 6.76 3.11 11.94
12/25/2021 2:45:00 AM 4.84 40.712 0.046 6.76 3.18 11.94
12/25/2021 3:00:00 AM 4.85 40.73 0.046 6.76 3.16 11.93
12/25/2021 3:15:00 AM 4.86 40.748 0.046 6.75 3.08 11.92
12/25/2021 3:30:00 AM 4.86 40.748 0.046 6.75 3.14 11.92
12/25/2021 3:45:00 AM 4.87 40.766 0.046 6.72 3.16 11.91
12/25/2021 4:00:00 AM 4.88 40.784 0.046 6.78 3.42 11.91
12/25/2021 4:15:00 AM 4.89 40.802 0.046 6.76 3.26 11.9
12/25/2021 4:30:00 AM 4.89 40.802 0.046 6.75 2.94 11.9
12/25/2021 4:45:00 AM 4.9 40.82 0.046 6.76 2.86 11.89
12/25/2021 5:00:00 AM 4.91 40.838 0.046 6.74 3.12 11.89
12/25/2021 5:15:00 AM 4.91 40.838 0.046 6.76 3.04 11.88
12/25/2021 5:30:00 AM 4.92 40.856 0.046 6.75 3.15 11.87
12/25/2021 5:45:00 AM 4.92 40.856 0.046 6.76 3.28 11.87
12/25/2021 6:00:00 AM 4.93 40.874 0.046 6.78 3.34 11.87
12/25/2021 6:15:00 AM 4.93 40.874 0.046 6.76 3.02 11.87
12/25/2021 6:30:00 AM 4.93 40.874 0.046 6.75 3.08 11.86
12/25/2021 6:45:00 AM 4.93 40.874 0.046 6.76 3.06 11.86
12/25/2021 7:00:00 AM 4.94 40.892 0.046 6.75 3.2 11.86
12/25/2021 7:15:00 AM 4.94 40.892 0.046 6.75 3.13 11.85
12/25/2021 7:30:00 AM 4.95 40.91 0.046 6.74 2.97 11.85
12/25/2021 7:45:00 AM 4.95 40.91 0.046 6.75 3 11.85
12/25/2021 8:00:00 AM 4.95 40.91 0.046 6.7 3.16 11.85
12/25/2021 8:15:00 AM 4.95 40.91 0.046 6.74 3.24 11.86
12/25/2021 8:30:00 AM 4.95 40.91 0.046 6.74 3.17 11.86
12/25/2021 8:45:00 AM 4.95 40.91 0.046 6.76 3.15 11.88
12/25/2021 9:00:00 AM 4.96 40.928 0.046 6.76 3.4 11.9
12/25/2021 9:15:00 AM 4.97 40.946 0.046 6.75 3.1 11.92
12/25/2021 9:30:00 AM 4.99 40.982 0.046 6.77 3.18 11.95
12/25/2021 9:45:00 AM 5.01 41.018 0.047 6.78 3.3 11.98
12/25/2021 10:00:00 AM 5.03 41.054 0.047 6.8 3.48 12
12/25/2021 10:15:00 AM 5.06 41.108 0.047 6.8 3.68 12.03
12/25/2021 10:30:00 AM 5.09 41.162 0.047 6.81 3.31 12.05
12/25/2021 10:45:00 AM 5.11 41.198 0.047 6.81 3.32 12.03
12/25/2021 11:00:00 AM 5.13 41.234 0.047 6.81 3.49 12.04
12/25/2021 11:15:00 AM 5.17 41.306 0.048 6.82 3.37 12.05
12/25/2021 11:30:00 AM 5.21 41.378 0.048 6.84 3.29 12.07
12/25/2021 11:45:00 AM 5.24 41.432 0.048 6.85 3.49 12.04
12/25/2021 12:00:00 PM 5.28 41.504 0.049 6.86 3.48 12.06
12/25/2021 12:15:00 PM 5.31 41.558 0.049 6.84 3.43 12.04
12/25/2021 12:30:00 PM 5.35 41.63 0.05 6.84 3.67 12.05
12/25/2021 12:45:00 PM 5.39 41.702 0.05 6.86 3.8 12.03
12/25/2021 1:00:00 PM 5.42 41.756 0.05 6.84 3.75 12
12/25/2021 1:15:00 PM 5.46 41.828 0.05 6.84 3.93 12
12/25/2021 1:30:00 PM 5.51 41.918 0.05 6.88 3.66 12
12/25/2021 1:45:00 PM 5.55 41.99 0.05 6.9 3.66 12
12/25/2021 2:00:00 PM 5.63 42.134 0.051 6.89 3.74 12.02
12/25/2021 2:15:00 PM 5.67 42.206 0.051 6.88 3.69 11.98
12/25/2021 2:30:00 PM 5.7 42.26 0.051 6.87 3.93 11.92
12/25/2021 2:45:00 PM 5.73 42.314 0.051 6.88 3.64 11.93
12/25/2021 3:00:00 PM 5.75 42.35 0.051 6.87 3.5 11.86
12/25/2021 3:15:00 PM 5.77 42.386 0.051 6.87 3.46 11.81
12/25/2021 3:30:00 PM 5.8 42.44 0.051 6.84 3.58 11.79
12/25/2021 3:45:00 PM 5.83 42.494 0.051 6.86 3.55 11.75
12/25/2021 4:00:00 PM 5.85 42.53 0.052 6.82 4 11.7
12/25/2021 4:15:00 PM 5.87 42.566 0.052 6.82 3.25 11.67
12/25/2021 4:30:00 PM 5.89 42.602 0.052 6.8 3.39 11.64
12/25/2021 4:45:00 PM 5.92 42.656 0.052 6.81 3.82 11.6
12/25/2021 5:00:00 PM 5.95 42.71 0.052 6.78 3.46 11.58
12/25/2021 5:15:00 PM 5.97 42.746 0.053 6.79 3.36 11.56
12/25/2021 5:30:00 PM 6 42.8 0.053 6.77 3.61 11.54
12/25/2021 5:45:00 PM 6.02 42.836 0.053 6.77 3.62 11.53
12/25/2021 6:00:00 PM 6.04 42.872 0.053 6.77 3.63 11.52
12/25/2021 6:15:00 PM 6.06 42.908 0.053 6.76 3.56 11.52
12/25/2021 6:30:00 PM 6.09 42.962 0.053 6.78 3.5 11.51
12/25/2021 6:45:00 PM 6.11 42.998 0.054 6.77 3.28 11.5
12/25/2021 7:00:00 PM 6.13 43.034 0.054 6.77 4.13 11.49
12/25/2021 7:15:00 PM 6.14 43.052 0.054 6.77 3.52 11.49
12/25/2021 7:30:00 PM 6.16 43.088 0.055 6.77 3.34 11.49
12/25/2021 7:45:00 PM 6.17 43.106 0.055 6.77 3.39 11.48
12/25/2021 8:00:00 PM 6.17 43.106 0.055 6.77 3.51 11.48
12/25/2021 8:15:00 PM 6.18 43.124 0.056 6.77 3.53 11.48
12/25/2021 8:30:00 PM 6.18 43.124 0.056 6.77 3.32 11.49
12/25/2021 8:45:00 PM 6.2 43.16 0.056 6.77 3.48 11.49
12/25/2021 9:00:00 PM 6.21 43.178 0.056 6.78 3.31 11.48
12/25/2021 9:15:00 PM 6.21 43.178 0.056 6.77 3.41 11.49
12/25/2021 9:30:00 PM 6.22 43.196 0.057 6.77 3.33 11.49
12/25/2021 9:45:00 PM 6.22 43.196 0.057 6.77 3.5 11.48
12/25/2021 10:00:00 PM 6.23 43.214 0.057 6.77 3.4 11.49
12/25/2021 10:15:00 PM 6.23 43.214 0.057 6.78 3.56 11.49
12/25/2021 10:30:00 PM 6.23 43.214 0.057 6.77 3.49 11.5
12/25/2021 10:45:00 PM 6.22 43.196 0.057 6.79 3.61 11.51
12/25/2021 11:00:00 PM 6.19 43.142 0.057 6.78 3.65 11.51
12/25/2021 11:15:00 PM 6.17 43.106 0.057 6.79 3.11 11.52
12/25/2021 11:30:00 PM 6.15 43.07 0.057 6.78 3.75 11.53
12/25/2021 11:45:00 PM 6.14 43.052 0.056 6.78 3.43 11.53
12/26/2021 12:00:00 AM 6.11 42.998 0.056 6.78 3.2 11.55
12/26/2021 12:15:00 AM 6.09 42.962 0.056 6.78 3.24 11.55
12/26/2021 12:30:00 AM 6.05 42.89 0.056 6.78 3.35 11.56
12/26/2021 12:45:00 AM 6.02 42.836 0.056 6.78 3.31 11.58
12/26/2021 1:00:00 AM 6 42.8 0.056 6.77 3.46 11.58
12/26/2021 1:15:00 AM 5.98 42.764 0.056 6.77 3.67 11.59
12/26/2021 1:30:00 AM 5.96 42.728 0.056 6.78 3.4 11.6
12/26/2021 1:45:00 AM 5.95 42.71 0.056 6.79 3.26 11.61
12/26/2021 2:00:00 AM 5.94 42.692 0.056 6.78 3.21 11.61
12/26/2021 2:15:00 AM 5.92 42.656 0.056 6.78 3.37 11.62
12/26/2021 2:30:00 AM 5.9 42.62 0.055 6.81 3.34 11.63
12/26/2021 2:45:00 AM 5.89 42.602 0.055 6.78 3.08 11.63
12/26/2021 3:00:00 AM 5.88 42.584 0.055 6.78 3.12 11.65
12/26/2021 3:15:00 AM 5.86 42.548 0.055 6.78 3.23 11.65
12/26/2021 3:30:00 AM 5.84 42.512 0.055 6.79 3.12 11.66
12/26/2021 3:45:00 AM 5.82 42.476 0.055 6.76 3.02 11.67
12/26/2021 4:00:00 AM 5.79 42.422 0.055 6.79 3.41 11.68
12/26/2021 4:15:00 AM 5.75 42.35 0.055 6.79 3.25 11.7
12/26/2021 4:30:00 AM 5.72 42.296 0.055 6.79 3.28 11.71
12/26/2021 4:45:00 AM 5.69 42.242 0.055 6.78 3.64 11.72
12/26/2021 5:00:00 AM 5.66 42.188 0.055 6.79 3.8 11.73
12/26/2021 5:15:00 AM 5.63 42.134 0.054 6.78 3.18 11.74
12/26/2021 5:30:00 AM 5.6 42.08 0.054 6.77 3.25 11.75
12/26/2021 5:45:00 AM 5.56 42.008 0.054 6.79 3.16 11.77
12/26/2021 6:00:00 AM 5.52 41.936 0.054 6.78 3.32 11.78
12/26/2021 6:15:00 AM 5.49 41.882 0.054 6.77 3.02 11.8
12/26/2021 6:30:00 AM 5.46 41.828 0.054 6.81 3.18 11.81
12/26/2021 6:45:00 AM 5.42 41.756 0.054 6.79 3.11 11.82
12/26/2021 7:00:00 AM 5.36 41.648 0.054 6.78 3.06 11.84
12/26/2021 7:15:00 AM 5.32 41.576 0.054 6.78 3.02 11.85
12/26/2021 7:30:00 AM 5.26 41.468 0.054 6.78 2.99 11.87
12/26/2021 7:45:00 AM 5.21 41.378 0.054 6.79 3.37 11.9
12/26/2021 8:00:00 AM 5.15 41.27 0.054 6.82 3.15 11.94
12/26/2021 8:15:00 AM 5.1 41.18 0.054 6.82 3.02 11.98
12/26/2021 8:30:00 AM 5.05 41.09 0.054 6.81 3.22 12.03
12/26/2021 8:45:00 AM 5.01 41.018 0.053 6.82 2.96 12.08
12/26/2021 9:00:00 AM 4.98 40.964 0.053 6.82 3.01 12.14
12/26/2021 9:15:00 AM 4.99 40.982 0.053 6.83 2.98 12.2
12/26/2021 9:30:00 AM 5 41 0.053 6.85 2.93 12.25
12/26/2021 9:45:00 AM 5 41 0.053 6.86 2.95 12.29
12/26/2021 10:00:00 AM 5.01 41.018 0.053 6.89 2.91 12.33
12/26/2021 10:15:00 AM 5.02 41.036 0.053 6.89 3 12.36
12/26/2021 10:30:00 AM 5.05 41.09 0.053 6.9 2.78 12.38
12/26/2021 10:45:00 AM 5.09 41.162 0.052 6.92 2.62 12.4
12/26/2021 11:00:00 AM 5.1 41.18 0.052 6.91 2.94 12.39
12/26/2021 11:15:00 AM 5.13 41.234 0.052 6.92 3.07 12.4
12/26/2021 11:30:00 AM 5.14 41.252 0.052 6.93 2.94 12.41
12/26/2021 11:45:00 AM 5.2 41.36 0.052 6.94 2.99 12.42
12/26/2021 12:00:00 PM 5.24 41.432 0.052 6.94 2.86 12.41
12/26/2021 12:15:00 PM 5.25 41.45 0.052 6.96 2.95 12.4
12/26/2021 12:30:00 PM 5.28 41.504 0.052 6.95 3.1 12.39
12/26/2021 12:45:00 PM 5.31 41.558 0.052 6.96 3.13 12.38
12/26/2021 1:00:00 PM 5.33 41.594 0.052 6.96 2.85 12.37
12/26/2021 1:15:00 PM 5.36 41.648 0.051 6.98 2.91 12.36
12/26/2021 1:30:00 PM 5.4 41.72 0.051 6.97 2.77 12.35
12/26/2021 1:45:00 PM 5.42 41.756 0.051 6.96 2.74 12.32
12/26/2021 2:00:00 PM 5.47 41.846 0.051 6.97 2.96 12.33
12/26/2021 2:15:00 PM 5.49 41.882 0.051 6.97 2.79 12.33
12/26/2021 2:30:00 PM 5.51 41.918 0.051 6.97 2.75 12.32
12/26/2021 2:45:00 PM 5.54 41.972 0.051 7 2.81 12.31
12/26/2021 3:00:00 PM 5.57 42.026 0.051 6.97 2.91 12.3
12/26/2021 3:15:00 PM 5.57 42.026 0.051 6.98 3.31 12.28
12/26/2021 3:30:00 PM 5.54 41.972 0.051 6.96 2.87 12.23
12/26/2021 3:45:00 PM 5.49 41.882 0.051 6.95 3.25 12.2
12/26/2021 4:00:00 PM 5.45 41.81 0.051 6.94 3.07 12.16
12/26/2021 4:15:00 PM 5.4 41.72 0.051 6.92 2.88 12.13
12/26/2021 4:30:00 PM 5.36 41.648 0.051 6.9 2.83 12.09
12/26/2021 4:45:00 PM 5.31 41.558 0.051 6.88 2.9 12.07
12/26/2021 5:00:00 PM 5.28 41.504 0.051 6.87 3 12.04
12/26/2021 5:15:00 PM 5.25 41.45 0.051 6.86 3.24 12.02
12/26/2021 5:30:00 PM 5.2 41.36 0.051 6.85 2.93 12.01
12/26/2021 5:45:00 PM 5.16 41.288 0.051 6.84 2.85 12.01
12/26/2021 6:00:00 PM 5.1 41.18 0.051 6.85 3.32 12.02
12/26/2021 6:15:00 PM 5.02 41.036 0.051 6.83 3.24 12.03
12/26/2021 6:30:00 PM 4.94 40.892 0.051 6.83 3.08 12.05
12/26/2021 6:45:00 PM 4.87 40.766 0.051 6.82 3.22 12.06
12/26/2021 7:00:00 PM 4.81 40.658 0.051 6.81 3.09 12.08
12/26/2021 7:15:00 PM 4.74 40.532 0.051 6.82 3.21 12.1
12/26/2021 7:30:00 PM 4.68 40.424 0.051 6.81 3 12.12
12/26/2021 7:45:00 PM 4.62 40.316 0.051 6.83 3.05 12.14
12/26/2021 8:00:00 PM 4.56 40.208 0.051 6.81 3.01 12.16
12/26/2021 8:15:00 PM 4.51 40.118 0.051 6.81 3.1 12.18
12/26/2021 8:30:00 PM 4.48 40.064 0.051 6.8 3.18 12.2
12/26/2021 8:45:00 PM 4.45 40.01 0.051 6.8 3.03 12.22
12/26/2021 9:00:00 PM 4.42 39.956 0.051 6.78 3.11 12.23
12/26/2021 9:15:00 PM 4.4 39.92 0.051 6.81 3.18 12.24
12/26/2021 9:30:00 PM 4.38 39.884 0.051 6.8 3.16 12.26
12/26/2021 9:45:00 PM 4.35 39.83 0.051 6.81 3.15 12.27
12/26/2021 10:00:00 PM 4.32 39.776 0.051 6.8 3.28 12.28
12/26/2021 10:15:00 PM 4.31 39.758 0.051 6.8 2.91 12.29
12/26/2021 10:30:00 PM 4.29 39.722 0.051 6.8 3.13 12.29
12/26/2021 10:45:00 PM 4.28 39.704 0.051 6.8 3.03 12.3
12/26/2021 11:00:00 PM 4.27 39.686 0.051 6.82 3.06 12.3
12/26/2021 11:15:00 PM 4.25 39.65 0.051 6.8 3.1 12.31
12/26/2021 11:30:00 PM 4.24 39.632 0.051 6.82 3.02 12.32
12/26/2021 11:45:00 PM 4.22 39.596 0.051 6.8 3.03 12.33
12/27/2021 12:00:00 AM 4.2 39.56 0.051 6.81 3.15 12.33
12/27/2021 12:15:00 AM 4.18 39.524 0.051 6.8 2.96 12.34
12/27/2021 12:30:00 AM 4.17 39.506 0.051 6.79 3.03 12.35
12/27/2021 12:45:00 AM 4.15 39.47 0.051 6.8 2.95 12.35
12/27/2021 1:00:00 AM 4.15 39.47 0.051 6.8 3.13 12.35
12/27/2021 1:15:00 AM 4.13 39.434 0.051 6.8 3.37 12.35
12/27/2021 1:30:00 AM 4.12 39.416 0.051 6.79 3.64 12.35
12/27/2021 1:45:00 AM 4.11 39.398 0.051 6.79 3.18 12.35
12/27/2021 2:00:00 AM 4.1 39.38 0.051 6.81 3.17 12.35
12/27/2021 2:15:00 AM 4.08 39.344 0.051 6.79 3.22 12.35
12/27/2021 2:30:00 AM 4.05 39.29 0.051 6.79 2.93 12.36
12/27/2021 2:45:00 AM 4.02 39.236 0.051 6.79 3.23 12.37
12/27/2021 3:00:00 AM 3.99 39.182 0.051 6.8 3.36 12.38
12/27/2021 3:15:00 AM 3.97 39.146 0.051 6.81 3.73 12.38
12/27/2021 3:30:00 AM 3.96 39.128 0.051 6.79 3.59 12.39
12/27/2021 3:45:00 AM 3.95 39.11 0.051 6.79 3.18 12.39
12/27/2021 4:00:00 AM 3.94 39.092 0.051 6.79 3.36 12.39
12/27/2021 4:15:00 AM 3.93 39.074 0.051 6.81 3.32 12.4
12/27/2021 4:30:00 AM 3.91 39.038 0.051 6.79 3.12 12.41
12/27/2021 4:45:00 AM 3.9 39.02 0.051 6.8 3.34 12.41
12/27/2021 5:00:00 AM 3.89 39.002 0.051 6.79 3.56 12.41
12/27/2021 5:15:00 AM 3.88 38.984 0.051 6.77 3.18 12.41
12/27/2021 5:30:00 AM 3.87 38.966 0.051 6.78 3.37 12.42
12/27/2021 5:45:00 AM 3.87 38.966 0.051 6.79 3.26 12.41
12/27/2021 6:00:00 AM 3.86 38.948 0.051 6.79 3.14 12.42
12/27/2021 6:15:00 AM 3.86 38.948 0.051 6.79 3.14 12.42
12/27/2021 6:30:00 AM 3.85 38.93 0.051 6.79 3.25 12.42
12/27/2021 6:45:00 AM 3.85 38.93 0.051 6.79 3.54 12.42
12/27/2021 7:00:00 AM 3.84 38.912 0.051 6.79 4.07 12.42
12/27/2021 7:15:00 AM 3.84 38.912 0.051 6.79 3.58 12.42
12/27/2021 7:30:00 AM 3.84 38.912 0.051 6.78 3.44 12.42
12/27/2021 7:45:00 AM 3.84 38.912 0.05 6.8 3.29 12.42
12/27/2021 8:00:00 AM 3.84 38.912 0.05 6.82 2.98 12.43
12/27/2021 8:15:00 AM 3.83 38.894 0.05 6.8 2.95 12.45
12/27/2021 8:30:00 AM 3.82 38.876 0.05 6.8 3.07 12.45
12/27/2021 8:45:00 AM 3.78 38.804 0.05 6.8 3.15 12.45
12/27/2021 9:00:00 AM 3.72 38.696 0.05 6.84 3.15 12.48
12/27/2021 9:15:00 AM 3.51 38.318 0.05 6.81 3.09 12.52
12/27/2021 9:30:00 AM 3.53 38.354 0.05 6.81 2.89 12.57
12/27/2021 9:45:00 AM 3.57 38.426 0.05 6.83 2.95 12.64
12/27/2021 10:00:00 AM 3.6 38.48 0.05 6.84 2.85 12.69
12/27/2021 10:15:00 AM 3.64 38.552 0.05 6.86 2.88 12.73
12/27/2021 10:30:00 AM 3.68 38.624 0.05 6.86 3.17 12.73
12/27/2021 10:45:00 AM 3.71 38.678 0.05 6.88 3.03 12.77
12/27/2021 11:00:00 AM 3.73 38.714 0.05 6.89 2.88 12.78
12/27/2021 11:15:00 AM 3.75 38.75 0.049 6.9 2.85 12.79
12/27/2021 11:30:00 AM 3.79 38.822 0.049 6.91 3.06 12.78
12/27/2021 11:45:00 AM 3.8 38.84 0.049 6.92 2.96 12.79
12/27/2021 12:00:00 PM 3.84 38.912 0.049 6.91 2.94 12.77
12/27/2021 12:15:00 PM 3.85 38.93 0.049 6.91 2.99 12.72
12/27/2021 12:30:00 PM 3.86 38.948 0.049 6.9 2.92 12.69
12/27/2021 12:45:00 PM 3.88 38.984 0.049 6.91 2.86 12.68
12/27/2021 1:00:00 PM 3.91 39.038 0.049 6.91 3.01 12.67
12/27/2021 1:15:00 PM 3.93 39.074 0.049 6.92 3.39 12.66
12/27/2021 1:30:00 PM 3.95 39.11 0.049 6.9 2.84 12.64
12/27/2021 1:45:00 PM 3.95 39.11 0.049 6.91 2.83 12.61
12/27/2021 2:00:00 PM 3.95 39.11 0.049 6.91 3 12.6
12/27/2021 2:15:00 PM 3.96 39.128 0.049 6.91 2.85 12.59
12/27/2021 2:30:00 PM 3.96 39.128 0.049 6.89 2.83 12.57
12/27/2021 2:45:00 PM 3.97 39.146 0.049 6.9 2.87 12.56
12/27/2021 3:00:00 PM 3.97 39.146 0.049 6.89 2.83 12.54
12/27/2021 3:15:00 PM 3.97 39.146 0.049 6.88 2.91 12.51
12/27/2021 3:30:00 PM 3.97 39.146 0.049 6.88 2.81 12.48
12/27/2021 3:45:00 PM 3.98 39.164 0.049 6.86 2.84 12.45
12/27/2021 4:00:00 PM 3.98 39.164 0.049 6.86 2.87 12.43
12/27/2021 4:15:00 PM 4 39.2 0.049 6.85 2.89 12.4
12/27/2021 4:30:00 PM 4.01 39.218 0.049 6.85 2.9 12.37
12/27/2021 4:45:00 PM 4.01 39.218 0.049 6.86 2.74 12.35
12/27/2021 5:00:00 PM 4.01 39.218 0.049 6.84 3.04 12.33
12/27/2021 5:15:00 PM 4.02 39.236 0.049 6.83 3.01 12.31
12/27/2021 5:30:00 PM 4.02 39.236 0.049 6.83 3.1 12.29
12/27/2021 5:45:00 PM 4.03 39.254 0.05 6.82 3.14 12.28
12/27/2021 6:00:00 PM 4.03 39.254 0.049 6.83 3.09 12.27
12/27/2021 6:15:00 PM 4.03 39.254 0.05 6.82 2.98 12.27
12/27/2021 6:30:00 PM 4.04 39.272 0.05 6.82 3.47 12.26
12/27/2021 6:45:00 PM 4.04 39.272 0.049 6.8 3.06 12.26
12/27/2021 7:00:00 PM 4.05 39.29 0.05 6.83 3.04 12.25
12/27/2021 7:15:00 PM 4.05 39.29 0.05 6.81 3.14 12.25
12/27/2021 7:30:00 PM 4.06 39.308 0.05 6.81 3 12.25
12/27/2021 7:45:00 PM 4.07 39.326 0.05 6.81 3.25 12.24
12/27/2021 8:00:00 PM 4.07 39.326 0.05 6.81 2.91 12.24
12/27/2021 8:15:00 PM 4.08 39.344 0.05 6.81 2.91 12.23
12/27/2021 8:30:00 PM 4.09 39.362 0.05 6.81 2.83 12.23
12/27/2021 8:45:00 PM 4.1 39.38 0.05 6.81 3.1 12.23
12/27/2021 9:00:00 PM 4.11 39.398 0.05 6.8 3.1 12.22
12/27/2021 9:15:00 PM 4.12 39.416 0.05 6.8 3.06 12.22
12/27/2021 9:30:00 PM 4.12 39.416 0.05 6.8 3.06 12.21
12/27/2021 9:45:00 PM 4.13 39.434 0.05 6.82 2.96 12.21
12/27/2021 10:00:00 PM 4.13 39.434 0.05 6.79 2.97 12.21
12/27/2021 10:15:00 PM 4.14 39.452 0.05 6.8 3.02 12.21
12/27/2021 10:30:00 PM 4.15 39.47 0.05 6.79 2.97 12.2
12/27/2021 10:45:00 PM 4.16 39.488 0.05 6.8 3.04 12.2
12/27/2021 11:00:00 PM 4.17 39.506 0.05 6.79 3.12 12.19
12/27/2021 11:15:00 PM 4.18 39.524 0.05 6.79 3.06 12.19
12/27/2021 11:30:00 PM 4.19 39.542 0.05 6.79 3.23 12.19
12/27/2021 11:45:00 PM 4.19 39.542 0.05 6.8 2.96 12.18
12/28/2021 12:00:00 AM 4.2 39.56 0.05 6.79 2.93 12.18
12/28/2021 12:15:00 AM 4.21 39.578 0.05 6.82 3.22 12.18
12/28/2021 12:30:00 AM 4.22 39.596 0.05 6.8 2.91 12.18
12/28/2021 12:45:00 AM 4.23 39.614 0.05 6.81 3.03 12.17
12/28/2021 1:00:00 AM 4.24 39.632 0.05 6.8 3.01 12.17
12/28/2021 1:15:00 AM 4.25 39.65 0.05 6.79 3 12.17
12/28/2021 1:30:00 AM 4.26 39.668 0.049 6.78 3.08 12.17
12/28/2021 1:45:00 AM 4.27 39.686 0.05 6.8 2.91 12.16
12/28/2021 2:00:00 AM 4.28 39.704 0.05 6.8 3.33 12.16
12/28/2021 2:15:00 AM 4.29 39.722 0.05 6.8 2.97 12.16
12/28/2021 2:30:00 AM 4.29 39.722 0.05 6.79 3.17 12.15
12/28/2021 2:45:00 AM 4.29 39.722 0.05 6.8 3.1 12.16
12/28/2021 3:00:00 AM 4.27 39.686 0.05 6.78 3.17 12.16
12/28/2021 3:15:00 AM 4.26 39.668 0.05 6.78 3.05 12.17
12/28/2021 3:30:00 AM 4.24 39.632 0.05 6.79 2.88 12.16
12/28/2021 3:45:00 AM 4.23 39.614 0.05 6.79 3.01 12.17
12/28/2021 4:00:00 AM 4.21 39.578 0.05 6.78 4.03 12.17
12/28/2021 4:15:00 AM 4.18 39.524 0.05 6.78 3.16 12.19
12/28/2021 4:30:00 AM 4.16 39.488 0.05 6.78 3.43 12.19
12/28/2021 4:45:00 AM 4.14 39.452 0.049 6.77 3.42 12.2
12/28/2021 5:00:00 AM 4.14 39.452 0.05 6.77 3.38 12.2
12/28/2021 5:15:00 AM 4.12 39.416 0.049 6.79 3.3 12.2
12/28/2021 5:30:00 AM 4.11 39.398 0.049 6.79 3.17 12.21
12/28/2021 5:45:00 AM 4.09 39.362 0.05 6.78 3.06 12.22
12/28/2021 6:00:00 AM 4.06 39.308 0.05 6.79 3.66 12.23
12/28/2021 6:15:00 AM 4.04 39.272 0.05 6.78 3.86 12.23
12/28/2021 6:30:00 AM 4.01 39.218 0.05 6.79 3.45 12.25
12/28/2021 6:45:00 AM 3.99 39.182 0.049 6.78 3.87 12.25
12/28/2021 7:00:00 AM 3.96 39.128 0.049 6.77 3.94 12.26
12/28/2021 7:15:00 AM 3.94 39.092 0.049 6.78 3.46 12.27
12/28/2021 7:30:00 AM 3.92 39.056 0.049 6.79 3.13 12.28
12/28/2021 7:45:00 AM 3.9 39.02 0.05 6.77 3.01 12.3
12/28/2021 8:00:00 AM 3.87 38.966 0.049 6.78 2.97 12.33
12/28/2021 8:15:00 AM 3.85 38.93 0.05 6.79 2.84 12.37
12/28/2021 8:30:00 AM 3.84 38.912 0.049 6.82 2.86 12.39
12/28/2021 8:45:00 AM 3.84 38.912 0.049 6.81 2.9 12.44
12/28/2021 9:00:00 AM 3.85 38.93 0.049 6.82 2.9 12.49
12/28/2021 9:15:00 AM 3.88 38.984 0.049 6.83 2.95 12.52
12/28/2021 9:30:00 AM 3.9 39.02 0.049 6.85 2.94 12.55
12/28/2021 9:45:00 AM 3.92 39.056 0.049 6.85 3.16 12.58
12/28/2021 10:00:00 AM 3.98 39.164 0.049 6.88 2.96 12.63
12/28/2021 10:15:00 AM 4.03 39.254 0.049 6.89 3.13 12.65
12/28/2021 10:30:00 AM 4.11 39.398 0.049 6.9 2.81 12.67
12/28/2021 10:45:00 AM 4.17 39.506 0.049 6.91 3.1 12.66
12/28/2021 11:00:00 AM 4.22 39.596 0.049 6.92 2.76 12.67
12/28/2021 11:15:00 AM 4.28 39.704 0.049 6.93 2.78 12.67
12/28/2021 11:30:00 AM 4.34 39.812 0.048 6.92 2.74 12.67
12/28/2021 11:45:00 AM 4.39 39.902 0.048 6.95 2.56 12.65
12/28/2021 12:00:00 PM 4.46 40.028 0.048 6.94 2.81 12.64
12/28/2021 12:15:00 PM 4.52 40.136 0.048 6.95 2.82 12.61
12/28/2021 12:30:00 PM 4.56 40.208 0.048 6.94 2.78 12.57
12/28/2021 12:45:00 PM 4.59 40.262 0.048 6.95 2.91 12.54
12/28/2021 1:00:00 PM 4.63 40.334 0.048 6.94 2.86 12.51
12/28/2021 1:15:00 PM 4.66 40.388 0.048 6.94 2.75 12.47
12/28/2021 1:30:00 PM 4.68 40.424 0.048 6.93 2.88 12.43
12/28/2021 1:45:00 PM 4.7 40.46 0.048 6.93 3.04 12.4
12/28/2021 2:00:00 PM 4.73 40.514 0.048 6.94 2.97 12.39
12/28/2021 2:15:00 PM 4.77 40.586 0.048 6.93 2.72 12.4
12/28/2021 2:30:00 PM 4.78 40.604 0.048 6.92 2.76 12.36
12/28/2021 2:45:00 PM 4.79 40.622 0.048 6.91 2.89 12.34
12/28/2021 3:00:00 PM 4.79 40.622 0.048 6.92 3.04 12.3
12/28/2021 3:15:00 PM 4.79 40.622 0.048 6.92 2.8 12.26
12/28/2021 3:30:00 PM 4.79 40.622 0.048 6.88 2.92 12.22
12/28/2021 3:45:00 PM 4.79 40.622 0.048 6.87 2.78 12.21
12/28/2021 4:00:00 PM 4.8 40.64 0.048 6.86 2.9 12.18
12/28/2021 4:15:00 PM 4.81 40.658 0.048 6.87 2.86 12.15
12/28/2021 4:30:00 PM 4.82 40.676 0.048 6.85 2.9 12.12
12/28/2021 4:45:00 PM 4.82 40.676 0.049 6.85 2.9 12.09
12/28/2021 5:00:00 PM 4.81 40.658 0.049 6.84 2.96 12.07
12/28/2021 5:15:00 PM 4.81 40.658 0.049 6.83 3.05 12.06
12/28/2021 5:30:00 PM 4.79 40.622 0.049 6.83 3.08 12.05
12/28/2021 5:45:00 PM 4.72 40.496 0.049 6.83 3.95 12.05
12/28/2021 6:00:00 PM 4.66 40.388 0.049 6.81 3.17 12.06
12/28/2021 6:15:00 PM 4.54 40.172 0.049 6.82 3.38 12.07
12/28/2021 6:30:00 PM 4.41 39.938 0.049 6.8 3.11 12.09
12/28/2021 6:45:00 PM 4.27 39.686 0.049 6.79 3.13 12.11
12/28/2021 7:00:00 PM 4.18 39.524 0.049 6.8 3.32 12.14
12/28/2021 7:15:00 PM 4.09 39.362 0.048 6.8 3.14 12.17
12/28/2021 7:30:00 PM 3.98 39.164 0.048 6.8 3.03 12.2
12/28/2021 7:45:00 PM 3.87 38.966 0.048 6.81 3.5 12.24
12/28/2021 8:00:00 PM 3.7 38.66 0.048 6.81 3.14 12.29
12/28/2021 8:15:00 PM 3.52 38.336 0.048 6.8 3.21 12.32
12/28/2021 8:30:00 PM 3.5 38.3 0.048 6.79 3.17 12.35
12/28/2021 8:45:00 PM 3.48 38.264 0.048 6.8 3.07 12.39
12/28/2021 9:00:00 PM 3.51 38.318 0.048 6.78 3.12 12.4
12/28/2021 9:15:00 PM 3.55 38.39 0.048 6.79 4.77 12.41
12/28/2021 9:30:00 PM 3.57 38.426 0.048 6.79 3.19 12.41
12/28/2021 9:45:00 PM 3.59 38.462 0.048 6.79 2.97 12.42
12/28/2021 10:00:00 PM 3.61 38.498 0.048 6.79 3.26 12.41
12/28/2021 10:15:00 PM 3.62 38.516 0.048 6.77 2.93 12.41
12/28/2021 10:30:00 PM 3.64 38.552 0.048 6.8 2.92 12.41
12/28/2021 10:45:00 PM 3.66 38.588 0.048 6.78 3.22 12.4
12/28/2021 11:00:00 PM 3.68 38.624 0.048 6.78 3.09 12.38
12/28/2021 11:15:00 PM 3.69 38.642 0.048 6.8 3.12 12.38
12/28/2021 11:30:00 PM 3.7 38.66 0.048 6.79 2.99 12.38
12/28/2021 11:45:00 PM 3.7 38.66 0.048 6.8 3.06 12.38
12/29/2021 12:00:00 AM 3.7 38.66 0.048 6.79 3.1 12.38
12/29/2021 12:15:00 AM 3.7 38.66 0.048 6.78 3.17 12.37
12/29/2021 12:30:00 AM 3.71 38.678 0.048 6.76 2.92 12.37
12/29/2021 12:45:00 AM 3.71 38.678 0.048 6.78 3.06 12.36
12/29/2021 1:00:00 AM 3.72 38.696 0.048 6.78 3.04 12.36
12/29/2021 1:15:00 AM 3.73 38.714 0.048 6.77 3.1 12.36
12/29/2021 1:30:00 AM 3.74 38.732 0.048 6.79 2.98 12.34
12/29/2021 1:45:00 AM 3.75 38.75 0.048 6.77 2.93 12.35
12/29/2021 2:00:00 AM 3.76 38.768 0.048 6.76 3.07 12.34
12/29/2021 2:15:00 AM 3.77 38.786 0.048 6.77 3.08 12.33
12/29/2021 2:30:00 AM 3.78 38.804 0.048 6.77 3.15 12.34
12/29/2021 2:45:00 AM 3.79 38.822 0.048 6.78 3.21 12.33
12/29/2021 3:00:00 AM 3.81 38.858 0.048 6.77 3.05 12.32
12/29/2021 3:15:00 AM 3.82 38.876 0.048 6.77 3.67 12.32
12/29/2021 3:30:00 AM 3.84 38.912 0.049 6.76 3.37 12.32
12/29/2021 3:45:00 AM 3.85 38.93 0.049 6.78 3.61 12.31
12/29/2021 4:00:00 AM 3.86 38.948 0.049 6.77 3.16 12.3
12/29/2021 4:15:00 AM 3.88 38.984 0.048 6.76 3.42 12.3
12/29/2021 4:30:00 AM 3.89 39.002 0.049 6.77 3.31 12.3
12/29/2021 4:45:00 AM 3.91 39.038 0.049 6.76 3.34 12.29
12/29/2021 5:00:00 AM 3.93 39.074 0.049 6.76 3.69 12.28
12/29/2021 5:15:00 AM 3.95 39.11 0.049 6.77 3.27 12.27
12/29/2021 5:30:00 AM 3.97 39.146 0.049 6.77 3.35 12.27
12/29/2021 5:45:00 AM 4 39.2 0.049 6.79 3.65 12.25
12/29/2021 6:00:00 AM 4.02 39.236 0.049 6.78 3.58 12.25
12/29/2021 6:15:00 AM 4.04 39.272 0.049 6.77 3.72 12.24
12/29/2021 6:30:00 AM 4.06 39.308 0.049 6.76 3.13 12.23
12/29/2021 6:45:00 AM 4.08 39.344 0.049 6.76 3.39 12.23
12/29/2021 7:00:00 AM 4.1 39.38 0.049 6.76 3.17 12.23
12/29/2021 7:15:00 AM 4.12 39.416 0.049 6.76 3.23 12.22
12/29/2021 7:30:00 AM 4.14 39.452 0.049 6.77 3.2 12.21
12/29/2021 7:45:00 AM 4.16 39.488 0.049 6.77 3.32 12.21
12/29/2021 8:00:00 AM 4.18 39.524 0.049 6.77 3.1 12.22
12/29/2021 8:15:00 AM 4.2 39.56 0.049 6.77 3.24 12.22
12/29/2021 8:30:00 AM 4.22 39.596 0.049 6.78 3.05 12.23
12/29/2021 8:45:00 AM 4.25 39.65 0.049 6.77 3.09 12.25
12/29/2021 9:00:00 AM 4.27 39.686 0.049 6.79 2.84 12.26
12/29/2021 9:15:00 AM 4.3 39.74 0.049 6.8 2.87 12.3
12/29/2021 9:30:00 AM 4.33 39.794 0.049 6.81 3.06 12.34
12/29/2021 9:45:00 AM 4.36 39.848 0.049 6.82 3.23 12.37
12/29/2021 10:00:00 AM 4.4 39.92 0.049 6.82 2.8 12.4
12/29/2021 10:15:00 AM 4.43 39.974 0.049 6.86 3.36 12.42
12/29/2021 10:30:00 AM 4.46 40.028 0.049 6.85 2.94 12.43
12/29/2021 10:45:00 AM 4.49 40.082 0.049 6.86 2.81 12.43
12/29/2021 11:00:00 AM 4.51 40.118 0.049 6.86 3.05 12.43
12/29/2021 11:15:00 AM 4.54 40.172 0.049 6.87 2.99 12.43
12/29/2021 11:30:00 AM 4.57 40.226 0.049 6.87 2.93 12.43
12/29/2021 11:45:00 AM 4.62 40.316 0.049 6.88 2.93 12.45
12/29/2021 12:00:00 PM 4.66 40.388 0.049 6.88 3.02 12.44
12/29/2021 12:15:00 PM 4.7 40.46 0.049 6.88 3.05 12.42
12/29/2021 12:30:00 PM 4.74 40.532 0.049 6.89 3.01 12.42
12/29/2021 12:45:00 PM 4.79 40.622 0.049 6.9 3.02 12.43
12/29/2021 1:00:00 PM 4.84 40.712 0.049 6.9 2.94 12.43
12/29/2021 1:15:00 PM 4.89 40.802 0.049 6.91 3.21 12.41
12/29/2021 1:30:00 PM 4.93 40.874 0.049 6.91 3.06 12.39
12/29/2021 1:45:00 PM 4.97 40.946 0.049 6.92 2.98 12.38
12/29/2021 2:00:00 PM 5.01 41.018 0.049 6.92 3.06 12.36
12/29/2021 2:15:00 PM 5.05 41.09 0.049 6.91 3.04 12.35
12/29/2021 2:30:00 PM 5.1 41.18 0.049 6.92 3.47 12.34
12/29/2021 2:45:00 PM 5.12 41.216 0.049 6.91 3.23 12.29
12/29/2021 3:00:00 PM 5.14 41.252 0.049 6.9 2.92 12.25
12/29/2021 3:15:00 PM 5.16 41.288 0.05 6.87 2.96 12.24
12/29/2021 3:30:00 PM 5.18 41.324 0.05 6.89 3.01 12.21
12/29/2021 3:45:00 PM 5.19 41.342 0.05 6.89 3.11 12.18
12/29/2021 4:00:00 PM 5.2 41.36 0.05 6.85 3.16 12.13
12/29/2021 4:15:00 PM 5.2 41.36 0.05 6.86 3.19 12.09
12/29/2021 4:30:00 PM 5.2 41.36 0.051 6.81 3.12 12.05
12/29/2021 4:45:00 PM 5.2 41.36 0.051 6.81 3.21 12.02
12/29/2021 5:00:00 PM 5.2 41.36 0.051 6.82 3.29 11.98
12/29/2021 5:15:00 PM 5.19 41.342 0.051 6.82 3.41 11.96
12/29/2021 5:30:00 PM 5.19 41.342 0.051 6.81 3.08 11.95
12/29/2021 5:45:00 PM 5.18 41.324 0.052 6.8 3.37 11.93
12/29/2021 6:00:00 PM 5.18 41.324 0.052 6.82 3.58 11.92
12/29/2021 6:15:00 PM 5.17 41.306 0.052 6.8 3.38 11.92
12/29/2021 6:30:00 PM 5.17 41.306 0.052 6.8 3.65 11.92
12/29/2021 6:45:00 PM 5.16 41.288 0.052 6.79 3.47 11.92
12/29/2021 7:00:00 PM 5.16 41.288 0.053 6.79 3.34 11.92
12/29/2021 7:15:00 PM 5.15 41.27 0.053 6.78 3.06 11.93
12/29/2021 7:30:00 PM 5.15 41.27 0.053 6.78 3.45 11.93
12/29/2021 7:45:00 PM 5.14 41.252 0.053 6.77 3.5 11.93
12/29/2021 8:00:00 PM 5.13 41.234 0.053 6.78 3.11 11.93
12/29/2021 8:15:00 PM 5.13 41.234 0.053 6.77 3.21 11.93
12/29/2021 8:30:00 PM 5.12 41.216 0.053 6.78 3.23 11.94
12/29/2021 8:45:00 PM 5.11 41.198 0.053 6.77 3.35 11.94
12/29/2021 9:00:00 PM 5.11 41.198 0.053 6.79 3.28 11.94
12/29/2021 9:15:00 PM 5.1 41.18 0.053 6.78 3.33 11.94
12/29/2021 9:30:00 PM 5.09 41.162 0.054 6.77 3.51 11.95
12/29/2021 9:45:00 PM 5.08 41.144 0.054 6.78 3.34 11.95
12/29/2021 10:00:00 PM 5.08 41.144 0.054 6.78 3.53 11.95
12/29/2021 10:15:00 PM 5.07 41.126 0.054 6.77 3.21 11.95
12/29/2021 10:30:00 PM 5.07 41.126 0.054 6.76 3.42 11.95
12/29/2021 10:45:00 PM 5.06 41.108 0.054 6.76 3.32 11.96
12/29/2021 11:00:00 PM 5.06 41.108 0.055 6.77 3.22 11.96
12/29/2021 11:15:00 PM 5.05 41.09 0.055 6.78 3.14 11.96
12/29/2021 11:30:00 PM 5.05 41.09 0.055 6.77 3.56 11.96
12/29/2021 11:45:00 PM 5.04 41.072 0.055 6.77 3.18 11.95
12/30/2021 12:00:00 AM 5.04 41.072 0.056 6.77 3.45 11.96
12/30/2021 12:15:00 AM 5.04 41.072 0.056 6.77 3.72 11.96
12/30/2021 12:30:00 AM 5.03 41.054 0.056 6.76 3.38 11.96
12/30/2021 12:45:00 AM 5.03 41.054 0.056 6.78 3.38 11.96
12/30/2021 1:00:00 AM 5.03 41.054 0.056 6.77 3.22 11.96
12/30/2021 1:15:00 AM 5.03 41.054 0.056 6.75 3.61 11.96
12/30/2021 1:30:00 AM 5.02 41.036 0.056 6.78 3.33 11.96
12/30/2021 1:45:00 AM 5.02 41.036 0.056 6.76 3.14 11.96
12/30/2021 2:00:00 AM 5.02 41.036 0.057 6.77 3.64 11.96
12/30/2021 2:15:00 AM 5.02 41.036 0.057 6.78 3.47 11.95
12/30/2021 2:30:00 AM 5.02 41.036 0.057 6.78 3.56 11.96
12/30/2021 2:45:00 AM 5.02 41.036 0.057 6.76 3.44 11.96
12/30/2021 3:00:00 AM 5.02 41.036 0.057 6.76 3.33 11.96
12/30/2021 3:15:00 AM 5.02 41.036 0.057 6.76 3.67 11.96
12/30/2021 3:30:00 AM 5.02 41.036 0.057 6.76 4.3 11.95
12/30/2021 3:45:00 AM 5.02 41.036 0.057 6.77 4.07 11.96
12/30/2021 4:00:00 AM 5.02 41.036 0.057 6.78 4.02 11.95
12/30/2021 4:15:00 AM 5.02 41.036 0.057 6.77 3.56 11.96
12/30/2021 4:30:00 AM 5.02 41.036 0.057 6.77 3.47 11.96
12/30/2021 4:45:00 AM 5.02 41.036 0.057 6.77 3.7 11.96
12/30/2021 5:00:00 AM 5.02 41.036 0.058 6.77 3.6 11.95
12/30/2021 5:15:00 AM 5.02 41.036 0.058 6.75 3.68 11.95
12/30/2021 5:30:00 AM 5.03 41.054 0.058 6.76 3.33 11.96
12/30/2021 5:45:00 AM 5.03 41.054 0.058 6.72 3.62 11.96
12/30/2021 6:00:00 AM 5.03 41.054 0.058 6.78 3.37 11.95
12/30/2021 6:15:00 AM 5.03 41.054 0.058 6.77 3.32 11.96
12/30/2021 6:30:00 AM 5.03 41.054 0.058 6.75 3.3 11.96
12/30/2021 6:45:00 AM 5.03 41.054 0.058 6.76 3.43 11.96
12/30/2021 7:00:00 AM 5.04 41.072 0.058 6.77 3.56 11.96
12/30/2021 7:15:00 AM 5.04 41.072 0.058 6.76 3.36 11.96
12/30/2021 7:30:00 AM 5.04 41.072 0.059 6.76 3.44 11.96
12/30/2021 7:45:00 AM 5.04 41.072 0.058 6.76 3.06 11.96
12/30/2021 8:00:00 AM 5.04 41.072 0.058 6.77 3.09 11.97
12/30/2021 8:15:00 AM 5.05 41.09 0.059 6.76 3.18 11.98
12/30/2021 8:30:00 AM 5.05 41.09 0.059 6.78 3.2 11.99
12/30/2021 8:45:00 AM 5.06 41.108 0.059 6.76 3.11 12.01
12/30/2021 9:00:00 AM 5.07 41.126 0.059 6.78 3.2 12.03
12/30/2021 9:15:00 AM 5.09 41.162 0.059 6.79 3.13 12.06
12/30/2021 9:30:00 AM 5.1 41.18 0.059 6.8 3.13 12.07
12/30/2021 9:45:00 AM 5.12 41.216 0.059 6.81 2.93 12.1
12/30/2021 10:00:00 AM 5.16 41.288 0.058 6.82 3.46 12.15
12/30/2021 10:15:00 AM 5.2 41.36 0.058 6.83 3.11 12.19
12/30/2021 10:30:00 AM 5.23 41.414 0.058 6.85 2.95 12.19
12/30/2021 10:45:00 AM 5.27 41.486 0.058 6.86 2.93 12.21
12/30/2021 11:00:00 AM 5.31 41.558 0.058 6.89 2.89 12.24
12/30/2021 11:15:00 AM 5.35 41.63 0.058 6.88 3.02 12.24
12/30/2021 11:30:00 AM 5.39 41.702 0.058 6.89 3.36 12.23
12/30/2021 11:45:00 AM 5.44 41.792 0.058 6.92 3.06 12.23
12/30/2021 12:00:00 PM 5.46 41.828 0.058 6.91 2.86 12.2
12/30/2021 12:15:00 PM 5.49 41.882 0.058 6.91 3.31 12.19
12/30/2021 12:30:00 PM 5.53 41.954 0.058 6.9 2.98 12.19
12/30/2021 12:45:00 PM 5.56 42.008 0.058 6.92 3.22 12.16
12/30/2021 1:00:00 PM 5.59 42.062 0.058 6.91 3.01 12.14
12/30/2021 1:15:00 PM 5.64 42.152 0.058 6.92 2.89 12.15
12/30/2021 1:30:00 PM 5.67 42.206 0.058 6.91 3.04 12.13
12/30/2021 1:45:00 PM 5.71 42.278 0.058 6.92 3.14 12.11
12/30/2021 2:00:00 PM 5.74 42.332 0.058 6.91 2.92 12.09
12/30/2021 2:15:00 PM 5.77 42.386 0.058 6.95 3.06 12.06
12/30/2021 2:30:00 PM 5.8 42.44 0.058 6.94 2.94 12.05
12/30/2021 2:45:00 PM 5.83 42.494 0.058 6.92 2.9 12.03
12/30/2021 3:00:00 PM 5.86 42.548 0.058 6.91 3.14 11.99
12/30/2021 3:15:00 PM 5.88 42.584 0.058 6.9 2.97 11.96
12/30/2021 3:30:00 PM 5.9 42.62 0.058 6.9 3.38 11.94
12/30/2021 3:45:00 PM 5.92 42.656 0.058 6.9 3.09 11.88
12/30/2021 4:00:00 PM 5.94 42.692 0.058 6.87 2.97 11.85
12/30/2021 4:15:00 PM 5.95 42.71 0.058 6.87 3.03 11.82
12/30/2021 4:30:00 PM 5.96 42.728 0.058 6.87 3.09 11.8
12/30/2021 4:45:00 PM 5.97 42.746 0.058 6.86 2.95 11.76
12/30/2021 5:00:00 PM 5.97 42.746 0.058 6.84 3.01 11.74
12/30/2021 5:15:00 PM 5.97 42.746 0.058 6.84 3.3 11.71
12/30/2021 5:30:00 PM 5.98 42.764 0.058 6.83 3.16 11.69
12/30/2021 5:45:00 PM 5.99 42.782 0.058 6.83 3.12 11.68
12/30/2021 6:00:00 PM 5.99 42.782 0.058 6.82 3.5 11.67
12/30/2021 6:15:00 PM 6 42.8 0.058 6.82 3.51 11.66
12/30/2021 6:30:00 PM 6.01 42.818 0.058 6.82 3.59 11.65
12/30/2021 6:45:00 PM 6 42.8 0.058 6.81 3.35 11.65
12/30/2021 7:00:00 PM 6.01 42.818 0.058 6.8 3.3 11.64
12/30/2021 7:15:00 PM 6.01 42.818 0.058 6.81 3.32 11.64
12/30/2021 7:30:00 PM 6.01 42.818 0.059 6.82 3.25 11.64
12/30/2021 7:45:00 PM 5.99 42.782 0.058 6.8 3.28 11.64
12/30/2021 8:00:00 PM 5.99 42.782 0.059 6.8 3.17 11.65
12/30/2021 8:15:00 PM 5.98 42.764 0.059 6.8 3.34 11.65
12/30/2021 8:30:00 PM 5.97 42.746 0.059 6.8 3.07 11.66
12/30/2021 8:45:00 PM 5.96 42.728 0.059 6.81 3.28 11.65
12/30/2021 9:00:00 PM 5.95 42.71 0.059 6.79 3.52 11.66
12/30/2021 9:15:00 PM 5.94 42.692 0.059 6.79 3.45 11.67
12/30/2021 9:30:00 PM 5.93 42.674 0.059 6.79 3.62 11.67
12/30/2021 9:45:00 PM 5.92 42.656 0.059 6.79 3.53 11.67
12/30/2021 10:00:00 PM 5.9 42.62 0.059 6.8 3.25 11.68
12/30/2021 10:15:00 PM 5.89 42.602 0.059 6.8 3.19 11.68
12/30/2021 10:30:00 PM 5.87 42.566 0.059 6.78 3.44 11.69
12/30/2021 10:45:00 PM 5.86 42.548 0.059 6.79 3.28 11.69
12/30/2021 11:00:00 PM 5.85 42.53 0.059 6.78 3.47 11.7
12/30/2021 11:15:00 PM 5.84 42.512 0.059 6.78 3.58 11.7
12/30/2021 11:30:00 PM 5.83 42.494 0.059 6.78 3.29 11.71
12/30/2021 11:45:00 PM 5.82 42.476 0.059 6.8 3.12 11.71
12/31/2021 12:00:00 AM 5.81 42.458 0.059 6.78 3.07 11.71
12/31/2021 12:15:00 AM 5.8 42.44 0.059 6.79 3.21 11.71
12/31/2021 12:30:00 AM 5.79 42.422 0.059 6.81 3.29 11.72
12/31/2021 12:45:00 AM 5.78 42.404 0.06 6.78 3.36 11.72
12/31/2021 1:00:00 AM 5.77 42.386 0.06 6.78 3.35 11.73
12/31/2021 1:15:00 AM 5.77 42.386 0.06 6.79 3.2 11.73
12/31/2021 1:30:00 AM 5.76 42.368 0.059 6.79 3.24 11.73
12/31/2021 1:45:00 AM 5.76 42.368 0.06 6.78 3.12 11.73
12/31/2021 2:00:00 AM 5.75 42.35 0.06 6.78 3.31 11.73
12/31/2021 2:15:00 AM 5.75 42.35 0.06 6.78 3.62 11.73
12/31/2021 2:30:00 AM 5.74 42.332 0.06 6.78 3.74 11.73
12/31/2021 2:45:00 AM 5.74 42.332 0.06 6.78 3.69 11.74
12/31/2021 3:00:00 AM 5.74 42.332 0.06 6.78 3.55 11.74
12/31/2021 3:15:00 AM 5.74 42.332 0.06 6.77 3.59 11.73
12/31/2021 3:30:00 AM 5.74 42.332 0.06 6.78 3.7 11.74
12/31/2021 3:45:00 AM 5.74 42.332 0.06 6.77 3.3 11.73
12/31/2021 4:00:00 AM 5.74 42.332 0.06 6.77 3.34 11.73
12/31/2021 4:15:00 AM 5.75 42.35 0.06 6.78 3.54 11.73
12/31/2021 4:30:00 AM 5.75 42.35 0.06 6.8 3.22 11.73
12/31/2021 4:45:00 AM 5.75 42.35 0.06 6.78 3.33 11.73
12/31/2021 5:00:00 AM 5.76 42.368 0.059 6.79 3.42 11.72
12/31/2021 5:15:00 AM 5.76 42.368 0.059 6.77 3.47 11.72
12/31/2021 5:30:00 AM 5.77 42.386 0.059 6.78 3.77 11.72
12/31/2021 5:45:00 AM 5.77 42.386 0.059 6.78 3.34 11.71
12/31/2021 6:00:00 AM 5.78 42.404 0.059 6.77 3.38 11.71
12/31/2021 6:15:00 AM 5.77 42.386 0.059 6.79 3.52 11.71
12/31/2021 6:30:00 AM 5.78 42.404 0.059 6.77 3.32 11.71
12/31/2021 6:45:00 AM 5.79 42.422 0.059 6.78 3.24 11.71
12/31/2021 7:00:00 AM 5.79 42.422 0.059 6.78 3.22 11.71
12/31/2021 7:15:00 AM 5.79 42.422 0.059 6.79 3.14 11.71
12/31/2021 7:30:00 AM 5.79 42.422 0.059 6.79 3.19 11.71
12/31/2021 7:45:00 AM 5.79 42.422 0.059 6.78 3.32 11.71
12/31/2021 8:00:00 AM 5.79 42.422 0.059 6.8 2.89 11.72
12/31/2021 8:15:00 AM 5.8 42.44 0.058 6.81 3.15 11.74
12/31/2021 8:30:00 AM 5.81 42.458 0.058 6.81 2.92 11.78
12/31/2021 8:45:00 AM 5.82 42.476 0.058 6.82 2.93 11.8
12/31/2021 9:00:00 AM 5.82 42.476 0.058 6.8 2.92 11.84
12/31/2021 9:15:00 AM 5.84 42.512 0.058 6.82 3.09 11.89
12/31/2021 9:30:00 AM 5.87 42.566 0.058 6.84 3.19 11.94
12/31/2021 9:45:00 AM 5.89 42.602 0.058 6.83 3.01 11.93
12/31/2021 10:00:00 AM 5.92 42.656 0.057 6.86 2.86 11.95
12/31/2021 10:15:00 AM 5.96 42.728 0.057 6.87 3.22 11.99
12/31/2021 10:30:00 AM 6.07 42.926 0.057 6.88 3.05 12.03
12/31/2021 10:45:00 AM 6.16 43.088 0.057 6.91 3.02 12.04
12/31/2021 11:00:00 AM 6.24 43.232 0.057 6.93 2.88 12.03
12/31/2021 11:15:00 AM 6.27 43.286 0.057 6.92 3.21 12
12/31/2021 11:30:00 AM 6.3 43.34 0.057 6.93 2.94 12
12/31/2021 11:45:00 AM 6.3 43.34 0.057 6.95 3.11 11.99
12/31/2021 12:00:00 PM 6.33 43.394 0.056 6.95 3.14 11.98
12/31/2021 12:15:00 PM 6.44 43.592 0.056 6.96 3 11.99
12/31/2021 12:30:00 PM 6.51 43.718 0.056 6.96 2.89 11.96
12/31/2021 12:45:00 PM 6.61 43.898 0.056 6.96 2.98 11.96
12/31/2021 1:00:00 PM 6.66 43.988 0.056 6.97 2.92 11.94
12/31/2021 1:15:00 PM 6.7 44.06 0.056 7 2.81 11.92
12/31/2021 1:30:00 PM 6.75 44.15 0.056 6.98 2.8 11.91
12/31/2021 1:45:00 PM 6.82 44.276 0.055 7 4 11.9
12/31/2021 2:00:00 PM 6.88 44.384 0.055 7.01 3.05 11.87
12/31/2021 2:15:00 PM 6.94 44.492 0.055 7 2.98 11.84
12/31/2021 2:30:00 PM 6.98 44.564 0.055 6.99 3.11 11.81
12/31/2021 2:45:00 PM 7 44.6 0.055 6.99 2.88 11.78
12/31/2021 3:00:00 PM 7.02 44.636 0.055 6.99 3.25 11.75
12/31/2021 3:15:00 PM 7.03 44.654 0.055 6.98 2.9 11.71
12/31/2021 3:30:00 PM 7.05 44.69 0.055 6.96 3.09 11.66
12/31/2021 3:45:00 PM 7.06 44.708 0.055 6.95 3.03 11.64
12/31/2021 4:00:00 PM 7.06 44.708 0.055 6.94 3.02 11.59
12/31/2021 4:15:00 PM 7.05 44.69 0.055 6.82 2.89 11.55
12/31/2021 4:30:00 PM 7.02 44.636 0.055 6.91 2.99 11.51
12/31/2021 4:45:00 PM 6.99 44.582 0.055 6.88 2.89 11.47
12/31/2021 5:00:00 PM 6.96 44.528 0.055 6.87 2.8 11.45
12/31/2021 5:15:00 PM 6.92 44.456 0.055 6.86 3.25 11.42
12/31/2021 5:30:00 PM 6.89 44.402 0.055 6.85 3.2 11.41
12/31/2021 5:45:00 PM 6.86 44.348 0.055 6.84 3.32 11.4
12/31/2021 6:00:00 PM 6.83 44.294 0.055 6.83 3.22 11.4
12/31/2021 6:15:00 PM 6.8 44.24 0.055 6.82 3.9 11.4
12/31/2021 6:30:00 PM 6.77 44.186 0.055 6.76 3.35 11.41
12/31/2021 6:45:00 PM 6.73 44.114 0.055 6.83 3.25 11.42
12/31/2021 7:00:00 PM 6.7 44.06 0.055 6.83 3.01 11.42
12/31/2021 7:15:00 PM 6.66 43.988 0.055 6.81 3 11.43
12/31/2021 7:30:00 PM 6.63 43.934 0.055 6.8 3.09 11.44
12/31/2021 7:45:00 PM 6.59 43.862 0.055 6.8 3.12 11.45
12/31/2021 8:00:00 PM 6.54 43.772 0.055 6.81 3.43 11.46
12/31/2021 8:15:00 PM 6.49 43.682 0.055 6.79 3.46 11.47
12/31/2021 8:30:00 PM 6.45 43.61 0.055 6.79 3.33 11.48
12/31/2021 8:45:00 PM 6.41 43.538 0.055 6.76 3.06 11.49
12/31/2021 9:00:00 PM 6.37 43.466 0.055 6.79 3.25 11.51
12/31/2021 9:15:00 PM 6.33 43.394 0.055 6.79 3.17 11.52
12/31/2021 9:30:00 PM 6.3 43.34 0.055 6.79 3.09 11.53
12/31/2021 9:45:00 PM 6.27 43.286 0.055 6.79 3.15 11.54
12/31/2021 10:00:00 PM 6.24 43.232 0.055 6.79 3.3 11.55
12/31/2021 10:15:00 PM 6.22 43.196 0.055 6.79 3.08 11.56
12/31/2021 10:30:00 PM 6.21 43.178 0.055 6.79 3.18 11.56
12/31/2021 10:45:00 PM 6.2 43.16 0.055 6.72 3.2 11.57
12/31/2021 11:00:00 PM 6.19 43.142 0.055 6.8 3.34 11.57
12/31/2021 11:15:00 PM 6.18 43.124 0.055 6.76 3.04 11.57
12/31/2021 11:30:00 PM 6.17 43.106 0.055 6.79 3.27 11.58
12/31/2021 11:45:00 PM 6.16 43.088 0.055 6.82 3.08 11.58
1/1/2022 12:00:00 AM 6.15 43.07 0.055 6.79 3.31 11.58
1/1/2022 12:15:00 AM 6.15 43.07 0.055 6.8 3.32 11.58
1/1/2022 12:30:00 AM 6.14 43.052 0.054 6.81 3.13 11.58
1/1/2022 12:45:00 AM 6.14 43.052 0.054 6.81 3.21 11.59
1/1/2022 1:00:00 AM 6.13 43.034 0.054 6.79 3.13 11.58
1/1/2022 1:15:00 AM 6.13 43.034 0.054 6.78 3.39 11.58
1/1/2022 1:30:00 AM 6.13 43.034 0.054 6.81 3.09 11.59
1/1/2022 1:45:00 AM 6.13 43.034 0.054 6.73 3.12 11.58
1/1/2022 2:00:00 AM 6.13 43.034 0.054 6.78 3.18 11.58
1/1/2022 2:15:00 AM 6.13 43.034 0.054 6.8 3.46 11.58
1/1/2022 2:30:00 AM 6.14 43.052 0.054 6.82 3.26 11.57
1/1/2022 2:45:00 AM 6.15 43.07 0.054 6.79 3.2 11.57
1/1/2022 3:00:00 AM 6.16 43.088 0.054 6.8 3.37 11.57
1/1/2022 3:15:00 AM 6.17 43.106 0.054 6.79 3.16 11.57
1/1/2022 3:30:00 AM 6.18 43.124 0.054 6.79 3.3 11.56
1/1/2022 3:45:00 AM 6.2 43.16 0.054 6.76 5.96 11.55
1/1/2022 4:00:00 AM 6.22 43.196 0.054 6.78 3.67 11.55
1/1/2022 4:15:00 AM 6.24 43.232 0.053 6.79 3.76 11.54
1/1/2022 4:30:00 AM 6.27 43.286 0.053 6.78 3.57 11.53
1/1/2022 4:45:00 AM 6.29 43.322 0.053 6.77 3.69 11.52
1/1/2022 5:00:00 AM 6.32 43.376 0.053 6.77 3.55 11.51
1/1/2022 5:15:00 AM 6.34 43.412 0.053 6.77 3.98 11.5
1/1/2022 5:30:00 AM 6.37 43.466 0.053 6.76 4.28 11.5
1/1/2022 5:45:00 AM 6.38 43.484 0.053 6.67 4.43 11.49
1/1/2022 6:00:00 AM 6.39 43.502 0.053 6.79 3.35 11.48
1/1/2022 6:15:00 AM 6.4 43.52 0.053 6.77 3.51 11.48
1/1/2022 6:30:00 AM 6.41 43.538 0.053 6.79 3.48 11.48
1/1/2022 6:45:00 AM 6.42 43.556 0.053 6.79 3.33 11.47
1/1/2022 7:00:00 AM 6.44 43.592 0.053 6.78 3.34 11.47
1/1/2022 7:15:00 AM 6.45 43.61 0.053 6.77 3.54 11.47
1/1/2022 7:30:00 AM 6.47 43.646 0.053 6.77 3.4 11.46
1/1/2022 7:45:00 AM 6.48 43.664 0.053 6.77 3.19 11.46
1/1/2022 8:00:00 AM 6.49 43.682 0.053 6.8 3.06 11.46
1/1/2022 8:15:00 AM 6.51 43.718 0.053 6.78 3.3 11.47
1/1/2022 8:30:00 AM 6.53 43.754 0.053 6.78 3.2 11.48
1/1/2022 8:45:00 AM 6.55 43.79 0.052 6.77 3.11 11.49
1/1/2022 9:00:00 AM 6.57 43.826 0.052 6.79 3.15 11.49
1/1/2022 9:15:00 AM 6.59 43.862 0.052 6.79 3.33 11.51
1/1/2022 9:30:00 AM 6.61 43.898 0.052 6.8 2.87 11.54
1/1/2022 9:45:00 AM 6.64 43.952 0.052 6.81 3.29 11.57
1/1/2022 10:00:00 AM 6.66 43.988 0.052 6.82 3.11 11.59
1/1/2022 10:15:00 AM 6.69 44.042 0.052 6.83 2.92 11.61
1/1/2022 10:30:00 AM 6.72 44.096 0.052 6.84 3.08 11.63
1/1/2022 10:45:00 AM 6.75 44.15 0.052 6.84 2.87 11.62
1/1/2022 11:00:00 AM 6.79 44.222 0.052 6.86 2.99 11.64
1/1/2022 11:15:00 AM 6.83 44.294 0.052 6.87 3.08 11.67
1/1/2022 11:30:00 AM 6.86 44.348 0.052 6.89 3.02 11.63
1/1/2022 11:45:00 AM 6.9 44.42 0.052 6.87 3.59 11.62
1/1/2022 12:00:00 PM 6.94 44.492 0.052 6.88 3.02 11.62
1/1/2022 12:15:00 PM 6.99 44.582 0.051 6.88 3.08 11.63
1/1/2022 12:30:00 PM 7.05 44.69 0.051 6.91 3.05 11.65
1/1/2022 12:45:00 PM 7.12 44.816 0.051 6.93 3.16 11.66
1/1/2022 1:00:00 PM 7.2 44.96 0.051 6.93 3.01 11.66
1/1/2022 1:15:00 PM 7.26 45.068 0.051 6.96 3.01 11.63
1/1/2022 1:30:00 PM 7.31 45.158 0.051 6.94 3.14 11.6
1/1/2022 1:45:00 PM 7.36 45.248 0.051 6.94 3.08 11.58
1/1/2022 2:00:00 PM 7.4 45.32 0.051 6.95 3.06 11.53
1/1/2022 2:15:00 PM 7.44 45.392 0.051 6.94 2.99 11.51
1/1/2022 2:30:00 PM 7.49 45.482 0.051 6.87 3.11 11.5
1/1/2022 2:45:00 PM 7.52 45.536 0.051 6.95 2.97 11.43
1/1/2022 3:00:00 PM 7.54 45.572 0.051 6.92 3.19 11.4
1/1/2022 3:15:00 PM 7.56 45.608 0.051 6.91 3.13 11.37
1/1/2022 3:30:00 PM 7.58 45.644 0.051 6.89 2.97 11.33
1/1/2022 3:45:00 PM 7.6 45.68 0.051 6.88 3.02 11.3
1/1/2022 4:00:00 PM 7.61 45.698 0.051 6.87 3.45 11.27
1/1/2022 4:15:00 PM 7.62 45.716 0.051 6.86 3.33 11.24
1/1/2022 4:30:00 PM 7.63 45.734 0.051 6.84 3.06 11.2
1/1/2022 4:45:00 PM 7.63 45.734 0.051 6.83 2.96 11.18
1/1/2022 5:00:00 PM 7.63 45.734 0.051 6.84 2.9 11.16
1/1/2022 5:15:00 PM 7.63 45.734 0.051 6.81 3.12 11.14
1/1/2022 5:30:00 PM 7.63 45.734 0.051 6.8 3.29 11.12
1/1/2022 5:45:00 PM 7.62 45.716 0.051 6.79 3.35 11.12
1/1/2022 6:00:00 PM 7.62 45.716 0.051 6.78 3.48 11.11
1/1/2022 6:15:00 PM 7.61 45.698 0.051 6.77 3.43 11.11
1/1/2022 6:30:00 PM 7.6 45.68 0.051 6.77 3.42 11.11
1/1/2022 6:45:00 PM 7.59 45.662 0.051 6.77 3.41 11.11
1/1/2022 7:00:00 PM 7.58 45.644 0.051 6.76 3.24 11.11
1/1/2022 7:15:00 PM 7.58 45.644 0.051 6.75 3.3 11.11
1/1/2022 7:30:00 PM 7.57 45.626 0.051 6.75 3.59 11.11
1/1/2022 7:45:00 PM 7.55 45.59 0.051 6.74 3.41 11.11
1/1/2022 8:00:00 PM 7.54 45.572 0.051 6.74 3.37 11.11
1/1/2022 8:15:00 PM 7.53 45.554 0.051 6.73 3.45 11.12
1/1/2022 8:30:00 PM 7.52 45.536 0.051 6.73 3.71 11.12
1/1/2022 8:45:00 PM 7.5 45.5 0.051 6.74 3.35 11.12
1/1/2022 9:00:00 PM 7.49 45.482 0.051 6.65 3.62 11.12
1/1/2022 9:15:00 PM 7.48 45.464 0.051 6.73 3.4 11.12
1/1/2022 9:30:00 PM 7.47 45.446 0.051 6.74 3.62 11.12
1/1/2022 9:45:00 PM 7.47 45.446 0.051 6.74 3.41 11.13
1/1/2022 10:00:00 PM 7.46 45.428 0.051 6.73 3.33 11.13
1/1/2022 10:15:00 PM 7.45 45.41 0.051 6.74 3.22 11.13
1/1/2022 10:30:00 PM 7.43 45.374 0.051 6.76 3.74 11.13
1/1/2022 10:45:00 PM 7.41 45.338 0.051 6.77 3.41 11.13
1/1/2022 11:00:00 PM 7.39 45.302 0.051 6.77 3.51 11.14
1/1/2022 11:15:00 PM 7.34 45.212 0.051 6.78 3.75 11.16
1/1/2022 11:30:00 PM 7.31 45.158 0.051 6.77 3.59 11.16
1/1/2022 11:45:00 PM 7.27 45.086 0.051 6.78 3.82 11.18
1/2/2022 12:00:00 AM 7.23 45.014 0.051 6.79 3.74 11.19
1/2/2022 12:15:00 AM 7.19 44.942 0.051 6.78 4.02 11.2
1/2/2022 12:30:00 AM 7.15 44.87 0.051 6.78 3.64 11.22
1/2/2022 12:45:00 AM 7.12 44.816 0.051 6.78 3.65 11.22
1/2/2022 1:00:00 AM 7.08 44.744 0.051 6.77 4.4 11.23
1/2/2022 1:15:00 AM 7.05 44.69 0.051 6.78 3.94 11.24
1/2/2022 1:30:00 AM 7.02 44.636 0.051 6.77 3.92 11.25
1/2/2022 1:45:00 AM 6.98 44.564 0.051 6.77 4.02 11.26
1/2/2022 2:00:00 AM 6.95 44.51 0.051 6.79 4.4 11.27
1/2/2022 2:15:00 AM 6.92 44.456 0.051 6.77 4.19 11.28
1/2/2022 2:30:00 AM 6.89 44.402 0.051 6.8 4.59 11.29
1/2/2022 2:45:00 AM 6.85 44.33 0.052 6.79 4.22 11.3
1/2/2022 3:00:00 AM 6.82 44.276 0.052 6.79 4 11.31
1/2/2022 3:15:00 AM 6.79 44.222 0.052 6.78 3.92 11.32
1/2/2022 3:30:00 AM 6.75 44.15 0.053 6.78 4.31 11.33
1/2/2022 3:45:00 AM 6.72 44.096 0.053 6.7 4.28 11.34
1/2/2022 4:00:00 AM 6.69 44.042 0.053 6.79 4 11.36
1/2/2022 4:15:00 AM 6.65 43.97 0.053 6.78 4.55 11.36
1/2/2022 4:30:00 AM 6.62 43.916 0.053 6.79 4.58 11.37
1/2/2022 4:45:00 AM 6.59 43.862 0.053 6.77 5.25 11.38
1/2/2022 5:00:00 AM 6.56 43.808 0.053 6.78 4.57 11.39
1/2/2022 5:15:00 AM 6.52 43.736 0.053 6.79 4.18 11.4
1/2/2022 5:30:00 AM 6.49 43.682 0.053 6.78 4.67 11.41
1/2/2022 5:45:00 AM 6.46 43.628 0.053 6.78 4.57 11.42
1/2/2022 6:00:00 AM 6.43 43.574 0.053 6.76 4.46 11.43
1/2/2022 6:15:00 AM 6.4 43.52 0.053 6.78 4.75 11.44
1/2/2022 6:30:00 AM 6.37 43.466 0.053 6.79 4.55 11.45
1/2/2022 6:45:00 AM 6.34 43.412 0.054 6.78 4.39 11.46
1/2/2022 7:00:00 AM 6.31 43.358 0.054 6.78 4.65 11.47
1/2/2022 7:15:00 AM 6.29 43.322 0.054 6.77 4.52 11.48
1/2/2022 7:30:00 AM 6.26 43.268 0.054 6.78 4.84 11.49
1/2/2022 7:45:00 AM 6.24 43.232 0.055 6.77 4.28 11.51
1/2/2022 8:00:00 AM 6.21 43.178 0.055 6.79 4.2 11.52
1/2/2022 8:15:00 AM 6.19 43.142 0.055 6.78 3.9 11.53
1/2/2022 8:30:00 AM 6.17 43.106 0.055 6.78 3.81 11.56
1/2/2022 8:45:00 AM 6.15 43.07 0.055 6.79 4.15 11.57
1/2/2022 9:00:00 AM 6.13 43.034 0.055 6.8 3.47 11.61
1/2/2022 9:15:00 AM 6.11 42.998 0.055 6.81 3.8 11.64
1/2/2022 9:30:00 AM 6.09 42.962 0.056 6.81 4.09 11.68
1/2/2022 9:45:00 AM 6.06 42.908 0.055 6.82 3.52 11.71
1/2/2022 10:00:00 AM 6.04 42.872 0.056 6.83 3.8 11.75
1/2/2022 10:15:00 AM 6.02 42.836 0.056 6.83 3.57 11.77
1/2/2022 10:30:00 AM 6.01 42.818 0.056 6.86 3.73 11.83
1/2/2022 10:45:00 AM 5.99 42.782 0.056 6.86 3.55 11.84
1/2/2022 11:00:00 AM 5.97 42.746 0.056 6.87 3.7 11.86
1/2/2022 11:15:00 AM 5.94 42.692 0.056 6.87 3.73 11.88
1/2/2022 11:30:00 AM 5.94 42.692 0.056 6.87 3.29 11.93
1/2/2022 11:45:00 AM 5.93 42.674 0.056 6.88 3.39 11.94
1/2/2022 12:00:00 PM 5.93 42.674 0.056 6.89 3.46 11.97
1/2/2022 12:15:00 PM 5.94 42.692 0.057 6.91 3.4 12
1/2/2022 12:30:00 PM 5.94 42.692 0.057 6.92 3.43 12
1/2/2022 12:45:00 PM 5.92 42.656 0.057 6.93 3.34 12
1/2/2022 1:00:00 PM 5.89 42.602 0.057 6.91 3.69 11.99
1/2/2022 1:15:00 PM 5.87 42.566 0.057 6.91 3.49 12
1/2/2022 1:30:00 PM 5.85 42.53 0.057 6.92 3.41 11.99
1/2/2022 1:45:00 PM 5.81 42.458 0.057 6.91 3.66 12
1/2/2022 2:00:00 PM 5.79 42.422 0.057 6.92 3.81 12.01
1/2/2022 2:15:00 PM 5.77 42.386 0.057 6.92 3.67 12.02
1/2/2022 2:30:00 PM 5.75 42.35 0.057 6.91 3.36 12.03
1/2/2022 2:45:00 PM 5.72 42.296 0.057 6.91 3.39 12.02
1/2/2022 3:00:00 PM 5.69 42.242 0.057 6.92 3.36 12.01
1/2/2022 3:15:00 PM 5.65 42.17 0.057 6.9 3.3 12.01
1/2/2022 3:30:00 PM 5.61 42.098 0.057 6.91 3.41 12
1/2/2022 3:45:00 PM 5.57 42.026 0.057 6.88 3.24 11.98
1/2/2022 4:00:00 PM 5.53 41.954 0.057 6.87 3.55 11.97
1/2/2022 4:15:00 PM 5.49 41.882 0.057 6.88 3.31 11.95
1/2/2022 4:30:00 PM 5.44 41.792 0.057 6.85 3.41 11.94
1/2/2022 4:45:00 PM 5.4 41.72 0.057 6.88 3.32 11.93
1/2/2022 5:00:00 PM 5.35 41.63 0.057 6.84 3.32 11.93
1/2/2022 5:15:00 PM 5.32 41.576 0.057 6.84 3.53 11.93
1/2/2022 5:30:00 PM 5.28 41.504 0.057 6.83 3.6 11.94
1/2/2022 5:45:00 PM 5.24 41.432 0.057 6.83 3.39 11.95
1/2/2022 6:00:00 PM 5.19 41.342 0.057 6.81 3.33 11.96
1/2/2022 6:15:00 PM 5.15 41.27 0.057 6.82 3.4 11.97
1/2/2022 6:30:00 PM 5.11 41.198 0.057 6.82 3.6 11.99
1/2/2022 6:45:00 PM 5.06 41.108 0.057 6.82 3.41 12.01
1/2/2022 7:00:00 PM 5.02 41.036 0.057 6.81 3.48 12.02
1/2/2022 7:15:00 PM 4.98 40.964 0.057 6.8 3.47 12.03
1/2/2022 7:30:00 PM 4.93 40.874 0.057 6.8 3.69 12.05
1/2/2022 7:45:00 PM 4.9 40.82 0.057 6.8 3.59 12.07
1/2/2022 8:00:00 PM 4.85 40.73 0.057 6.81 3.62 12.09
1/2/2022 8:15:00 PM 4.82 40.676 0.057 6.81 3.54 12.1
1/2/2022 8:30:00 PM 4.78 40.604 0.057 6.8 3.78 12.11
1/2/2022 8:45:00 PM 4.75 40.55 0.056 6.8 3.52 12.12
1/2/2022 9:00:00 PM 4.7 40.46 0.056 6.81 3.59 12.14
1/2/2022 9:15:00 PM 4.66 40.388 0.056 6.81 3.97 12.15
1/2/2022 9:30:00 PM 4.62 40.316 0.056 6.81 3.33 12.18
1/2/2022 9:45:00 PM 4.57 40.226 0.056 6.79 3.72 12.19
1/2/2022 10:00:00 PM 4.53 40.154 0.056 6.79 3.31 12.21
1/2/2022 10:15:00 PM 4.49 40.082 0.056 6.68 3.59 12.22
1/2/2022 10:30:00 PM 4.45 40.01 0.056 6.82 3.51 12.23
1/2/2022 10:45:00 PM 4.41 39.938 0.056 6.8 3.58 12.25
1/2/2022 11:00:00 PM 4.36 39.848 0.056 6.8 3.67 12.27
1/2/2022 11:15:00 PM 4.32 39.776 0.056 6.81 3.53 12.28
1/2/2022 11:30:00 PM 4.29 39.722 0.056 6.8 3.63 12.29
1/2/2022 11:45:00 PM 4.26 39.668 0.056 6.8 3.38 12.31
1/3/2022 12:00:00 AM 4.22 39.596 0.056 6.8 3.51 12.32
1/3/2022 12:15:00 AM 4.17 39.506 0.055 6.79 3.36 12.34
1/3/2022 12:30:00 AM 4.13 39.434 0.055 6.8 3.68 12.36
1/3/2022 12:45:00 AM 4.1 39.38 0.055 6.8 3.89 12.37
1/3/2022 1:00:00 AM 4.06 39.308 0.055 6.8 3.87 12.38
1/3/2022 1:15:00 AM 4.03 39.254 0.055 6.79 3.77 12.4
1/3/2022 1:30:00 AM 3.99 39.182 0.055 6.79 3.77 12.41
1/3/2022 1:45:00 AM 3.96 39.128 0.055 6.79 3.62 12.43
1/3/2022 2:00:00 AM 3.92 39.056 0.055 6.8 3.62 12.44
1/3/2022 2:15:00 AM 3.88 38.984 0.055 6.79 3.67 12.45
1/3/2022 2:30:00 AM 3.85 38.93 0.055 6.8 3.63 12.46
1/3/2022 2:45:00 AM 3.81 38.858 0.055 6.8 3.43 12.48
1/3/2022 3:00:00 AM 3.77 38.786 0.055 6.8 3.5 12.49
1/3/2022 3:15:00 AM 3.73 38.714 0.055 6.8 4.13 12.51
1/3/2022 3:30:00 AM 3.7 38.66 0.055 6.82 3.27 12.53
1/3/2022 3:45:00 AM 3.67 38.606 0.054 6.8 3.25 12.55
1/3/2022 4:00:00 AM 3.64 38.552 0.054 6.78 3.47 12.55
1/3/2022 4:15:00 AM 3.59 38.462 0.054 6.8 3.55 12.55
1/3/2022 4:30:00 AM 3.55 38.39 0.054 6.51 3.55 12.58
1/3/2022 4:45:00 AM 3.52 38.336 0.054 6.8 3.87 12.59
1/3/2022 5:00:00 AM 3.48 38.264 0.054 6.78 3.81 12.6
1/3/2022 5:15:00 AM 3.45 38.21 0.054 6.8 3.57 12.62
1/3/2022 5:30:00 AM 3.42 38.156 0.054 6.76 4.04 12.63
1/3/2022 5:45:00 AM 3.38 38.084 0.054 6.79 3.75 12.63
1/3/2022 6:00:00 AM 3.34 38.012 0.054 6.79 3.35 12.65
1/3/2022 6:15:00 AM 3.3 37.94 0.054 6.79 3.41 12.67
1/3/2022 6:30:00 AM 3.26 37.868 0.054 6.78 4.24 12.68
1/3/2022 6:45:00 AM 3.22 37.796 0.054 6.78 4.11 12.69
1/3/2022 7:00:00 AM 3.18 37.724 0.054 6.82 3.69 12.7
1/3/2022 7:15:00 AM 3.14 37.652 0.054 6.79 3.6 12.72
1/3/2022 7:30:00 AM 3.1 37.58 0.054 6.79 3.86 12.74
1/3/2022 7:45:00 AM 3.06 37.508 0.053 6.79 3.56 12.76
1/3/2022 8:00:00 AM 3.03 37.454 0.053 6.78 3.39 12.78
1/3/2022 8:15:00 AM 2.98 37.364 0.053 6.79 3.51 12.81
1/3/2022 8:30:00 AM 2.94 37.292 0.053 6.79 3.39 12.86
1/3/2022 8:45:00 AM 2.89 37.202 0.053 6.81 3.5 12.91
1/3/2022 9:00:00 AM 2.87 37.166 0.053 6.81 3.26 12.96
1/3/2022 9:15:00 AM 2.84 37.112 0.053 6.82 3.4 13.01
1/3/2022 9:30:00 AM 2.83 37.094 0.053 6.84 3.36 13.05
1/3/2022 9:45:00 AM 2.83 37.094 0.053 6.84 3.08 13.1
1/3/2022 10:00:00 AM 2.84 37.112 0.053 6.85 3.15 13.13
1/3/2022 10:15:00 AM 2.84 37.112 0.053 6.87 3.42 13.16
1/3/2022 10:30:00 AM 2.84 37.112 0.052 6.86 3.3 13.18
1/3/2022 10:45:00 AM 2.86 37.148 0.052 6.89 3.26 13.19
1/3/2022 11:00:00 AM 2.85 37.13 0.052 6.88 3.29 13.19
1/3/2022 11:15:00 AM 2.86 37.148 0.052 6.9 3.19 13.2
1/3/2022 11:30:00 AM 2.85 37.13 0.052 6.89 3.4 13.21
1/3/2022 11:45:00 AM 2.86 37.148 0.052 6.9 3.29 13.2
1/3/2022 12:00:00 PM 2.87 37.166 0.052 6.89 3.13 13.19
1/3/2022 12:15:00 PM 2.86 37.148 0.052 6.87 3.47 13.19
1/3/2022 12:30:00 PM 2.85 37.13 0.052 6.81 3.06 13.18
1/3/2022 12:45:00 PM 2.87 37.166 0.052 6.8 3 13.18
1/3/2022 1:00:00 PM 2.9 37.22 0.052 6.86 3.25 13.16
1/3/2022 1:15:00 PM 2.95 37.31 0.052 6.88 3.35 13.14
1/3/2022 1:30:00 PM 2.98 37.364 0.051 6.9 3.16 13.12
1/3/2022 1:45:00 PM 2.99 37.382 0.051 6.88 3.04 13.11
1/3/2022 2:00:00 PM 3 37.4 0.051 6.89 3.52 13.1
1/3/2022 2:15:00 PM 3 37.4 0.051 6.89 2.92 13.08
1/3/2022 2:30:00 PM 3 37.4 0.051 6.88 3.17 13.08
1/3/2022 2:45:00 PM 2.99 37.382 0.051 6.89 3.13 13.07
1/3/2022 3:00:00 PM 2.97 37.346 0.051 6.88 3.18 13.06
1/3/2022 3:15:00 PM 2.95 37.31 0.051 6.88 3.22 13.05
1/3/2022 3:30:00 PM 2.91 37.238 0.051 6.89 3.3 13.05
1/3/2022 3:45:00 PM 2.86 37.148 0.051 6.88 2.98 13.05
1/3/2022 4:00:00 PM 2.81 37.058 0.051 6.83 3.14 13.04
1/3/2022 4:15:00 PM 2.76 36.968 0.051 6.83 3.3 13.04
1/3/2022 4:30:00 PM 2.7 36.86 0.051 6.8 3.16 13.04
1/3/2022 4:45:00 PM 2.66 36.788 0.051 6.8 3.13 13.03
1/3/2022 5:00:00 PM 2.62 36.716 0.051 6.78 3.39 13.03
1/3/2022 5:15:00 PM 2.56 36.608 0.051 6.78 3.21 13.02
1/3/2022 5:30:00 PM 2.51 36.518 0.051 6.78 3.19 13.03
1/3/2022 5:45:00 PM 2.47 36.446 0.051 6.77 3.39 13.03
1/3/2022 6:00:00 PM 2.41 36.338 0.051 6.77 3.29 13.04
1/3/2022 6:15:00 PM 2.37 36.266 0.051 6.77 3.08 13.05
1/3/2022 6:30:00 PM 2.33 36.194 0.051 6.76 3.29 13.07
1/3/2022 6:45:00 PM 2.29 36.122 0.051 6.77 3.42 13.08
1/3/2022 7:00:00 PM 2.25 36.05 0.051 6.79 3.32 13.08
1/3/2022 7:15:00 PM 2.21 35.978 0.051 6.75 3.14 13.1
1/3/2022 7:30:00 PM 2.18 35.924 0.051 6.76 3.54 13.11
1/3/2022 7:45:00 PM 2.15 35.87 0.051 6.75 3.41 13.13
1/3/2022 8:00:00 PM 2.12 35.816 0.051 6.77 3.41 13.14
1/3/2022 8:15:00 PM 2.09 35.762 0.051 6.76 3.47 13.15
1/3/2022 8:30:00 PM 2.05 35.69 0.051 6.76 3.44 13.17
1/3/2022 8:45:00 PM 2.02 35.636 0.051 6.76 3.33 13.18
1/3/2022 9:00:00 PM 1.98 35.564 0.051 6.75 3.3 13.2
1/3/2022 9:15:00 PM 1.95 35.51 0.051 6.75 3.68 13.21
1/3/2022 9:30:00 PM 1.92 35.456 0.051 6.75 3.34 13.23
1/3/2022 9:45:00 PM 1.89 35.402 0.051 6.76 3.18 13.24
1/3/2022 10:00:00 PM 1.86 35.348 0.051 6.76 3.18 13.25
1/3/2022 10:15:00 PM 1.83 35.294 0.051 6.75 3.16 13.26
1/3/2022 10:30:00 PM 1.8 35.24 0.051 6.76 3.24 13.28
1/3/2022 10:45:00 PM 1.78 35.204 0.051 6.77 3.22 13.28
1/3/2022 11:00:00 PM 1.75 35.15 0.051 6.76 3.21 13.3
1/3/2022 11:15:00 PM 1.73 35.114 0.051 6.77 3.63 13.31
1/3/2022 11:30:00 PM 1.71 35.078 0.051 6.78 3.14 13.33
1/3/2022 11:45:00 PM 1.69 35.042 0.051 6.77 3.66 13.33
1/4/2022 12:00:00 AM 1.67 35.006 0.051 6.77 3.12 13.34
1/4/2022 12:15:00 AM 1.65 34.97 0.051 6.77 3.38 13.34
1/4/2022 12:30:00 AM 1.63 34.934 0.051 6.76 3.52 13.35
1/4/2022 12:45:00 AM 1.61 34.898 0.05 6.78 3.28 13.36
1/4/2022 1:00:00 AM 1.58 34.844 0.05 6.76 3.71 13.37
1/4/2022 1:15:00 AM 1.56 34.808 0.05 6.78 3.24 13.38
1/4/2022 1:30:00 AM 1.55 34.79 0.05 6.77 3.29 13.38
1/4/2022 1:45:00 AM 1.55 34.79 0.05 6.77 3.24 13.39
1/4/2022 2:00:00 AM 1.56 34.808 0.05 6.78 3.46 13.39
1/4/2022 2:15:00 AM 1.57 34.826 0.05 6.78 3.59 13.39
1/4/2022 2:30:00 AM 1.57 34.826 0.05 6.78 3.35 13.4
1/4/2022 2:45:00 AM 1.57 34.826 0.05 6.76 3.27 13.4
1/4/2022 3:00:00 AM 1.57 34.826 0.05 6.81 3.44 13.4
1/4/2022 3:15:00 AM 1.55 34.79 0.05 6.78 3.18 13.4
1/4/2022 3:30:00 AM 1.54 34.772 0.05 6.72 3.47 13.4
1/4/2022 3:45:00 AM 1.52 34.736 0.05 6.76 3.26 13.4
1/4/2022 4:00:00 AM 1.5 34.7 0.05 6.78 3.57 13.41
1/4/2022 4:15:00 AM 1.49 34.682 0.05 6.77 3.79 13.41
1/4/2022 4:30:00 AM 1.47 34.646 0.05 6.76 3.45 13.41
1/4/2022 4:45:00 AM 1.46 34.628 0.05 6.77 3.39 13.42
1/4/2022 5:00:00 AM 1.44 34.592 0.05 6.76 3.38 13.43
1/4/2022 5:15:00 AM 1.42 34.556 0.05 6.76 4.47 13.43
1/4/2022 5:30:00 AM 1.4 34.52 0.05 6.76 3.82 13.44
1/4/2022 5:45:00 AM 1.39 34.502 0.05 6.75 3.66 13.44
1/4/2022 6:00:00 AM 1.38 34.484 0.05 6.77 3.42 13.45
1/4/2022 6:15:00 AM 1.37 34.466 0.05 6.75 3.48 13.46
1/4/2022 6:30:00 AM 1.36 34.448 0.05 6.75 3.59 13.46
1/4/2022 6:45:00 AM 1.35 34.43 0.05 6.75 3.43 13.47
1/4/2022 7:00:00 AM 1.34 34.412 0.05 6.75 3.26 13.47
1/4/2022 7:15:00 AM 1.33 34.394 0.05 6.75 3.55 13.47
1/4/2022 7:30:00 AM 1.32 34.376 0.05 6.79 4.16 13.47
1/4/2022 7:45:00 AM 1.31 34.358 0.05 6.77 3.66 13.49
1/4/2022 8:00:00 AM 1.31 34.358 0.05 6.79 3.31 13.5
1/4/2022 8:15:00 AM 1.31 34.358 0.049 6.78 3.44 13.52
1/4/2022 8:30:00 AM 1.32 34.376 0.049 6.79 3.28 13.54
1/4/2022 8:45:00 AM 1.34 34.412 0.049 6.78 3.12 13.56
1/4/2022 9:00:00 AM 1.36 34.448 0.049 6.79 3.17 13.58
1/4/2022 9:15:00 AM 1.38 34.484 0.049 6.81 3.37 13.61
1/4/2022 9:30:00 AM 1.42 34.556 0.049 6.81 3.25 13.62
1/4/2022 9:45:00 AM 1.46 34.628 0.049 6.83 3.33 13.62
1/4/2022 10:00:00 AM 1.51 34.718 0.049 6.83 3.28 13.62
1/4/2022 10:15:00 AM 1.57 34.826 0.049 6.84 3.19 13.62
1/4/2022 10:30:00 AM 1.64 34.952 0.049 6.83 2.97 13.62
1/4/2022 10:45:00 AM 1.71 35.078 0.049 6.84 3.08 13.61
1/4/2022 11:00:00 AM 1.8 35.24 0.049 6.85 2.87 13.6
1/4/2022 11:15:00 AM 1.88 35.384 0.049 6.87 3.44 13.57
1/4/2022 11:30:00 AM 1.97 35.546 0.049 6.88 3.05 13.54
1/4/2022 11:45:00 AM 2.06 35.708 0.049 6.87 3.02 13.51
1/4/2022 12:00:00 PM 2.16 35.888 0.048 6.88 3.06 13.48
1/4/2022 12:15:00 PM 2.28 36.104 0.048 6.87 2.86 13.44
1/4/2022 12:30:00 PM 2.38 36.284 0.048 6.86 2.99 13.39
1/4/2022 12:45:00 PM 2.48 36.464 0.048 6.88 3.04 13.36
1/4/2022 1:00:00 PM 2.59 36.662 0.048 6.88 3.41 13.32
1/4/2022 1:15:00 PM 2.7 36.86 0.048 6.91 3.17 13.28
1/4/2022 1:30:00 PM 2.8 37.04 0.048 6.87 3.1 13.24
1/4/2022 1:45:00 PM 2.89 37.202 0.048 6.93 3.43 13.2
1/4/2022 2:00:00 PM 2.97 37.346 0.048 6.89 2.94 13.16
1/4/2022 2:15:00 PM 3.04 37.472 0.048 6.87 2.98 13.13
1/4/2022 2:30:00 PM 3.1 37.58 0.048 6.88 3.17 13.09
1/4/2022 2:45:00 PM 3.15 37.67 0.048 6.89 3.02 13.05
1/4/2022 3:00:00 PM 3.19 37.742 0.048 6.89 3.1 13.02
1/4/2022 3:15:00 PM 3.23 37.814 0.048 6.87 3.23 12.99
1/4/2022 3:30:00 PM 3.25 37.85 0.048 6.87 3.1 12.95
1/4/2022 3:45:00 PM 3.27 37.886 0.048 6.88 2.96 12.93
1/4/2022 4:00:00 PM 3.28 37.904 0.048 6.86 3.07 12.92
1/4/2022 4:15:00 PM 3.29 37.922 0.048 6.89 3.14 12.89
1/4/2022 4:30:00 PM 3.3 37.94 0.048 6.85 3.22 12.85
1/4/2022 4:45:00 PM 3.29 37.922 0.048 6.85 3.11 12.83
1/4/2022 5:00:00 PM 3.27 37.886 0.048 6.85 2.97 12.8
1/4/2022 5:15:00 PM 3.25 37.85 0.048 6.84 2.99 12.78
1/4/2022 5:30:00 PM 3.24 37.832 0.048 6.8 3.26 12.77
1/4/2022 5:45:00 PM 3.22 37.796 0.048 6.79 3.32 12.75
1/4/2022 6:00:00 PM 3.2 37.76 0.048 6.82 3.36 12.75
1/4/2022 6:15:00 PM 3.18 37.724 0.048 6.81 3.4 12.74
1/4/2022 6:30:00 PM 3.16 37.688 0.048 6.81 3.4 12.74
1/4/2022 6:45:00 PM 3.15 37.67 0.048 6.79 3.45 12.74
1/4/2022 7:00:00 PM 3.13 37.634 0.048 6.79 3.12 12.74
1/4/2022 7:15:00 PM 3.11 37.598 0.048 6.8 3.33 12.75
1/4/2022 7:30:00 PM 3.09 37.562 0.048 6.78 3.35 12.75
1/4/2022 7:45:00 PM 3.07 37.526 0.048 6.79 3.5 12.75
1/4/2022 8:00:00 PM 3.05 37.49 0.048 6.8 3.58 12.76
1/4/2022 8:15:00 PM 3.02 37.436 0.048 6.77 3.58 12.76
1/4/2022 8:30:00 PM 3 37.4 0.048 6.79 3.39 12.77
1/4/2022 8:45:00 PM 2.97 37.346 0.048 6.77 3.24 12.77
1/4/2022 9:00:00 PM 2.95 37.31 0.048 6.78 3.61 12.78
1/4/2022 9:15:00 PM 2.93 37.274 0.048 6.78 3.56 12.78
1/4/2022 9:30:00 PM 2.9 37.22 0.048 6.79 3.27 12.79
1/4/2022 9:45:00 PM 2.88 37.184 0.048 6.79 3.5 12.79
1/4/2022 10:00:00 PM 2.86 37.148 0.048 6.79 3.5 12.8
1/4/2022 10:15:00 PM 2.85 37.13 0.048 6.79 3.34 12.8
1/4/2022 10:30:00 PM 2.84 37.112 0.048 6.78 3.41 12.8
1/4/2022 10:45:00 PM 2.83 37.094 0.048 6.77 3.45 12.8
1/4/2022 11:00:00 PM 2.83 37.094 0.048 6.77 3.25 12.8
1/4/2022 11:15:00 PM 2.83 37.094 0.048 6.78 3.38 12.8
1/4/2022 11:30:00 PM 2.84 37.112 0.048 6.77 3.36 12.79
1/4/2022 11:45:00 PM 2.83 37.094 0.048 6.76 3.23 12.8
1/5/2022 12:00:00 AM 2.84 37.112 0.048 6.78 3.53 12.79
1/5/2022 12:15:00 AM 2.83 37.094 0.048 6.79 4.14 12.8
1/5/2022 12:30:00 AM 2.83 37.094 0.048 6.78 3.26 12.79
1/5/2022 12:45:00 AM 2.83 37.094 0.048 6.79 3.2 12.79
1/5/2022 1:00:00 AM 2.83 37.094 0.048 6.8 3.11 12.79
1/5/2022 1:15:00 AM 2.83 37.094 0.048 6.78 3.45 12.79
1/5/2022 1:30:00 AM 2.83 37.094 0.048 6.79 3.37 12.78
1/5/2022 1:45:00 AM 2.83 37.094 0.048 6.78 3.26 12.78
1/5/2022 2:00:00 AM 2.84 37.112 0.048 6.78 3.43 12.78
1/5/2022 2:15:00 AM 2.84 37.112 0.048 6.77 3.47 12.78
1/5/2022 2:30:00 AM 2.85 37.13 0.048 6.76 3.62 12.78
1/5/2022 2:45:00 AM 2.84 37.112 0.048 6.77 3.48 12.78
1/5/2022 3:00:00 AM 2.85 37.13 0.048 6.78 3.44 12.77
1/5/2022 3:15:00 AM 2.85 37.13 0.048 6.76 3.48 12.77
1/5/2022 3:30:00 AM 2.85 37.13 0.048 6.79 3.33 12.76
1/5/2022 3:45:00 AM 2.84 37.112 0.048 6.76 3.22 12.76
1/5/2022 4:00:00 AM 2.84 37.112 0.048 6.76 3.46 12.76
1/5/2022 4:15:00 AM 2.83 37.094 0.048 6.76 3.66 12.75
1/5/2022 4:30:00 AM 2.84 37.112 0.048 6.76 3.46 12.75
1/5/2022 4:45:00 AM 2.83 37.094 0.048 6.76 3.58 12.75
1/5/2022 5:00:00 AM 2.82 37.076 0.048 6.77 3.79 12.75
1/5/2022 5:15:00 AM 2.82 37.076 0.048 6.77 3.86 12.75
1/5/2022 5:30:00 AM 2.81 37.058 0.048 6.77 3.58 12.74
1/5/2022 5:45:00 AM 2.81 37.058 0.048 6.76 3.91 12.74
1/5/2022 6:00:00 AM 2.8 37.04 0.048 6.76 3.36 12.75
1/5/2022 6:15:00 AM 2.8 37.04 0.048 6.77 3.42 12.74
1/5/2022 6:30:00 AM 2.79 37.022 0.048 6.78 3.79 12.74
1/5/2022 6:45:00 AM 2.78 37.004 0.048 6.75 3.45 12.74
1/5/2022 7:00:00 AM 2.78 37.004 0.048 6.78 3.34 12.74
1/5/2022 7:15:00 AM 2.77 36.986 0.048 6.78 3.28 12.74
1/5/2022 7:30:00 AM 2.77 36.986 0.047 6.75 3.42 12.74
1/5/2022 7:45:00 AM 2.77 36.986 0.047 6.77 3.97 12.74
1/5/2022 8:00:00 AM 2.78 37.004 0.048 6.76 3.64 12.75
1/5/2022 8:15:00 AM 2.79 37.022 0.047 6.78 3.45 12.77
1/5/2022 8:30:00 AM 2.8 37.04 0.047 6.79 3.2 12.8
1/5/2022 8:45:00 AM 2.83 37.094 0.047 6.79 3.05 12.82
1/5/2022 9:00:00 AM 2.87 37.166 0.047 6.8 3.35 12.86
1/5/2022 9:15:00 AM 2.92 37.256 0.047 6.82 3.21 12.87
1/5/2022 9:30:00 AM 2.96 37.328 0.047 6.83 3.34 12.89
1/5/2022 9:45:00 AM 3 37.4 0.047 6.86 3.28 12.89
1/5/2022 10:00:00 AM 3.05 37.49 0.047 6.84 3.27 12.89
1/5/2022 10:15:00 AM 3.11 37.598 0.047 6.85 3.17 12.89
1/5/2022 10:30:00 AM 3.18 37.724 0.047 6.86 2.97 12.88
1/5/2022 10:45:00 AM 3.26 37.868 0.047 6.88 3.12 12.87
1/5/2022 11:00:00 AM 3.33 37.994 0.047 6.86 3.35 12.86
1/5/2022 11:15:00 AM 3.41 38.138 0.047 6.88 3.08 12.85
1/5/2022 11:30:00 AM 3.48 38.264 0.047 6.88 3.03 12.83
1/5/2022 11:45:00 AM 3.55 38.39 0.047 6.9 3.02 12.8
1/5/2022 12:00:00 PM 3.63 38.534 0.046 6.88 3.67 12.78
1/5/2022 12:15:00 PM 3.72 38.696 0.046 6.87 3.11 12.76
1/5/2022 12:30:00 PM 3.79 38.822 0.046 6.91 3.14 12.72
1/5/2022 12:45:00 PM 3.87 38.966 0.046 6.89 3.1 12.68
1/5/2022 1:00:00 PM 3.96 39.128 0.046 6.89 3.12 12.66
1/5/2022 1:15:00 PM 4.03 39.254 0.046 6.89 4 12.63
1/5/2022 1:30:00 PM 4.09 39.362 0.046 6.9 4.2 12.61
1/5/2022 1:45:00 PM 4.15 39.47 0.046 6.92 3.75 12.58
1/5/2022 2:00:00 PM 4.22 39.596 0.046 6.94 3.18 12.55
1/5/2022 2:15:00 PM 4.28 39.704 0.046 6.91 3.64 12.52
1/5/2022 2:30:00 PM 4.35 39.83 0.046 6.9 3.28 12.49
1/5/2022 2:45:00 PM 4.39 39.902 0.046 6.9 3.75 12.46
1/5/2022 3:00:00 PM 4.44 39.992 0.046 6.9 3.35 12.42
1/5/2022 3:15:00 PM 4.48 40.064 0.046 6.89 3.35 12.4
1/5/2022 3:30:00 PM 4.5 40.1 0.046 6.9 3.12 12.36
1/5/2022 3:45:00 PM 4.52 40.136 0.046 6.89 3.32 12.34
1/5/2022 4:00:00 PM 4.52 40.136 0.046 6.87 3.25 12.3
1/5/2022 4:15:00 PM 4.53 40.154 0.046 6.86 3.31 12.27
1/5/2022 4:30:00 PM 4.53 40.154 0.046 6.85 3.17 12.23
1/5/2022 4:45:00 PM 4.53 40.154 0.046 6.83 2.99 12.19
1/5/2022 5:00:00 PM 4.53 40.154 0.046 6.84 3.23 12.15
1/5/2022 5:15:00 PM 4.52 40.136 0.046 6.83 3.1 12.12
1/5/2022 5:30:00 PM 4.51 40.118 0.047 6.81 3.43 12.1
1/5/2022 5:45:00 PM 4.48 40.064 0.047 6.81 3.21 12.1
1/5/2022 6:00:00 PM 4.47 40.046 0.047 6.8 3.72 12.09
1/5/2022 6:15:00 PM 4.46 40.028 0.047 6.78 3.24 12.08
1/5/2022 6:30:00 PM 4.44 39.992 0.047 6.79 3.73 12.09
1/5/2022 6:45:00 PM 4.41 39.938 0.047 6.8 3.79 12.09
1/5/2022 7:00:00 PM 4.37 39.866 0.047 6.78 3.5 12.09
1/5/2022 7:15:00 PM 4.34 39.812 0.047 6.77 3.32 12.11
1/5/2022 7:30:00 PM 4.31 39.758 0.047 6.77 4.24 12.11
1/5/2022 7:45:00 PM 4.28 39.704 0.047 6.8 3.36 12.12
1/5/2022 8:00:00 PM 4.24 39.632 0.047 6.78 3.14 12.13
1/5/2022 8:15:00 PM 4.21 39.578 0.047 6.78 3.32 12.14
1/5/2022 8:30:00 PM 4.17 39.506 0.047 6.76 3.56 12.15
1/5/2022 8:45:00 PM 4.14 39.452 0.047 6.79 3.63 12.16
1/5/2022 9:00:00 PM 4.12 39.416 0.047 6.78 4.02 12.17
1/5/2022 9:15:00 PM 4.1 39.38 0.047 6.78 3.62 12.18
1/5/2022 9:30:00 PM 4.09 39.362 0.047 6.77 3.69 12.19
1/5/2022 9:45:00 PM 4.08 39.344 0.047 6.77 3.6 12.19
1/5/2022 10:00:00 PM 4.07 39.326 0.047 6.77 3.37 12.2
1/5/2022 10:15:00 PM 4.05 39.29 0.047 6.77 3.39 12.2
1/5/2022 10:30:00 PM 4.04 39.272 0.047 6.77 3.41 12.21
1/5/2022 10:45:00 PM 4.04 39.272 0.047 6.78 3.32 12.22
1/5/2022 11:00:00 PM 4.03 39.254 0.047 6.78 3.44 12.22
1/5/2022 11:15:00 PM 4.03 39.254 0.047 6.79 3.61 12.23
1/5/2022 11:30:00 PM 4.01 39.218 0.047 6.79 3.68 12.23
1/5/2022 11:45:00 PM 3.99 39.182 0.047 6.79 3.29 12.25
1/6/2022 12:00:00 AM 3.96 39.128 0.047 6.77 3.82 12.25
1/6/2022 12:15:00 AM 3.95 39.11 0.047 6.79 3.51 12.26
1/6/2022 12:30:00 AM 3.94 39.092 0.047 6.77 3.31 12.27
1/6/2022 12:45:00 AM 3.89 39.002 0.047 6.77 3.41 12.28
1/6/2022 1:00:00 AM 3.85 38.93 0.047 6.77 3.41 12.29
1/6/2022 1:15:00 AM 3.81 38.858 0.047 6.77 3.41 12.31
1/6/2022 1:30:00 AM 3.78 38.804 0.047 6.77 3.4 12.32
1/6/2022 1:45:00 AM 3.74 38.732 0.047 6.77 3.32 12.33
1/6/2022 2:00:00 AM 3.7 38.66 0.047 6.77 3.43 12.34
1/6/2022 2:15:00 AM 3.67 38.606 0.047 6.78 3.18 12.37
1/6/2022 2:30:00 AM 3.62 38.516 0.047 6.76 3.12 12.37
1/6/2022 2:45:00 AM 3.57 38.426 0.047 6.79 3.17 12.39
1/6/2022 3:00:00 AM 3.54 38.372 0.047 6.77 3.23 12.41
1/6/2022 3:15:00 AM 3.52 38.336 0.047 6.76 3.41 12.43
1/6/2022 3:30:00 AM 3.47 38.246 0.047 6.76 3.63 12.44
1/6/2022 3:45:00 AM 3.42 38.156 0.047 6.76 3.88 12.46
1/6/2022 4:00:00 AM 3.38 38.084 0.047 6.75 3.78 12.48
1/6/2022 4:15:00 AM 3.33 37.994 0.047 6.77 3.31 12.5
1/6/2022 4:30:00 AM 3.29 37.922 0.047 6.77 3.59 12.51
1/6/2022 4:45:00 AM 3.27 37.886 0.047 6.76 3.85 12.53
1/6/2022 5:00:00 AM 3.24 37.832 0.047 6.77 3.75 12.54
1/6/2022 5:15:00 AM 3.21 37.778 0.047 6.76 4.03 12.55
1/6/2022 5:30:00 AM 3.16 37.688 0.047 6.75 3.54 12.57
1/6/2022 5:45:00 AM 3.1 37.58 0.047 6.76 3.51 12.59
1/6/2022 6:00:00 AM 3.07 37.526 0.047 6.75 4.28 12.6
1/6/2022 6:15:00 AM 3.03 37.454 0.047 6.77 4.77 12.62
1/6/2022 6:30:00 AM 2.98 37.364 0.047 6.75 3.68 12.64
1/6/2022 6:45:00 AM 2.96 37.328 0.047 6.76 3.55 12.65
1/6/2022 7:00:00 AM 2.94 37.292 0.047 6.75 3.62 12.67
1/6/2022 7:15:00 AM 2.92 37.256 0.047 6.76 4.52 12.68
1/6/2022 7:30:00 AM 2.89 37.202 0.047 6.77 3.88 12.7
1/6/2022 7:45:00 AM 2.86 37.148 0.047 6.77 3.62 12.71
1/6/2022 8:00:00 AM 2.84 37.112 0.047 6.76 3.46 12.73
1/6/2022 8:15:00 AM 2.82 37.076 0.047 6.77 3.46 12.77
1/6/2022 8:30:00 AM 2.8 37.04 0.046 6.77 3.21 12.79
1/6/2022 8:45:00 AM 2.77 36.986 0.047 6.78 3.24 12.83
1/6/2022 9:00:00 AM 2.75 36.95 0.047 6.79 3.24 12.88
1/6/2022 9:15:00 AM 2.73 36.914 0.046 6.79 3.27 12.92
1/6/2022 9:30:00 AM 2.73 36.914 0.046 6.81 3.19 12.97
1/6/2022 9:45:00 AM 2.74 36.932 0.046 6.81 3.22 13.01
1/6/2022 10:00:00 AM 2.75 36.95 0.046 6.83 3.31 13.03
1/6/2022 10:15:00 AM 2.76 36.968 0.046 6.84 3.3 13.07
1/6/2022 10:30:00 AM 2.78 37.004 0.046 6.85 3.49 13.08
1/6/2022 10:45:00 AM 2.81 37.058 0.046 6.84 3.17 13.09
1/6/2022 11:00:00 AM 2.82 37.076 0.046 6.87 3.1 13.1
1/6/2022 11:15:00 AM 2.85 37.13 0.046 6.86 2.95 13.1
1/6/2022 11:30:00 AM 2.85 37.13 0.046 6.89 3.09 13.11
1/6/2022 11:45:00 AM 2.87 37.166 0.046 6.88 2.93 13.11
1/6/2022 12:00:00 PM 2.89 37.202 0.046 6.87 2.9 13.11
1/6/2022 12:15:00 PM 2.92 37.256 0.046 6.88 2.98 13.1
1/6/2022 12:30:00 PM 2.97 37.346 0.046 6.87 3.07 13.07
1/6/2022 12:45:00 PM 3.01 37.418 0.046 6.87 3.16 13.05
1/6/2022 1:00:00 PM 3.05 37.49 0.046 6.89 3.13 13.03
1/6/2022 1:15:00 PM 3.06 37.508 0.046 6.85 3.16 13.02
1/6/2022 1:30:00 PM 3.1 37.58 0.046 6.87 2.92 13
1/6/2022 1:45:00 PM 3.1 37.58 0.046 6.88 3.14 12.98
1/6/2022 2:00:00 PM 3.12 37.616 0.046 6.91 3.06 12.98
1/6/2022 2:15:00 PM 3.13 37.634 0.046 6.89 3.01 12.97
1/6/2022 2:30:00 PM 3.16 37.688 0.046 6.87 3.18 12.96
1/6/2022 2:45:00 PM 3.18 37.724 0.046 6.87 3.07 12.95
1/6/2022 3:00:00 PM 3.2 37.76 0.046 6.89 2.91 12.93
1/6/2022 3:15:00 PM 3.21 37.778 0.045 6.87 3.03 12.92
1/6/2022 3:30:00 PM 3.21 37.778 0.045 6.87 3.37 12.89
1/6/2022 3:45:00 PM 3.21 37.778 0.046 6.85 3.16 12.87
1/6/2022 4:00:00 PM 3.19 37.742 0.045 6.86 3 12.85
1/6/2022 4:15:00 PM 3.17 37.706 0.046 6.87 3.11 12.83
1/6/2022 4:30:00 PM 3.15 37.67 0.046 6.87 3.02 12.8
1/6/2022 4:45:00 PM 3.13 37.634 0.046 6.85 3.27 12.77
1/6/2022 5:00:00 PM 3.11 37.598 0.046 6.83 3.32 12.75
1/6/2022 5:15:00 PM 3.09 37.562 0.046 6.81 3 12.73
1/6/2022 5:30:00 PM 3.08 37.544 0.046 6.8 3.27 12.71
1/6/2022 5:45:00 PM 3.07 37.526 0.046 6.81 3.19 12.7
1/6/2022 6:00:00 PM 3.06 37.508 0.046 6.8 3.21 12.69
1/6/2022 6:15:00 PM 3.05 37.49 0.046 6.8 3.2 12.69
1/6/2022 6:30:00 PM 3.04 37.472 0.046 6.79 3.39 12.68
1/6/2022 6:45:00 PM 3.03 37.454 0.046 6.78 3.17 12.68
1/6/2022 7:00:00 PM 3.02 37.436 0.046 6.77 3.37 12.68
1/6/2022 7:15:00 PM 3.02 37.436 0.046 6.79 3.27 12.68
1/6/2022 7:30:00 PM 3.01 37.418 0.046 6.76 3.37 12.69
1/6/2022 7:45:00 PM 2.99 37.382 0.046 6.77 3.48 12.69
1/6/2022 8:00:00 PM 2.97 37.346 0.046 6.76 3.4 12.69
1/6/2022 8:15:00 PM 2.96 37.328 0.046 6.77 3.24 12.69
1/6/2022 8:30:00 PM 2.95 37.31 0.046 6.76 3.19 12.7
1/6/2022 8:45:00 PM 2.93 37.274 0.046 6.76 3.14 12.7
1/6/2022 9:00:00 PM 2.9 37.22 0.046 6.77 3.23 12.71
1/6/2022 9:15:00 PM 2.87 37.166 0.046 6.77 3.41 12.72
1/6/2022 9:30:00 PM 2.85 37.13 0.046 6.78 3.25 12.73
1/6/2022 9:45:00 PM 2.83 37.094 0.046 6.78 3.13 12.73
1/6/2022 10:00:00 PM 2.81 37.058 0.046 6.77 3.47 12.74
1/6/2022 10:15:00 PM 2.79 37.022 0.046 6.77 3.37 12.75
1/6/2022 10:30:00 PM 2.78 37.004 0.046 6.78 3.23 12.76
1/6/2022 10:45:00 PM 2.77 36.986 0.046 6.78 3.21 12.76
1/6/2022 11:00:00 PM 2.76 36.968 0.046 6.76 3.53 12.76
1/6/2022 11:15:00 PM 2.74 36.932 0.046 6.74 3.18 12.77
1/6/2022 11:30:00 PM 2.73 36.914 0.046 6.78 3.14 12.77
1/6/2022 11:45:00 PM 2.72 36.896 0.046 6.8 3.32 12.77
1/7/2022 12:00:00 AM 2.71 36.878 0.046 6.75 3.02 12.77
1/7/2022 12:15:00 AM 2.71 36.878 0.046 6.76 3.37 12.78
1/7/2022 12:30:00 AM 2.69 36.842 0.046 6.74 3.22 12.77
1/7/2022 12:45:00 AM 2.68 36.824 0.046 6.74 3.11 12.78
1/7/2022 1:00:00 AM 2.67 36.806 0.046 6.75 3.51 12.77
1/7/2022 1:15:00 AM 2.65 36.77 0.046 6.77 3.35 12.78
1/7/2022 1:30:00 AM 2.64 36.752 0.046 6.76 3.51 12.78
1/7/2022 1:45:00 AM 2.63 36.734 0.046 6.77 3.53 12.78
1/7/2022 2:00:00 AM 2.62 36.716 0.046 6.76 3.57 12.79
1/7/2022 2:15:00 AM 2.62 36.716 0.046 6.76 3.84 12.79
1/7/2022 2:30:00 AM 2.61 36.698 0.046 6.76 3.46 12.79
1/7/2022 2:45:00 AM 2.6 36.68 0.046 6.76 3.06 12.8
1/7/2022 3:00:00 AM 2.58 36.644 0.046 6.8 3.28 12.81
1/7/2022 3:15:00 AM 2.57 36.626 0.046 6.76 3.13 12.81
1/7/2022 3:30:00 AM 2.56 36.608 0.046 6.77 3.32 12.81
1/7/2022 3:45:00 AM 2.55 36.59 0.046 6.76 3.23 12.82
1/7/2022 4:00:00 AM 2.54 36.572 0.046 6.75 3.3 12.82
1/7/2022 4:15:00 AM 2.53 36.554 0.046 6.75 3.14 12.83
1/7/2022 4:30:00 AM 2.52 36.536 0.046 6.75 3.2 12.83
1/7/2022 4:45:00 AM 2.52 36.536 0.046 6.74 3.44 12.83
1/7/2022 5:00:00 AM 2.51 36.518 0.046 6.74 3.37 12.84
1/7/2022 5:15:00 AM 2.5 36.5 0.046 6.75 3.61 12.84
1/7/2022 5:30:00 AM 2.49 36.482 0.046 6.74 3.33 12.85
1/7/2022 5:45:00 AM 2.48 36.464 0.046 6.75 3.38 12.84
1/7/2022 6:00:00 AM 2.47 36.446 0.046 6.76 3.32 12.85
1/7/2022 6:15:00 AM 2.45 36.41 0.046 6.75 3.22 12.85
1/7/2022 6:30:00 AM 2.44 36.392 0.046 6.76 3.49 12.87
1/7/2022 6:45:00 AM 2.42 36.356 0.046 6.74 3.63 12.86
1/7/2022 7:00:00 AM 2.42 36.356 0.046 6.74 3.29 12.87
1/7/2022 7:15:00 AM 2.4 36.32 0.046 6.74 3.16 12.88
1/7/2022 7:30:00 AM 2.39 36.302 0.046 6.76 3.2 12.88
1/7/2022 7:45:00 AM 2.37 36.266 0.046 6.74 3.16 12.89
1/7/2022 8:00:00 AM 2.36 36.248 0.046 6.75 2.89 12.91
1/7/2022 8:15:00 AM 2.34 36.212 0.046 6.76 3.08 12.94
1/7/2022 8:30:00 AM 2.33 36.194 0.046 6.75 3.37 12.97
1/7/2022 8:45:00 AM 2.33 36.194 0.046 6.76 3.18 13
1/7/2022 9:00:00 AM 2.33 36.194 0.046 6.75 3.2 13.04
1/7/2022 9:15:00 AM 2.34 36.212 0.046 6.78 2.96 13.08
1/7/2022 9:30:00 AM 2.36 36.248 0.046 6.79 3.28 13.11
1/7/2022 9:45:00 AM 2.39 36.302 0.046 6.82 3.36 13.15
1/7/2022 10:00:00 AM 2.42 36.356 0.046 6.83 3.02 13.17
1/7/2022 10:15:00 AM 2.45 36.41 0.046 6.85 3.26 13.18
1/7/2022 10:30:00 AM 2.49 36.482 0.045 6.85 2.85 13.2
1/7/2022 10:45:00 AM 2.49 36.482 0.046 6.85 2.89 13.19
1/7/2022 11:00:00 AM 2.53 36.554 0.045 6.87 2.9 13.2
1/7/2022 11:15:00 AM 2.55 36.59 0.046 6.86 2.92 13.2
1/7/2022 11:30:00 AM 2.58 36.644 0.045 6.86 3.02 13.2
1/7/2022 11:45:00 AM 2.6 36.68 0.045 6.87 2.77 13.19
1/7/2022 12:00:00 PM 2.6 36.68 0.045 6.85 2.97 13.18
1/7/2022 12:15:00 PM 2.63 36.734 0.045 6.86 3.21 13.18
1/7/2022 12:30:00 PM 2.64 36.752 0.045 6.87 2.88 13.17
1/7/2022 12:45:00 PM 2.69 36.842 0.045 6.86 2.99 13.17
1/7/2022 1:00:00 PM 2.7 36.86 0.045 6.87 3.04 13.17
1/7/2022 1:15:00 PM 2.72 36.896 0.045 6.86 2.92 13.16
1/7/2022 1:30:00 PM 2.74 36.932 0.045 6.86 2.99 13.15
1/7/2022 1:45:00 PM 2.77 36.986 0.045 6.87 2.88 13.15
1/7/2022 2:00:00 PM 2.77 36.986 0.045 6.88 3.02 13.14
1/7/2022 2:15:00 PM 2.77 36.986 0.045 6.89 3.1 13.14
1/7/2022 2:30:00 PM 2.74 36.932 0.045 6.89 3.01 13.14
1/7/2022 2:45:00 PM 2.72 36.896 0.045 6.88 3 13.14
1/7/2022 3:00:00 PM 2.72 36.896 0.045 6.9 3.18 13.13
1/7/2022 3:15:00 PM 2.7 36.86 0.045 6.88 3.3 13.13
1/7/2022 3:30:00 PM 2.66 36.788 0.045 6.87 2.8 13.11
1/7/2022 3:45:00 PM 2.62 36.716 0.045 6.85 3.14 13.12
1/7/2022 4:00:00 PM 2.58 36.644 0.045 6.85 3.14 13.11
1/7/2022 4:15:00 PM 2.57 36.626 0.045 6.86 3.06 13.09
1/7/2022 4:30:00 PM 2.53 36.554 0.045 6.85 3.06 13.07
1/7/2022 4:45:00 PM 2.5 36.5 0.045 6.83 2.84 13.06
1/7/2022 5:00:00 PM 2.44 36.392 0.045 6.83 3.05 13.04
1/7/2022 5:15:00 PM 2.37 36.266 0.046 6.81 2.94 13.03
1/7/2022 5:30:00 PM 2.35 36.23 0.046 6.8 3.23 13.02
1/7/2022 5:45:00 PM 2.28 36.104 0.046 6.8 3.12 13.03
1/7/2022 6:00:00 PM 2.2 35.96 0.046 6.78 3.04 13.03
1/7/2022 6:15:00 PM 2.11 35.798 0.046 6.78 3.09 13.05
1/7/2022 6:30:00 PM 2.1 35.78 0.046 6.78 3.16 13.07
1/7/2022 6:45:00 PM 2.09 35.762 0.046 6.77 3.11 13.08
1/7/2022 7:00:00 PM 2.08 35.744 0.046 6.77 3.22 13.09
1/7/2022 7:15:00 PM 2.06 35.708 0.046 6.79 3.3 13.1
1/7/2022 7:30:00 PM 2.03 35.654 0.046 6.77 3.57 13.12
1/7/2022 7:45:00 PM 2.01 35.618 0.046 6.77 3.52 13.13
1/7/2022 8:00:00 PM 1.97 35.546 0.046 6.81 3.25 13.15
1/7/2022 8:15:00 PM 1.95 35.51 0.046 6.76 3.07 13.16
1/7/2022 8:30:00 PM 1.93 35.474 0.046 6.76 3.24 13.17
1/7/2022 8:45:00 PM 1.89 35.402 0.046 6.77 3.34 13.19
1/7/2022 9:00:00 PM 1.86 35.348 0.046 6.77 3.38 13.2
1/7/2022 9:15:00 PM 1.84 35.312 0.046 6.77 3.16 13.21
1/7/2022 9:30:00 PM 1.8 35.24 0.046 6.76 3.13 13.23
1/7/2022 9:45:00 PM 1.76 35.168 0.046 6.76 3.17 13.24
1/7/2022 10:00:00 PM 1.74 35.132 0.046 6.77 3.13 13.26
1/7/2022 10:15:00 PM 1.72 35.096 0.046 6.76 3.34 13.27
1/7/2022 10:30:00 PM 1.7 35.06 0.046 6.77 2.99 13.29
1/7/2022 10:45:00 PM 1.68 35.024 0.046 6.77 3.14 13.3
1/7/2022 11:00:00 PM 1.65 34.97 0.046 6.76 3.18 13.32
1/7/2022 11:15:00 PM 1.63 34.934 0.046 6.78 3.18 13.33
1/7/2022 11:30:00 PM 1.62 34.916 0.046 6.76 3.32 13.34
1/7/2022 11:45:00 PM 1.6 34.88 0.046 6.75 3.2 13.34
1/8/2022 12:00:00 AM 1.58 34.844 0.046 6.75 3.26 13.35
1/8/2022 12:15:00 AM 1.54 34.772 0.046 6.78 3.33 13.36
1/8/2022 12:30:00 AM 1.5 34.7 0.046 6.75 3.21 13.38
1/8/2022 12:45:00 AM 1.46 34.628 0.046 6.75 3.2 13.39
1/8/2022 1:00:00 AM 1.42 34.556 0.046 6.77 3.38 13.41
1/8/2022 1:15:00 AM 1.39 34.502 0.046 6.76 3.44 13.42
1/8/2022 1:30:00 AM 1.35 34.43 0.046 6.77 3.17 13.44
1/8/2022 1:45:00 AM 1.32 34.376 0.046 6.75 3.34 13.45
1/8/2022 2:00:00 AM 1.27 34.286 0.046 6.78 3.37 13.47
1/8/2022 2:15:00 AM 1.23 34.214 0.046 6.76 3.31 13.49
1/8/2022 2:30:00 AM 1.18 34.124 0.046 6.75 3.27 13.52
1/8/2022 2:45:00 AM 1.15 34.07 0.046 6.76 3.57 13.52
1/8/2022 3:00:00 AM 1.11 33.998 0.046 6.8 3.25 13.54
1/8/2022 3:15:00 AM 1.08 33.944 0.046 6.69 3.16 13.56
1/8/2022 3:30:00 AM 1.04 33.872 0.046 6.66 3.75 13.58
1/8/2022 3:45:00 AM 0.99 33.782 0.046 6.7 3.7 13.59
1/8/2022 4:00:00 AM 0.96 33.728 0.046 6.72 3.47 13.61
1/8/2022 4:15:00 AM 0.93 33.674 0.046 6.74 3.3 13.63
1/8/2022 4:30:00 AM 0.89 33.602 0.046 6.68 3.69 13.65
1/8/2022 4:45:00 AM 0.84 33.512 0.046 6.7 3.73 13.68
1/8/2022 5:00:00 AM 0.8 33.44 0.046 6.72 3.86 13.69
1/8/2022 5:15:00 AM 0.77 33.386 0.046 6.72 3.43 13.71
1/8/2022 5:30:00 AM 0.73 33.314 0.047 6.71 3.55 13.73
1/8/2022 5:45:00 AM 0.69 33.242 0.046 6.7 3.31 13.75
1/8/2022 6:00:00 AM 0.66 33.188 0.046 6.72 3.45 13.76
1/8/2022 6:15:00 AM 0.62 33.116 0.046 6.73 3.58 13.78
1/8/2022 6:30:00 AM 0.59 33.062 0.047 6.7 3.24 13.8
1/8/2022 6:45:00 AM 0.55 32.99 0.046 6.69 3.37 13.81
1/8/2022 7:00:00 AM 0.5 32.9 0.046 6.68 3.12 13.83
1/8/2022 7:15:00 AM 0.46 32.828 0.047 6.68 3.3 13.85
1/8/2022 7:30:00 AM 0.42 32.756 0.047 6.68 3.13 13.88
1/8/2022 7:45:00 AM 0.38 32.684 0.047 6.7 3.2 13.91
1/8/2022 8:00:00 AM 0.34 32.612 0.047 6.7 3.14 13.95
1/8/2022 8:15:00 AM 0.31 32.558 0.046 6.72 3.2 13.98
1/8/2022 8:30:00 AM 0.27 32.486 0.047 6.72 3.09 14.02
1/8/2022 8:45:00 AM 0.26 32.468 0.047 6.74 3.25 14.06
1/8/2022 9:00:00 AM 0.24 32.432 0.046 6.76 3.18 14.09
1/8/2022 9:15:00 AM 0.24 32.432 0.046 6.78 3.16 14.12
1/8/2022 9:30:00 AM 0.25 32.45 0.046 6.76 3.34 14.15
1/8/2022 9:45:00 AM 0.26 32.468 0.046 6.79 3.04 14.16
1/8/2022 10:00:00 AM 0.29 32.522 0.046 6.79 3.1 14.18
1/8/2022 10:15:00 AM 0.32 32.576 0.046 6.81 2.91 14.18
1/8/2022 10:30:00 AM 0.37 32.666 0.046 6.82 3.3 14.19
1/8/2022 10:45:00 AM 0.43 32.774 0.046 6.82 3.27 14.18
1/8/2022 11:00:00 AM 0.49 32.882 0.046 6.82 3.05 14.18
1/8/2022 11:15:00 AM 0.56 33.008 0.046 6.83 3.29 14.17
1/8/2022 11:30:00 AM 0.63 33.134 0.046 6.83 2.99 14.15
1/8/2022 11:45:00 AM 0.72 33.296 0.046 6.83 3.11 14.12
1/8/2022 12:00:00 PM 0.83 33.494 0.046 6.85 3.19 14.1
1/8/2022 12:15:00 PM 0.94 33.692 0.046 6.84 3.06 14.05
1/8/2022 12:30:00 PM 1.04 33.872 0.046 6.85 3.18 14.02
1/8/2022 12:45:00 PM 1.16 34.088 0.046 6.85 2.89 13.96
1/8/2022 1:00:00 PM 1.27 34.286 0.046 6.86 2.99 13.91
1/8/2022 1:15:00 PM 1.37 34.466 0.046 6.85 3.04 13.88
1/8/2022 1:30:00 PM 1.47 34.646 0.046 6.88 3.11 13.82
1/8/2022 1:45:00 PM 1.56 34.808 0.046 6.86 3.34 13.78
1/8/2022 2:00:00 PM 1.63 34.934 0.046 6.86 2.94 13.75
1/8/2022 2:15:00 PM 1.7 35.06 0.045 6.88 2.88 13.71
1/8/2022 2:30:00 PM 1.74 35.132 0.045 6.84 2.92 13.67
1/8/2022 2:45:00 PM 1.78 35.204 0.045 6.85 2.89 13.64
1/8/2022 3:00:00 PM 1.82 35.276 0.045 6.84 2.82 13.6
1/8/2022 3:15:00 PM 1.84 35.312 0.045 6.86 2.9 13.58
1/8/2022 3:30:00 PM 1.87 35.366 0.045 6.84 3.28 13.55
1/8/2022 3:45:00 PM 1.89 35.402 0.046 6.88 3.15 13.52
1/8/2022 4:00:00 PM 1.89 35.402 0.046 6.84 2.99 13.49
1/8/2022 4:15:00 PM 1.89 35.402 0.046 6.83 2.94 13.46
1/8/2022 4:30:00 PM 1.87 35.366 0.046 6.81 2.69 13.45
1/8/2022 4:45:00 PM 1.87 35.366 0.046 6.84 3.16 13.42
1/8/2022 5:00:00 PM 1.87 35.366 0.046 6.82 2.82 13.4
1/8/2022 5:15:00 PM 1.86 35.348 0.046 6.81 2.9 13.37
1/8/2022 5:30:00 PM 1.86 35.348 0.046 6.86 3.18 13.35
1/8/2022 5:45:00 PM 1.84 35.312 0.046 6.83 3.05 13.34
1/8/2022 6:00:00 PM 1.82 35.276 0.046 6.81 3.27 13.34
1/8/2022 6:15:00 PM 1.79 35.222 0.046 6.8 3.1 13.34
1/8/2022 6:30:00 PM 1.78 35.204 0.046 6.79 3.33 13.33
1/8/2022 6:45:00 PM 1.76 35.168 0.046 6.77 3.42 13.34
1/8/2022 7:00:00 PM 1.73 35.114 0.046 6.78 3.07 13.34
1/8/2022 7:15:00 PM 1.72 35.096 0.046 6.76 3.33 13.34
1/8/2022 7:30:00 PM 1.7 35.06 0.046 6.77 3.3 13.35
1/8/2022 7:45:00 PM 1.69 35.042 0.046 6.77 2.99 13.34
1/8/2022 8:00:00 PM 1.68 35.024 0.046 6.78 3.38 13.35
1/8/2022 8:15:00 PM 1.66 34.988 0.046 6.76 3.25 13.36
1/8/2022 8:30:00 PM 1.64 34.952 0.046 6.78 3.22 13.36
1/8/2022 8:45:00 PM 1.63 34.934 0.046 6.76 2.95 13.36
1/8/2022 9:00:00 PM 1.61 34.898 0.046 6.76 3.08 13.37
1/8/2022 9:15:00 PM 1.59 34.862 0.046 6.76 3.13 13.37
1/8/2022 9:30:00 PM 1.57 34.826 0.046 6.75 3.14 13.38
1/8/2022 9:45:00 PM 1.56 34.808 0.046 6.76 3.23 13.39
1/8/2022 10:00:00 PM 1.55 34.79 0.046 6.77 3.29 13.39
1/8/2022 10:15:00 PM 1.56 34.808 0.046 6.76 3.14 13.39
1/8/2022 10:30:00 PM 1.58 34.844 0.046 6.76 3.09 13.39
1/8/2022 10:45:00 PM 1.59 34.862 0.046 6.77 3.44 13.38
1/8/2022 11:00:00 PM 1.61 34.898 0.046 6.76 3.38 13.38
1/8/2022 11:15:00 PM 1.62 34.916 0.046 6.77 3.31 13.38
1/8/2022 11:30:00 PM 1.64 34.952 0.046 6.77 3.26 13.37
1/8/2022 11:45:00 PM 1.66 34.988 0.046 6.77 3.2 13.36
1/9/2022 12:00:00 AM 1.7 35.06 0.046 6.74 3.36 13.35
1/9/2022 12:15:00 AM 1.73 35.114 0.046 6.79 3.04 13.33
1/9/2022 12:30:00 AM 1.76 35.168 0.046 6.76 3.17 13.32
1/9/2022 12:45:00 AM 1.78 35.204 0.046 6.77 3.35 13.31
1/9/2022 1:00:00 AM 1.8 35.24 0.046 6.78 3.14 13.3
1/9/2022 1:15:00 AM 1.82 35.276 0.046 6.76 3.13 13.29
1/9/2022 1:30:00 AM 1.83 35.294 0.046 6.75 3.01 13.28
1/9/2022 1:45:00 AM 1.84 35.312 0.046 6.74 3.22 13.27
1/9/2022 2:00:00 AM 1.86 35.348 0.046 6.75 3.05 13.27
1/9/2022 2:15:00 AM 1.89 35.402 0.046 6.78 2.97 13.25
1/9/2022 2:30:00 AM 1.92 35.456 0.046 6.78 2.97 13.23
1/9/2022 2:45:00 AM 1.94 35.492 0.046 6.76 2.93 13.22
1/9/2022 3:00:00 AM 1.96 35.528 0.046 6.77 3.44 13.21
1/9/2022 3:15:00 AM 1.98 35.564 0.046 6.78 3.15 13.2
1/9/2022 3:30:00 AM 1.99 35.582 0.046 6.77 2.99 13.2
1/9/2022 3:45:00 AM 2.01 35.618 0.046 6.76 3.34 13.19
1/9/2022 4:00:00 AM 2.03 35.654 0.046 6.76 3.16 13.18
1/9/2022 4:15:00 AM 2.03 35.654 0.046 6.79 3.03 13.17
1/9/2022 4:30:00 AM 2.04 35.672 0.046 6.78 3.39 13.16
1/9/2022 4:45:00 AM 2.04 35.672 0.046 6.77 3.38 13.16
1/9/2022 5:00:00 AM 2.04 35.672 0.046 6.76 3.05 13.14
1/9/2022 5:15:00 AM 2.06 35.708 0.046 6.76 3.24 13.13
1/9/2022 5:30:00 AM 2.07 35.726 0.046 6.73 3.11 13.12
1/9/2022 5:45:00 AM 2.09 35.762 0.046 6.76 3.37 13.11
1/9/2022 6:00:00 AM 2.12 35.816 0.046 6.76 3.14 13.11
1/9/2022 6:15:00 AM 2.13 35.834 0.046 6.75 3.16 13.1
1/9/2022 6:30:00 AM 2.14 35.852 0.046 6.75 3.23 13.1
1/9/2022 6:45:00 AM 2.16 35.888 0.046 6.75 3.27 13.09
1/9/2022 7:00:00 AM 2.19 35.942 0.046 6.75 3.25 13.08
1/9/2022 7:15:00 AM 2.23 36.014 0.046 6.75 3.23 13.07
1/9/2022 7:30:00 AM 2.27 36.086 0.046 6.76 3.1 13.04
1/9/2022 7:45:00 AM 2.31 36.158 0.046 6.79 3.38 13.03
1/9/2022 8:00:00 AM 2.35 36.23 0.046 6.76 3.25 13.02
1/9/2022 8:15:00 AM 2.39 36.302 0.046 6.76 3.14 13.01
1/9/2022 8:30:00 AM 2.43 36.374 0.046 6.76 3.12 13
1/9/2022 8:45:00 AM 2.47 36.446 0.046 6.78 3.45 13
1/9/2022 9:00:00 AM 2.52 36.536 0.045 6.81 3.09 12.99
1/9/2022 9:15:00 AM 2.58 36.644 0.045 6.78 3.2 13
1/9/2022 9:30:00 AM 2.64 36.752 0.045 6.78 3.01 13
1/9/2022 9:45:00 AM 2.71 36.878 0.045 6.76 3.32 12.99
1/9/2022 10:00:00 AM 2.77 36.986 0.045 6.81 3.2 12.98
1/9/2022 10:15:00 AM 2.85 37.13 0.045 6.8 3.19 13
1/9/2022 10:30:00 AM 2.91 37.238 0.045 6.82 3.13 12.99
1/9/2022 10:45:00 AM 2.96 37.328 0.045 6.8 3.1 12.96
1/9/2022 11:00:00 AM 3.01 37.418 0.045 6.82 3.2 12.95
1/9/2022 11:15:00 AM 3.06 37.508 0.045 6.8 3.37 12.94
1/9/2022 11:30:00 AM 3.12 37.616 0.045 6.81 3.33 12.94
1/9/2022 11:45:00 AM 3.19 37.742 0.045 6.81 3.29 12.91
1/9/2022 12:00:00 PM 3.25 37.85 0.045 6.84 3.46 12.88
1/9/2022 12:15:00 PM 3.31 37.958 0.045 6.86 3.44 12.85
1/9/2022 12:30:00 PM 3.38 38.084 0.045 6.83 3.23 12.82
1/9/2022 12:45:00 PM 3.43 38.174 0.045 6.84 3.28 12.79
1/9/2022 1:00:00 PM 3.49 38.282 0.045 6.82 3.12 12.78
1/9/2022 1:15:00 PM 3.55 38.39 0.045 6.81 3.1 12.74
1/9/2022 1:30:00 PM 3.6 38.48 0.045 6.83 3.37 12.71
1/9/2022 1:45:00 PM 3.65 38.57 0.046 6.84 3.42 12.69
1/9/2022 2:00:00 PM 3.69 38.642 0.047 6.82 3.65 12.67
1/9/2022 2:15:00 PM 3.74 38.732 0.048 6.82 3.7 12.64
1/9/2022 2:30:00 PM 3.77 38.786 0.049 6.85 3.65 12.6
1/9/2022 2:45:00 PM 3.81 38.858 0.049 6.82 3.59 12.58
1/9/2022 3:00:00 PM 3.85 38.93 0.05 6.82 3.36 12.56
1/9/2022 3:15:00 PM 3.88 38.984 0.051 6.82 3.23 12.54
1/9/2022 3:30:00 PM 3.92 39.056 0.051 6.82 3.32 12.53
1/9/2022 3:45:00 PM 3.95 39.11 0.051 6.81 3.21 12.52
1/9/2022 4:00:00 PM 3.98 39.164 0.051 6.83 3.28 12.48
1/9/2022 4:15:00 PM 4 39.2 0.051 6.83 3.11 12.46
1/9/2022 4:30:00 PM 4.02 39.236 0.051 6.82 3.39 12.44
1/9/2022 4:45:00 PM 4.03 39.254 0.05 6.8 3.46 12.42
1/9/2022 5:00:00 PM 4.05 39.29 0.05 6.79 3.08 12.39
1/9/2022 5:15:00 PM 4.05 39.29 0.05 6.78 3.34 12.37
1/9/2022 5:30:00 PM 4.05 39.29 0.05 6.8 3.22 12.35
1/9/2022 5:45:00 PM 4.04 39.272 0.05 6.75 3.31 12.34
1/9/2022 6:00:00 PM 4.02 39.236 0.05 6.77 3.33 12.34
1/9/2022 6:15:00 PM 3.99 39.182 0.05 6.76 3.47 12.34
1/9/2022 6:30:00 PM 3.97 39.146 0.05 6.77 3.41 12.35
1/9/2022 6:45:00 PM 3.95 39.11 0.05 6.76 4.03 12.35
1/9/2022 7:00:00 PM 3.92 39.056 0.051 6.76 3.34 12.36
1/9/2022 7:15:00 PM 3.9 39.02 0.051 6.81 3.35 12.37
1/9/2022 7:30:00 PM 3.89 39.002 0.051 6.77 3.36 12.38
1/9/2022 7:45:00 PM 3.87 38.966 0.052 6.77 3.51 12.39
1/9/2022 8:00:00 PM 3.84 38.912 0.052 6.77 3.38 12.4
1/9/2022 8:15:00 PM 3.81 38.858 0.052 6.8 3.6 12.41
1/9/2022 8:30:00 PM 3.78 38.804 0.052 6.78 3.4 12.42
1/9/2022 8:45:00 PM 3.75 38.75 0.052 6.76 3.6 12.43
1/9/2022 9:00:00 PM 3.7 38.66 0.052 6.77 3.57 12.46
1/9/2022 9:15:00 PM 3.67 38.606 0.052 6.8 3.46 12.46
1/9/2022 9:30:00 PM 3.64 38.552 0.052 6.74 3.54 12.47
1/9/2022 9:45:00 PM 3.6 38.48 0.052 6.77 3.41 12.48
1/9/2022 10:00:00 PM 3.55 38.39 0.053 6.76 3.4 12.51
1/9/2022 10:15:00 PM 3.49 38.282 0.053 6.81 3.65 12.53
1/9/2022 10:30:00 PM 3.46 38.228 0.053 6.75 3.18 12.54
1/9/2022 10:45:00 PM 3.34 38.012 0.053 6.77 3.5 12.56
1/9/2022 11:00:00 PM 3.25 37.85 0.053 6.76 3.24 12.59
1/9/2022 11:15:00 PM 3.23 37.814 0.053 6.79 3.32 12.61
1/9/2022 11:30:00 PM 3.16 37.688 0.052 6.76 3.41 12.64
1/9/2022 11:45:00 PM 3.1 37.58 0.052 6.76 3.35 12.67
1/10/2022 12:00:00 AM 3.04 37.472 0.052 6.77 3.21 12.69
1/10/2022 12:15:00 AM 2.99 37.382 0.052 6.75 3.26 12.72
1/10/2022 12:30:00 AM 2.93 37.274 0.052 6.78 3.23 12.74
1/10/2022 12:45:00 AM 2.87 37.166 0.052 6.8 3.06 12.76
1/10/2022 1:00:00 AM 2.82 37.076 0.053 6.78 3.23 12.78
1/10/2022 1:15:00 AM 2.76 36.968 0.053 6.76 3.38 12.81
1/10/2022 1:30:00 AM 2.68 36.824 0.053 6.76 3.16 12.83
1/10/2022 1:45:00 AM 2.61 36.698 0.053 6.77 3.17 12.86
1/10/2022 2:00:00 AM 2.57 36.626 0.053 6.76 3.25 12.88
1/10/2022 2:15:00 AM 2.52 36.536 0.053 6.76 3.3 12.91
1/10/2022 2:30:00 AM 2.48 36.464 0.053 6.74 3.27 12.92
1/10/2022 2:45:00 AM 2.42 36.356 0.053 6.75 3.38 12.94
1/10/2022 3:00:00 AM 2.38 36.284 0.053 6.78 3.63 12.97
1/10/2022 3:15:00 AM 2.33 36.194 0.053 6.79 3.41 12.99
1/10/2022 3:30:00 AM 2.28 36.104 0.053 6.74 4.08 13.01
1/10/2022 3:45:00 AM 2.23 36.014 0.053 6.76 3.38 13.03
1/10/2022 4:00:00 AM 2.18 35.924 0.053 6.74 3.2 13.05
1/10/2022 4:15:00 AM 2.14 35.852 0.053 6.76 3.5 13.07
1/10/2022 4:30:00 AM 2.09 35.762 0.053 6.76 3.24 13.08
1/10/2022 4:45:00 AM 2.03 35.654 0.053 6.76 3.42 13.1
1/10/2022 5:00:00 AM 1.97 35.546 0.053 6.78 3.51 13.12
1/10/2022 5:15:00 AM 1.89 35.402 0.053 6.75 3.5 13.15
1/10/2022 5:30:00 AM 1.82 35.276 0.053 6.78 3.25 13.18
1/10/2022 5:45:00 AM 1.74 35.132 0.052 6.75 3.55 13.2
1/10/2022 6:00:00 AM 1.67 35.006 0.052 6.73 3.4 13.24
1/10/2022 6:15:00 AM 1.62 34.916 0.052 6.78 3.36 13.25
1/10/2022 6:30:00 AM 1.57 34.826 0.052 6.75 3.23 13.28
1/10/2022 6:45:00 AM 1.51 34.718 0.052 6.75 3.32 13.3
1/10/2022 7:00:00 AM 1.44 34.592 0.052 6.75 3.04 13.33
1/10/2022 7:15:00 AM 1.37 34.466 0.052 6.73 3.03 13.35
1/10/2022 7:30:00 AM 1.32 34.376 0.052 6.78 3.19 13.38
1/10/2022 7:45:00 AM 1.28 34.304 0.052 6.74 3.21 13.4
1/10/2022 8:00:00 AM 1.25 34.25 0.052 6.78 3.35 13.43
1/10/2022 8:15:00 AM 1.22 34.196 0.052 6.75 3.16 13.47
1/10/2022 8:30:00 AM 1.22 34.196 0.052 6.76 3.38 13.5
1/10/2022 8:45:00 AM 1.2 34.16 0.052 6.77 3.05 13.54
1/10/2022 9:00:00 AM 1.19 34.142 0.052 6.78 2.96 13.6
1/10/2022 9:15:00 AM 1.17 34.106 0.052 6.78 3.38 13.63
1/10/2022 9:30:00 AM 1.16 34.088 0.052 6.79 3.14 13.66
1/10/2022 9:45:00 AM 1.14 34.052 0.052 6.8 3.15 13.69
1/10/2022 10:00:00 AM 1.15 34.07 0.052 6.8 3.11 13.72
1/10/2022 10:15:00 AM 1.15 34.07 0.052 6.82 2.98 13.74
1/10/2022 10:30:00 AM 1.19 34.142 0.051 6.84 2.94 13.76
1/10/2022 10:45:00 AM 1.21 34.178 0.051 6.81 2.84 13.77
1/10/2022 11:00:00 AM 1.23 34.214 0.051 6.82 2.86 13.77
1/10/2022 11:15:00 AM 1.24 34.232 0.051 6.83 2.9 13.76
1/10/2022 11:30:00 AM 1.24 34.232 0.051 6.82 2.99 13.75
1/10/2022 11:45:00 AM 1.25 34.25 0.051 6.83 3.04 13.76
1/10/2022 12:00:00 PM 1.25 34.25 0.051 6.83 2.84 13.74
1/10/2022 12:15:00 PM 1.28 34.304 0.051 6.83 3.2 13.74
1/10/2022 12:30:00 PM 1.3 34.34 0.051 6.82 2.88 13.73
1/10/2022 12:45:00 PM 1.34 34.412 0.051 6.84 2.86 13.73
1/10/2022 1:00:00 PM 1.36 34.448 0.051 6.84 2.86 13.7
1/10/2022 1:15:00 PM 1.4 34.52 0.051 6.85 2.87 13.68
1/10/2022 1:30:00 PM 1.41 34.538 0.051 6.84 2.8 13.67
1/10/2022 1:45:00 PM 1.41 34.538 0.051 6.82 3.08 13.65
1/10/2022 2:00:00 PM 1.41 34.538 0.05 6.86 2.87 13.65
1/10/2022 2:15:00 PM 1.42 34.556 0.05 6.85 3.08 13.64
1/10/2022 2:30:00 PM 1.45 34.61 0.05 6.85 2.98 13.64
1/10/2022 2:45:00 PM 1.47 34.646 0.05 6.87 2.97 13.62
1/10/2022 3:00:00 PM 1.49 34.682 0.05 6.86 2.89 13.6
1/10/2022 3:15:00 PM 1.51 34.718 0.05 6.84 2.94 13.59
1/10/2022 3:30:00 PM 1.52 34.736 0.05 6.85 2.88 13.57
1/10/2022 3:45:00 PM 1.5 34.7 0.05 6.85 2.99 13.54
1/10/2022 4:00:00 PM 1.5 34.7 0.05 6.84 2.98 13.54
1/10/2022 4:15:00 PM 1.49 34.682 0.05 6.83 2.94 13.51
1/10/2022 4:30:00 PM 1.48 34.664 0.05 6.83 3.17 13.52
1/10/2022 4:45:00 PM 1.45 34.61 0.05 6.83 3.05 13.49
1/10/2022 5:00:00 PM 1.4 34.52 0.05 6.82 2.97 13.46
1/10/2022 5:15:00 PM 1.39 34.502 0.05 6.82 3.03 13.44
1/10/2022 5:30:00 PM 1.35 34.43 0.05 6.8 3.05 13.42
1/10/2022 5:45:00 PM 1.32 34.376 0.05 6.79 3.01 13.41
1/10/2022 6:00:00 PM 1.3 34.34 0.05 6.79 3.05 13.41
1/10/2022 6:15:00 PM 1.27 34.286 0.05 6.78 3.63 13.42
1/10/2022 6:30:00 PM 1.23 34.214 0.05 6.8 3.13 13.42
1/10/2022 6:45:00 PM 1.2 34.16 0.05 6.79 3.18 13.43
1/10/2022 7:00:00 PM 1.16 34.088 0.05 6.79 3.25 13.44
1/10/2022 7:15:00 PM 1.12 34.016 0.05 6.78 3.41 13.45
1/10/2022 7:30:00 PM 1.08 33.944 0.051 6.77 3.14 13.46
1/10/2022 7:45:00 PM 1.05 33.89 0.051 6.78 3.35 13.48
1/10/2022 8:00:00 PM 1.01 33.818 0.051 6.78 3.21 13.49
1/10/2022 8:15:00 PM 0.98 33.764 0.051 6.81 3.21 13.5
1/10/2022 8:30:00 PM 0.81 33.458 0.05 6.77 3.32 13.53
1/10/2022 8:45:00 PM 0.77 33.386 0.05 6.79 3.15 13.55
1/10/2022 9:00:00 PM 0.74 33.332 0.05 6.77 3.29 13.58
1/10/2022 9:15:00 PM 0.68 33.224 0.05 6.78 3.02 13.62
1/10/2022 9:30:00 PM 0.67 33.206 0.051 6.78 3.36 13.63
1/10/2022 9:45:00 PM 0.63 33.134 0.051 6.76 3.04 13.65
1/10/2022 10:00:00 PM 0.6 33.08 0.05 6.76 2.9 13.67
1/10/2022 10:15:00 PM 0.56 33.008 0.051 6.77 3.15 13.69
1/10/2022 10:30:00 PM 0.51 32.918 0.05 6.76 3.33 13.72
1/10/2022 10:45:00 PM 0.46 32.828 0.05 6.78 3.12 13.74
1/10/2022 11:00:00 PM 0.43 32.774 0.051 6.78 3.17 13.76
1/10/2022 11:15:00 PM 0.4 32.72 0.05 6.44 2.96 13.78
1/10/2022 11:30:00 PM 0.37 32.666 0.051 6.77 3.74 13.79
1/10/2022 11:45:00 PM 0.35 32.63 0.051 6.77 3.08 13.8
1/11/2022 12:00:00 AM 0.34 32.612 0.051 6.78 3.09 13.81
1/11/2022 12:15:00 AM 0.31 32.558 0.05 6.77 2.91 13.83
1/11/2022 12:30:00 AM 0.29 32.522 0.051 6.77 3.11 13.85
1/11/2022 12:45:00 AM 0.27 32.486 0.051 6.77 3.1 13.86
1/11/2022 1:00:00 AM 0.24 32.432 0.05 6.76 3.25 13.88
1/11/2022 1:15:00 AM 0.13 32.234 0.05 6.77 3.17 13.9
1/11/2022 1:30:00 AM 0.1 32.18 0.05 6.76 3.48 13.92
1/11/2022 1:45:00 AM 0.1 32.18 0.05 6.77 3.17 13.93
1/11/2022 2:00:00 AM 0.07 32.126 0.05 6.77 3.47 13.95
1/11/2022 2:15:00 AM 0.06 32.108 0.05 6.75 3.4 13.97
1/11/2022 2:30:00 AM 0.02 32.036 0.05 6.76 3.2 13.98
1/11/2022 2:45:00 AM -0.01 31.982 0.05 6.76 3 13.99
1/11/2022 3:00:00 AM -0.04 31.928 0.05 6.76 3.52 14
1/11/2022 3:15:00 AM -0.07 31.874 0.05 6.76 3.31 14.02
1/11/2022 3:30:00 AM -0.08 31.856 0.05 6.76 3.46 14.03
1/11/2022 3:45:00 AM -0.09 31.838 0.05 6.79 3.32 14.04
1/11/2022 4:00:00 AM -0.09 31.838 0.05 6.77 3.1 14.04
1/11/2022 4:15:00 AM -0.1 31.82 0.05 6.77 3.38 14.06
1/11/2022 4:30:00 AM -0.1 31.82 0.05 6.77 3.31 14.06
1/11/2022 4:45:00 AM -0.09 31.838 0.05 6.76 3.49 14.07
1/11/2022 5:00:00 AM -0.09 31.838 0.05 6.77 3.49 14.08
1/11/2022 5:15:00 AM -0.09 31.838 0.051 6.76 3.88 14.07
1/11/2022 5:30:00 AM -0.09 31.838 0.05 6.77 3.83 14.08
1/11/2022 5:45:00 AM -0.09 31.838 0.051 6.76 4.17 14.09
1/11/2022 6:00:00 AM -0.09 31.838 0.05 6.76 4.57 14.09
1/11/2022 6:15:00 AM -0.08 31.856 0.051 6.74 4.8 14.1
1/11/2022 6:30:00 AM -0.08 31.856 0.051 6.76 5.34 14.1
1/11/2022 6:45:00 AM -0.08 31.856 0.051 6.77 4.6 14.11
1/11/2022 7:00:00 AM -0.08 31.856 0.051 6.76 4.72 14.11
1/11/2022 7:15:00 AM -0.08 31.856 0.051 6.69 5.38 14.11
1/11/2022 7:30:00 AM -0.08 31.856 0.051 6.75 4.71 14.13
1/11/2022 7:45:00 AM -0.08 31.856 0.051 6.74 4.62 14.13
1/11/2022 8:00:00 AM -0.08 31.856 0.051 6.72 4.74 14.15
1/11/2022 8:15:00 AM -0.08 31.856 0.051 6.73 2.95 14.17
1/11/2022 8:30:00 AM -0.08 31.856 0.051 6.76 3.08 14.2
1/11/2022 8:45:00 AM -0.08 31.856 0.051 6.76 3.15 14.23
1/11/2022 9:00:00 AM -0.08 31.856 0.051 6.78 3.04 14.25
1/11/2022 9:15:00 AM -0.08 31.856 0.051 6.78 3.14 14.28
1/11/2022 9:30:00 AM -0.08 31.856 0.05 6.79 3.11 14.3
1/11/2022 9:45:00 AM -0.08 31.856 0.05 6.79 3.1 14.32
1/11/2022 10:00:00 AM -0.08 31.856 0.05 6.8 3.32 14.32
1/11/2022 10:15:00 AM -0.08 31.856 0.05 6.82 3.17 14.33
1/11/2022 10:30:00 AM -0.08 31.856 0.05 6.81 3.31 14.35
1/11/2022 10:45:00 AM -0.08 31.856 0.05 6.83 3.16 14.35
1/11/2022 11:00:00 AM -0.08 31.856 0.05 6.84 3.32 14.34
1/11/2022 11:15:00 AM -0.08 31.856 0.05 6.85 3.59 14.34
1/11/2022 11:30:00 AM -0.08 31.856 0.05 6.84 3.92 14.31
1/11/2022 11:45:00 AM -0.07 31.874 0.05 6.85 3.36 14.3
1/11/2022 12:00:00 PM -0.01 31.982 0.05 6.84 3.76 14.27
1/11/2022 12:15:00 PM 0.15 32.27 0.05 6.84 4.14 14.25
1/11/2022 12:30:00 PM 0.22 32.396 0.05 6.86 3.15 14.25
1/11/2022 12:45:00 PM 0.22 32.396 0.05 6.85 3.37 14.24
1/11/2022 1:00:00 PM 0.24 32.432 0.05 6.87 3.37 14.23
1/11/2022 1:15:00 PM 0.26 32.468 0.05 6.87 3.25 14.23
1/11/2022 1:30:00 PM 0.29 32.522 0.05 6.87 3.05 14.21
1/11/2022 1:45:00 PM 0.33 32.594 0.05 6.88 3.52 14.21
1/11/2022 2:00:00 PM 0.33 32.594 0.049 6.88 3.58 14.2
1/11/2022 2:15:00 PM 0.34 32.612 0.049 6.87 3.21 14.2
1/11/2022 2:30:00 PM 0.38 32.684 0.049 6.86 2.97 14.19
1/11/2022 2:45:00 PM 0.36 32.648 0.049 6.85 3.65 14.18
1/11/2022 3:00:00 PM 0.4 32.72 0.049 6.85 3.11 14.18
1/11/2022 3:15:00 PM 0.36 32.648 0.049 6.86 3.11 14.17
1/11/2022 3:30:00 PM 0.35 32.63 0.049 6.84 3.16 14.17
1/11/2022 3:45:00 PM 0.33 32.594 0.049 6.85 3.13 14.16
1/11/2022 4:00:00 PM 0.31 32.558 0.049 6.85 3.17 14.15
1/11/2022 4:15:00 PM 0.28 32.504 0.049 6.82 3.3 14.13
1/11/2022 4:30:00 PM 0.25 32.45 0.049 6.82 3.14 14.13
1/11/2022 4:45:00 PM 0.22 32.396 0.049 6.85 2.92 14.12
1/11/2022 5:00:00 PM 0.19 32.342 0.049 6.83 3.42 14.09
1/11/2022 5:15:00 PM 0.16 32.288 0.049 6.81 3.1 14.08
1/11/2022 5:30:00 PM 0.14 32.252 0.049 6.82 3.1 14.07
1/11/2022 5:45:00 PM 0.11 32.198 0.049 6.8 3.2 14.06
1/11/2022 6:00:00 PM 0.09 32.162 0.049 6.79 3.45 14.04
1/11/2022 6:15:00 PM 0.06 32.108 0.049 6.78 3.18 14.05
1/11/2022 6:30:00 PM 0.03 32.054 0.049 6.79 3.03 14.04
1/11/2022 6:45:00 PM 0.02 32.036 0.049 6.79 3.21 14.05
1/11/2022 7:00:00 PM 0 32 0.049 6.77 3.27 14.04
1/11/2022 7:15:00 PM -0.01 31.982 0.049 6.77 3.27 14.05
1/11/2022 7:30:00 PM -0.03 31.946 0.049 6.79 3.4 14.04
1/11/2022 7:45:00 PM -0.04 31.928 0.049 6.77 3.29 14.04
1/11/2022 8:00:00 PM -0.05 31.91 0.049 6.76 3.42 14.04
1/11/2022 8:15:00 PM -0.06 31.892 0.049 6.76 3.45 14.05
1/11/2022 8:30:00 PM -0.07 31.874 0.049 6.75 3.04 14.05
1/11/2022 8:45:00 PM -0.08 31.856 0.049 6.77 3.57 14.04
1/11/2022 9:00:00 PM -0.09 31.838 0.049 6.77 3.31 14.04
1/11/2022 9:15:00 PM -0.09 31.838 0.049 6.77 3.69 14.04
1/11/2022 9:30:00 PM -0.1 31.82 0.05 6.76 3.33 14.03
1/11/2022 9:45:00 PM -0.1 31.82 0.05 6.76 3.48 14.04
1/11/2022 10:00:00 PM -0.1 31.82 0.05 6.8 3.36 14.03
1/11/2022 10:15:00 PM -0.1 31.82 0.05 6.77 3.34 14.03
1/11/2022 10:30:00 PM -0.09 31.838 0.05 6.77 3.86 14.02
1/11/2022 10:45:00 PM -0.08 31.856 0.05 6.77 3.43 14.01
1/11/2022 11:00:00 PM -0.08 31.856 0.05 6.77 3.09 14.01
1/11/2022 11:15:00 PM -0.06 31.892 0.05 6.77 3.08 13.99
1/11/2022 11:30:00 PM -0.04 31.928 0.05 6.81 3.04 13.99
1/11/2022 11:45:00 PM -0.02 31.964 0.05 6.78 3.2 13.97
1/12/2022 12:00:00 AM 0 32 0.05 6.77 3.42 13.96
1/12/2022 12:15:00 AM 0.02 32.036 0.05 6.77 3.29 13.95
1/12/2022 12:30:00 AM 0.03 32.054 0.05 6.78 3.56 13.95
1/12/2022 12:45:00 AM 0.04 32.072 0.05 6.76 3.44 13.93
1/12/2022 1:00:00 AM 0.04 32.072 0.05 6.76 3.25 13.93
1/12/2022 1:15:00 AM 0.04 32.072 0.05 6.76 3.31 13.93
1/12/2022 1:30:00 AM 0.03 32.054 0.05 6.76 3.32 13.91
1/12/2022 1:45:00 AM 0.03 32.054 0.05 6.76 3.24 13.92
1/12/2022 2:00:00 AM 0.02 32.036 0.05 6.76 3.25 13.92
1/12/2022 2:15:00 AM 0.01 32.018 0.05 6.77 3.38 13.92
1/12/2022 2:30:00 AM 0 32 0.05 6.76 3.35 13.93
1/12/2022 2:45:00 AM -0.01 31.982 0.05 6.76 3.48 13.92
1/12/2022 3:00:00 AM -0.01 31.982 0.05 6.76 3.16 13.92
1/12/2022 3:15:00 AM -0.01 31.982 0.05 6.77 3.17 13.92
1/12/2022 3:30:00 AM -0.01 31.982 0.05 6.77 3.15 13.91
1/12/2022 3:45:00 AM 0 32 0.05 6.77 3.61 13.9
1/12/2022 4:00:00 AM 0 32 0.05 6.8 3.12 13.9
1/12/2022 4:15:00 AM 0 32 0.05 6.77 3.32 13.89
1/12/2022 4:30:00 AM 0 32 0.05 6.79 3.17 13.9
1/12/2022 4:45:00 AM 0 32 0.049 6.76 3.16 13.89
1/12/2022 5:00:00 AM 0 32 0.05 6.77 3.11 13.88
1/12/2022 5:15:00 AM -0.01 31.982 0.05 6.74 3.26 13.88
1/12/2022 5:30:00 AM -0.01 31.982 0.05 6.78 3.31 13.88
1/12/2022 5:45:00 AM -0.02 31.964 0.049 6.75 3.36 13.89
1/12/2022 6:00:00 AM -0.02 31.964 0.049 6.76 3.26 13.89
1/12/2022 6:15:00 AM -0.03 31.946 0.05 6.77 3.31 13.89
1/12/2022 6:30:00 AM -0.03 31.946 0.049 6.77 3.19 13.9
1/12/2022 6:45:00 AM -0.03 31.946 0.049 6.76 3.13 13.9
1/12/2022 7:00:00 AM -0.04 31.928 0.049 6.75 3.1 13.9
1/12/2022 7:15:00 AM -0.04 31.928 0.049 6.76 2.95 13.89
1/12/2022 7:30:00 AM -0.04 31.928 0.049 6.81 2.96 13.89
1/12/2022 7:45:00 AM -0.04 31.928 0.05 6.76 2.91 13.9
1/12/2022 8:00:00 AM -0.03 31.946 0.049 6.77 3.04 13.91
1/12/2022 8:15:00 AM -0.03 31.946 0.049 6.78 2.96 13.93
1/12/2022 8:30:00 AM -0.02 31.964 0.049 6.78 2.98 13.94
1/12/2022 8:45:00 AM 0 32 0.049 6.78 3.03 13.96
1/12/2022 9:00:00 AM 0.02 32.036 0.049 6.79 2.9 13.99
1/12/2022 9:15:00 AM 0.05 32.09 0.049 6.78 3.01 13.99
1/12/2022 9:30:00 AM 0.09 32.162 0.049 6.81 3.06 14.01
1/12/2022 9:45:00 AM 0.13 32.234 0.049 6.75 2.87 14.02
1/12/2022 10:00:00 AM 0.2 32.36 0.049 6.84 2.83 14.02
1/12/2022 10:15:00 AM 0.27 32.486 0.049 6.82 2.88 14.02
1/12/2022 10:30:00 AM 0.33 32.594 0.049 6.84 2.96 14.01
1/12/2022 10:45:00 AM 0.41 32.738 0.049 6.83 3.08 14
1/12/2022 11:00:00 AM 0.5 32.9 0.049 6.84 2.89 13.98
1/12/2022 11:15:00 AM 0.57 33.026 0.049 6.85 3.06 13.95
1/12/2022 11:30:00 AM 0.67 33.206 0.049 6.85 2.81 13.92
1/12/2022 11:45:00 AM 0.73 33.314 0.048 6.85 3.06 13.89
1/12/2022 12:00:00 PM 0.81 33.458 0.048 6.86 3.17 13.85
1/12/2022 12:15:00 PM 0.9 33.62 0.048 6.87 3.14 13.82
1/12/2022 12:30:00 PM 0.92 33.656 0.048 6.88 3.2 13.81
1/12/2022 12:45:00 PM 0.98 33.764 0.048 6.86 3.1 13.79
1/12/2022 1:00:00 PM 1 33.8 0.048 6.85 2.95 13.79
1/12/2022 1:15:00 PM 1.03 33.854 0.048 6.87 3.08 13.78
1/12/2022 1:30:00 PM 1.07 33.926 0.048 6.87 3.31 13.77
1/12/2022 1:45:00 PM 1.11 33.998 0.048 6.88 3.08 13.75
1/12/2022 2:00:00 PM 1.17 34.106 0.047 6.86 3.12 13.72
1/12/2022 2:15:00 PM 1.2 34.16 0.047 6.87 3.07 13.72
1/12/2022 2:30:00 PM 1.21 34.178 0.047 6.87 3.3 13.69
1/12/2022 2:45:00 PM 1.21 34.178 0.047 6.87 3.16 13.67
1/12/2022 3:00:00 PM 1.21 34.178 0.047 6.86 3.17 13.69
1/12/2022 3:15:00 PM 1.21 34.178 0.047 6.86 3.06 13.68
1/12/2022 3:30:00 PM 1.2 34.16 0.047 6.86 3.2 13.67
1/12/2022 3:45:00 PM 1.19 34.142 0.047 6.88 3.12 13.67
1/12/2022 4:00:00 PM 1.18 34.124 0.047 6.87 3.24 13.66
1/12/2022 4:15:00 PM 1.16 34.088 0.047 6.88 3.33 13.64
1/12/2022 4:30:00 PM 1.14 34.052 0.047 6.87 3.42 13.63
1/12/2022 4:45:00 PM 1.13 34.034 0.047 6.83 3.36 13.6
1/12/2022 5:00:00 PM 1.11 33.998 0.047 6.73 3.41 13.57
1/12/2022 5:15:00 PM 1.12 34.016 0.047 6.81 3.17 13.55
1/12/2022 5:30:00 PM 1.14 34.052 0.047 6.8 3.35 13.51
1/12/2022 5:45:00 PM 1.21 34.178 0.047 6.82 3.4 13.45
1/12/2022 6:00:00 PM 1.32 34.376 0.047 6.8 3.42 13.39
1/12/2022 6:15:00 PM 1.45 34.61 0.047 6.81 3.29 13.32
1/12/2022 6:30:00 PM 1.58 34.844 0.048 6.78 3.15 13.26
1/12/2022 6:45:00 PM 1.68 35.024 0.048 6.79 3.17 13.21
1/12/2022 7:00:00 PM 1.77 35.186 0.048 6.79 3.17 13.17
1/12/2022 7:15:00 PM 1.85 35.33 0.048 6.78 3.67 13.13
1/12/2022 7:30:00 PM 1.93 35.474 0.048 6.79 3.24 13.1
1/12/2022 7:45:00 PM 1.99 35.582 0.048 6.8 3.17 13.07
1/12/2022 8:00:00 PM 2.04 35.672 0.048 6.77 3.26 13.05
1/12/2022 8:15:00 PM 2.08 35.744 0.048 6.77 3.5 13.03
1/12/2022 8:30:00 PM 2.12 35.816 0.048 6.8 3.18 13.02
1/12/2022 8:45:00 PM 2.16 35.888 0.048 6.79 3.12 13.01
1/12/2022 9:00:00 PM 2.21 35.978 0.048 6.78 3.12 12.99
1/12/2022 9:15:00 PM 2.26 36.068 0.048 6.78 3.08 12.97
1/12/2022 9:30:00 PM 2.3 36.14 0.048 6.77 3.14 12.96
1/12/2022 9:45:00 PM 2.33 36.194 0.048 6.78 3.17 12.95
1/12/2022 10:00:00 PM 2.36 36.248 0.048 6.78 3.48 12.94
1/12/2022 10:15:00 PM 2.39 36.302 0.048 6.79 3.13 12.93
1/12/2022 10:30:00 PM 2.41 36.338 0.048 6.79 3.28 12.92
1/12/2022 10:45:00 PM 2.44 36.392 0.048 6.8 3.22 12.91
1/12/2022 11:00:00 PM 2.46 36.428 0.048 6.79 3.33 12.9
1/12/2022 11:15:00 PM 2.48 36.464 0.048 6.77 3.31 12.9
1/12/2022 11:30:00 PM 2.5 36.5 0.048 6.79 3.43 12.89
1/12/2022 11:45:00 PM 2.52 36.536 0.048 6.78 3.29 12.88
1/13/2022 12:00:00 AM 2.54 36.572 0.048 6.79 3.06 12.87
1/13/2022 12:15:00 AM 2.56 36.608 0.048 6.77 3.16 12.86
1/13/2022 12:30:00 AM 2.59 36.662 0.048 6.78 3.16 12.85
1/13/2022 12:45:00 AM 2.6 36.68 0.048 6.78 3.41 12.85
1/13/2022 1:00:00 AM 2.62 36.716 0.048 6.79 3.48 12.85
1/13/2022 1:15:00 AM 2.64 36.752 0.048 6.73 3.34 12.84
1/13/2022 1:30:00 AM 2.66 36.788 0.048 6.77 3.28 12.82
1/13/2022 1:45:00 AM 2.68 36.824 0.048 6.78 3.18 12.82
1/13/2022 2:00:00 AM 2.7 36.86 0.048 6.8 3.21 12.81
1/13/2022 2:15:00 AM 2.71 36.878 0.048 6.79 3.21 12.81
1/13/2022 2:30:00 AM 2.73 36.914 0.048 6.79 3.16 12.81
1/13/2022 2:45:00 AM 2.75 36.95 0.048 6.83 3.12 12.8
1/13/2022 3:00:00 AM 2.76 36.968 0.048 6.78 3.33 12.79
1/13/2022 3:15:00 AM 2.78 37.004 0.048 6.79 3.71 12.79
1/13/2022 3:30:00 AM 2.79 37.022 0.048 6.79 3.42 12.78
1/13/2022 3:45:00 AM 2.81 37.058 0.048 6.79 3.44 12.77
1/13/2022 4:00:00 AM 2.83 37.094 0.049 6.79 3.14 12.76
1/13/2022 4:15:00 AM 2.84 37.112 0.048 6.79 3.91 12.76
1/13/2022 4:30:00 AM 2.83 37.094 0.049 6.8 3.24 12.75
1/13/2022 4:45:00 AM 2.83 37.094 0.049 6.8 3.16 12.75
1/13/2022 5:00:00 AM 2.85 37.13 0.049 6.79 3.14 12.74
1/13/2022 5:15:00 AM 2.86 37.148 0.048 6.79 3.42 12.73
1/13/2022 5:30:00 AM 2.86 37.148 0.048 6.79 3.41 12.73
1/13/2022 5:45:00 AM 2.87 37.166 0.048 6.78 3.34 12.73
1/13/2022 6:00:00 AM 2.88 37.184 0.048 6.78 3.36 12.73
1/13/2022 6:15:00 AM 2.88 37.184 0.048 6.79 3.42 12.72
1/13/2022 6:30:00 AM 2.88 37.184 0.048 6.79 3.75 12.72
1/13/2022 6:45:00 AM 2.89 37.202 0.048 6.8 3.54 12.72
1/13/2022 7:00:00 AM 2.9 37.22 0.048 6.81 3.38 12.72
1/13/2022 7:15:00 AM 2.91 37.238 0.048 6.79 3.25 12.72
1/13/2022 7:30:00 AM 2.92 37.256 0.048 6.8 3.4 12.71
1/13/2022 7:45:00 AM 2.92 37.256 0.048 6.77 3.34 12.72
1/13/2022 8:00:00 AM 2.93 37.274 0.048 6.77 3.31 12.72
1/13/2022 8:15:00 AM 2.94 37.292 0.048 6.78 3.31 12.74
1/13/2022 8:30:00 AM 2.96 37.328 0.048 6.8 3.1 12.76
1/13/2022 8:45:00 AM 2.98 37.364 0.048 6.8 3.08 12.79
1/13/2022 9:00:00 AM 3.01 37.418 0.048 6.81 2.99 12.82
1/13/2022 9:15:00 AM 3.03 37.454 0.048 6.81 3.15 12.83
1/13/2022 9:30:00 AM 3.04 37.472 0.048 6.83 2.89 12.86
1/13/2022 9:45:00 AM 3.08 37.544 0.048 6.84 3.03 12.89
1/13/2022 10:00:00 AM 3.12 37.616 0.048 6.85 2.92 12.9
1/13/2022 10:15:00 AM 3.17 37.706 0.048 6.82 2.92 12.91
1/13/2022 10:30:00 AM 3.22 37.796 0.048 6.89 2.89 12.91
1/13/2022 10:45:00 AM 3.32 37.976 0.048 6.89 2.85 12.92
1/13/2022 11:00:00 AM 3.42 38.156 0.048 6.9 3.13 12.91
1/13/2022 11:15:00 AM 3.48 38.264 0.048 6.91 3.12 12.89
1/13/2022 11:30:00 AM 3.56 38.408 0.048 6.89 2.82 12.88
1/13/2022 11:45:00 AM 3.64 38.552 0.047 6.93 2.84 12.86
1/13/2022 12:00:00 PM 3.71 38.678 0.047 6.91 2.85 12.82
1/13/2022 12:15:00 PM 3.79 38.822 0.047 6.92 3.05 12.8
1/13/2022 12:30:00 PM 3.87 38.966 0.047 6.92 3.07 12.76
1/13/2022 12:45:00 PM 3.96 39.128 0.047 6.87 2.93 12.73
1/13/2022 1:00:00 PM 4 39.2 0.047 6.92 2.94 12.7
1/13/2022 1:15:00 PM 4.07 39.326 0.047 6.93 3.2 12.69
1/13/2022 1:30:00 PM 4.12 39.416 0.047 6.92 2.94 12.67
1/13/2022 1:45:00 PM 4.2 39.56 0.047 6.92 3.07 12.65
1/13/2022 2:00:00 PM 4.28 39.704 0.047 6.93 3.05 12.62
1/13/2022 2:15:00 PM 4.36 39.848 0.047 6.93 3.02 12.59
1/13/2022 2:30:00 PM 4.39 39.902 0.047 6.93 3.4 12.55
1/13/2022 2:45:00 PM 4.42 39.956 0.047 6.93 3.12 12.55
1/13/2022 3:00:00 PM 4.43 39.974 0.047 6.94 3.69 12.52
1/13/2022 3:15:00 PM 4.45 40.01 0.047 6.93 3.23 12.5
1/13/2022 3:30:00 PM 4.47 40.046 0.047 6.93 3.23 12.48
1/13/2022 3:45:00 PM 4.49 40.082 0.047 6.91 3.07 12.45
1/13/2022 4:00:00 PM 4.5 40.1 0.047 6.9 3.22 12.41
1/13/2022 4:15:00 PM 4.48 40.064 0.047 6.88 2.94 12.36
1/13/2022 4:30:00 PM 4.47 40.046 0.047 6.89 3.13 12.33
1/13/2022 4:45:00 PM 4.44 39.992 0.047 6.88 3.02 12.31
1/13/2022 5:00:00 PM 4.42 39.956 0.047 6.87 3.12 12.28
1/13/2022 5:15:00 PM 4.39 39.902 0.047 6.87 3.16 12.26
1/13/2022 5:30:00 PM 4.37 39.866 0.048 6.86 3 12.24
1/13/2022 5:45:00 PM 4.35 39.83 0.048 6.84 3.31 12.23
1/13/2022 6:00:00 PM 4.32 39.776 0.048 6.84 3.14 12.22
1/13/2022 6:15:00 PM 4.29 39.722 0.049 6.82 3.06 12.21
1/13/2022 6:30:00 PM 4.26 39.668 0.049 6.82 3.33 12.21
1/13/2022 6:45:00 PM 4.24 39.632 0.05 6.83 3.22 12.21
1/13/2022 7:00:00 PM 4.23 39.614 0.05 6.81 3.35 12.22
1/13/2022 7:15:00 PM 4.21 39.578 0.05 6.82 3.21 12.22
1/13/2022 7:30:00 PM 4.2 39.56 0.05 6.8 3.27 12.22
1/13/2022 7:45:00 PM 4.19 39.542 0.049 6.8 3.13 12.23
1/13/2022 8:00:00 PM 4.17 39.506 0.049 6.79 3.3 12.23
1/13/2022 8:15:00 PM 4.15 39.47 0.049 6.8 3.21 12.24
1/13/2022 8:30:00 PM 4.14 39.452 0.049 6.79 3.24 12.24
1/13/2022 8:45:00 PM 4.12 39.416 0.049 6.79 3.39 12.25
1/13/2022 9:00:00 PM 4.11 39.398 0.049 6.79 3.11 12.25
1/13/2022 9:15:00 PM 4.1 39.38 0.049 6.79 3.27 12.26
1/13/2022 9:30:00 PM 4.09 39.362 0.049 6.79 3.29 12.26
1/13/2022 9:45:00 PM 4.07 39.326 0.049 6.79 3.22 12.27
1/13/2022 10:00:00 PM 4.06 39.308 0.049 6.79 3.22 12.27
1/13/2022 10:15:00 PM 4.05 39.29 0.049 6.8 3.52 12.28
1/13/2022 10:30:00 PM 4.03 39.254 0.049 6.79 3.35 12.28
1/13/2022 10:45:00 PM 4.02 39.236 0.049 6.8 3.32 12.29
1/13/2022 11:00:00 PM 4.01 39.218 0.049 6.78 3.33 12.29
1/13/2022 11:15:00 PM 4 39.2 0.049 6.77 3.27 12.3
1/13/2022 11:30:00 PM 3.99 39.182 0.049 6.78 3.47 12.3
1/13/2022 11:45:00 PM 3.98 39.164 0.049 6.78 3.18 12.31
1/14/2022 12:00:00 AM 3.97 39.146 0.049 6.79 3.04 12.31
1/14/2022 12:15:00 AM 3.96 39.128 0.049 6.78 3.18 12.31
1/14/2022 12:30:00 AM 3.95 39.11 0.049 6.78 3.12 12.31
1/14/2022 12:45:00 AM 3.94 39.092 0.049 6.79 3.18 12.31
1/14/2022 1:00:00 AM 3.94 39.092 0.049 6.79 3.22 12.31
1/14/2022 1:15:00 AM 3.93 39.074 0.049 6.78 3.58 12.32
1/14/2022 1:30:00 AM 3.92 39.056 0.049 6.78 3.35 12.32
1/14/2022 1:45:00 AM 3.92 39.056 0.049 6.78 3.48 12.32
1/14/2022 2:00:00 AM 3.91 39.038 0.049 6.77 3.51 12.32
1/14/2022 2:15:00 AM 3.9 39.02 0.049 6.8 3.92 12.33
1/14/2022 2:30:00 AM 3.9 39.02 0.049 6.78 4.21 12.33
1/14/2022 2:45:00 AM 3.9 39.02 0.049 6.78 4.43 12.33
1/14/2022 3:00:00 AM 3.9 39.02 0.049 6.8 3.73 12.33
1/14/2022 3:15:00 AM 3.9 39.02 0.049 6.79 3.75 12.33
1/14/2022 3:30:00 AM 3.89 39.002 0.049 6.79 3.39 12.34
1/14/2022 3:45:00 AM 3.89 39.002 0.049 6.79 3.34 12.34
1/14/2022 4:00:00 AM 3.89 39.002 0.049 6.8 3.2 12.34
1/14/2022 4:15:00 AM 3.88 38.984 0.049 6.79 3.37 12.34
1/14/2022 4:30:00 AM 3.87 38.966 0.049 6.79 3.15 12.35
1/14/2022 4:45:00 AM 3.87 38.966 0.049 6.79 3.69 12.34
1/14/2022 5:00:00 AM 3.86 38.948 0.049 6.79 3.62 12.35
1/14/2022 5:15:00 AM 3.84 38.912 0.049 6.78 3.35 12.35
1/14/2022 5:30:00 AM 3.83 38.894 0.049 6.8 3.71 12.36
1/14/2022 5:45:00 AM 3.81 38.858 0.049 6.8 3.47 12.37
1/14/2022 6:00:00 AM 3.79 38.822 0.049 6.78 3.69 12.37
1/14/2022 6:15:00 AM 3.77 38.786 0.049 6.79 3.85 12.39
1/14/2022 6:30:00 AM 3.74 38.732 0.05 6.79 3.5 12.39
1/14/2022 6:45:00 AM 3.72 38.696 0.049 6.8 4.19 12.4
1/14/2022 7:00:00 AM 3.7 38.66 0.049 6.8 3.65 12.42
1/14/2022 7:15:00 AM 3.68 38.624 0.05 6.8 3.6 12.42
1/14/2022 7:30:00 AM 3.66 38.588 0.05 6.8 3.46 12.43
1/14/2022 7:45:00 AM 3.63 38.534 0.05 6.79 4.36 12.44
1/14/2022 8:00:00 AM 3.6 38.48 0.05 6.8 4.35 12.46
1/14/2022 8:15:00 AM 3.58 38.444 0.049 6.81 4.74 12.48
1/14/2022 8:30:00 AM 3.56 38.408 0.049 6.82 4.61 12.49
1/14/2022 8:45:00 AM 3.55 38.39 0.049 6.82 4.53 12.51
1/14/2022 9:00:00 AM 3.54 38.372 0.049 6.81 4.06 12.54
1/14/2022 9:15:00 AM 3.53 38.354 0.049 6.82 3.95 12.58
1/14/2022 9:30:00 AM 3.52 38.336 0.049 6.82 3.89 12.63
1/14/2022 9:45:00 AM 3.51 38.318 0.049 6.85 3.61 12.67
1/14/2022 10:00:00 AM 3.52 38.336 0.049 6.85 3.4 12.71
1/14/2022 10:15:00 AM 3.51 38.318 0.049 6.84 3.69 12.73
1/14/2022 10:30:00 AM 3.5 38.3 0.049 6.86 3.91 12.73
1/14/2022 10:45:00 AM 3.5 38.3 0.049 6.86 3.23 12.76
1/14/2022 11:00:00 AM 3.49 38.282 0.049 6.88 3.29 12.78
1/14/2022 11:15:00 AM 3.47 38.246 0.049 6.88 3.41 12.8
1/14/2022 11:30:00 AM 3.46 38.228 0.049 6.89 3.34 12.8
1/14/2022 11:45:00 AM 3.44 38.192 0.049 6.87 3.19 12.81
1/14/2022 12:00:00 PM 3.42 38.156 0.049 6.87 3.11 12.8
1/14/2022 12:15:00 PM 3.4 38.12 0.049 6.93 3.04 12.8
1/14/2022 12:30:00 PM 3.38 38.084 0.049 6.9 3.31 12.82
1/14/2022 12:45:00 PM 3.37 38.066 0.049 6.89 3.05 12.83
1/14/2022 1:00:00 PM 3.36 38.048 0.049 6.89 2.99 12.85
1/14/2022 1:15:00 PM 3.35 38.03 0.049 6.9 3.04 12.87
1/14/2022 1:30:00 PM 3.31 37.958 0.049 6.89 3.15 12.87
1/14/2022 1:45:00 PM 3.29 37.922 0.049 6.88 2.97 12.87
1/14/2022 2:00:00 PM 3.27 37.886 0.049 6.9 3.04 12.89
1/14/2022 2:15:00 PM 3.25 37.85 0.049 6.9 3.14 12.9
1/14/2022 2:30:00 PM 3.22 37.796 0.049 6.89 3.01 12.9
1/14/2022 2:45:00 PM 3.2 37.76 0.049 6.89 2.94 12.9
1/14/2022 3:00:00 PM 3.18 37.724 0.049 6.91 2.84 12.91
1/14/2022 3:15:00 PM 3.17 37.706 0.049 6.89 2.91 12.92
1/14/2022 3:30:00 PM 3.15 37.67 0.049 6.9 3.05 12.93
1/14/2022 3:45:00 PM 3.12 37.616 0.049 6.89 3.06 12.93
1/14/2022 4:00:00 PM 3.08 37.544 0.049 6.9 3.28 12.94
1/14/2022 4:15:00 PM 3.03 37.454 0.049 6.89 3.3 12.95
1/14/2022 4:30:00 PM 2.98 37.364 0.049 6.89 3.06 12.93
1/14/2022 4:45:00 PM 2.92 37.256 0.049 6.88 3.18 12.92
1/14/2022 5:00:00 PM 2.85 37.13 0.049 6.86 2.88 12.91
1/14/2022 5:15:00 PM 2.75 36.95 0.049 6.86 3.01 12.9
1/14/2022 5:30:00 PM 2.64 36.752 0.049 6.86 3.1 12.9
1/14/2022 5:45:00 PM 2.55 36.59 0.049 6.85 3.08 12.91
1/14/2022 6:00:00 PM 2.45 36.41 0.049 6.85 3.51 12.93
1/14/2022 6:15:00 PM 2.36 36.248 0.049 6.83 3.13 12.95
1/14/2022 6:30:00 PM 2.28 36.104 0.049 6.84 3.11 12.97
1/14/2022 6:45:00 PM 2.21 35.978 0.049 6.83 3.08 13
1/14/2022 7:00:00 PM 2.15 35.87 0.049 6.82 3.1 13.02
1/14/2022 7:15:00 PM 2.06 35.708 0.049 6.82 3.16 13.05
1/14/2022 7:30:00 PM 1.99 35.582 0.049 6.82 3.55 13.07
1/14/2022 7:45:00 PM 1.92 35.456 0.049 6.82 3.88 13.1
1/14/2022 8:00:00 PM 1.82 35.276 0.049 6.8 4.29 13.14
1/14/2022 8:15:00 PM 1.74 35.132 0.049 6.83 3.86 13.17
1/14/2022 8:30:00 PM 1.64 34.952 0.049 6.79 3.3 13.21
1/14/2022 8:45:00 PM 1.54 34.772 0.049 6.8 3.34 13.25
1/14/2022 9:00:00 PM 1.45 34.61 0.049 6.81 3.18 13.29
1/14/2022 9:15:00 PM 1.35 34.43 0.049 6.81 3.48 13.32
1/14/2022 9:30:00 PM 1.27 34.286 0.05 6.82 4.02 13.35
1/14/2022 9:45:00 PM 1.19 34.142 0.05 6.8 4.24 13.39
1/14/2022 10:00:00 PM 1.12 34.016 0.049 6.78 4.39 13.42
1/14/2022 10:15:00 PM 1.04 33.872 0.049 6.81 3.84 13.45
1/14/2022 10:30:00 PM 0.97 33.746 0.049 6.79 4.63 13.48
1/14/2022 10:45:00 PM 0.89 33.602 0.05 6.8 3.96 13.51
1/14/2022 11:00:00 PM 0.82 33.476 0.05 6.78 5.07 13.55
1/14/2022 11:15:00 PM 0.73 33.314 0.05 6.8 4.01 13.59
1/14/2022 11:30:00 PM 0.66 33.188 0.05 6.8 3.65 13.63
1/14/2022 11:45:00 PM 0.58 33.044 0.05 6.79 3.78 13.66
1/15/2022 12:00:00 AM 0.51 32.918 0.05 6.81 3.76 13.69
1/15/2022 12:15:00 AM 0.45 32.81 0.05 6.8 3.4 13.72
1/15/2022 12:30:00 AM 0.4 32.72 0.05 6.79 3.62 13.74
1/15/2022 12:45:00 AM 0.34 32.612 0.05 6.8 3.81 13.77
1/15/2022 1:00:00 AM 0.27 32.486 0.05 6.81 4.23 13.8
1/15/2022 1:15:00 AM 0.21 32.378 0.05 6.79 3.97 13.83
1/15/2022 1:30:00 AM 0.16 32.288 0.05 6.8 3.75 13.85
1/15/2022 1:45:00 AM 0.11 32.198 0.05 6.81 3.52 13.88
1/15/2022 2:00:00 AM 0.05 32.09 0.05 6.79 3.7 13.9
1/15/2022 2:15:00 AM -0.01 31.982 0.05 6.8 3.49 13.93
1/15/2022 2:30:00 AM -0.06 31.892 0.05 6.79 3.8 13.95
1/15/2022 2:45:00 AM -0.12 31.784 0.05 6.78 4.09 13.98
1/15/2022 3:00:00 AM -0.1 31.82 0.044 6.79 5.05 13.99
1/15/2022 3:15:00 AM -0.09 31.838 0.05 6.78 3.5 14.03
1/15/2022 3:30:00 AM -0.09 31.838 0.05 6.78 4.13 14.04
1/15/2022 3:45:00 AM -0.09 31.838 0.05 6.79 3.48 14.05
1/15/2022 4:00:00 AM -0.08 31.856 0.05 6.79 3.51 14.06
1/15/2022 4:15:00 AM -0.08 31.856 0.05 6.79 3.92 14.06
1/15/2022 4:30:00 AM -0.08 31.856 0.05 6.79 3.39 14.07
1/15/2022 4:45:00 AM -0.08 31.856 0.05 6.79 3.58 14.07
1/15/2022 5:00:00 AM -0.08 31.856 0.05 6.79 3.09 14.07
1/15/2022 5:15:00 AM -0.08 31.856 0.05 6.79 3.41 14.07
1/15/2022 5:30:00 AM -0.08 31.856 0.051 6.8 3.08 14.08
1/15/2022 5:45:00 AM -0.08 31.856 0.051 6.78 3.02 14.08
1/15/2022 6:00:00 AM -0.08 31.856 0.051 6.77 3.14 14.09
1/15/2022 6:15:00 AM -0.08 31.856 0.051 6.77 2.95 14.09
1/15/2022 6:30:00 AM -0.08 31.856 0.051 6.76 3.1 14.09
1/15/2022 6:45:00 AM -0.08 31.856 0.051 6.79 2.89 14.09
1/15/2022 7:00:00 AM -0.08 31.856 0.051 6.77 3.06 14.09
1/15/2022 7:15:00 AM -0.08 31.856 0.051 6.82 3.16 14.1
1/15/2022 7:30:00 AM -0.08 31.856 0.051 6.77 3.03 14.1
1/15/2022 7:45:00 AM -0.08 31.856 0.051 6.78 3.02 14.1
1/15/2022 8:00:00 AM -0.08 31.856 0.051 6.78 3.07 14.12
1/15/2022 8:15:00 AM -0.08 31.856 0.051 6.79 2.8 14.15
1/15/2022 8:30:00 AM -0.08 31.856 0.051 6.78 2.79 14.17
1/15/2022 8:45:00 AM -0.08 31.856 0.051 6.8 2.99 14.2
1/15/2022 9:00:00 AM -0.08 31.856 0.051 6.81 3.03 14.23
1/15/2022 9:15:00 AM -0.08 31.856 0.051 6.84 3.07 14.25
1/15/2022 9:30:00 AM -0.08 31.856 0.051 6.82 3.08 14.28
1/15/2022 9:45:00 AM -0.08 31.856 0.051 6.78 4.15 14.3
1/15/2022 10:00:00 AM -0.08 31.856 0.051 6.85 3.03 14.32
1/15/2022 10:15:00 AM -0.08 31.856 0.05 6.86 3.59 14.34
1/15/2022 10:30:00 AM -0.08 31.856 0.05 6.87 3.16 14.35
1/15/2022 10:45:00 AM -0.08 31.856 0.051 6.86 3.33 14.35
1/15/2022 11:00:00 AM -0.08 31.856 0.05 6.88 3.19 14.35
1/15/2022 11:15:00 AM -0.08 31.856 0.05 6.88 3.27 14.35
1/15/2022 11:30:00 AM -0.08 31.856 0.05 6.88 3.45 14.34
1/15/2022 11:45:00 AM -0.08 31.856 0.05 6.88 3.45 14.33
1/15/2022 12:00:00 PM -0.08 31.856 0.05 6.87 3.51 14.33
1/15/2022 12:15:00 PM -0.08 31.856 0.05 6.92 3.56 14.31
1/15/2022 12:30:00 PM -0.08 31.856 0.05 6.9 3.71 14.29
1/15/2022 12:45:00 PM -0.08 31.856 0.05 6.91 4.08 14.27
1/15/2022 1:00:00 PM -0.08 31.856 0.05 6.9 3.67 14.25
1/15/2022 1:15:00 PM -0.08 31.856 0.05 6.92 3.96 14.24
1/15/2022 1:30:00 PM -0.08 31.856 0.05 6.9 4.72 14.23
1/15/2022 1:45:00 PM -0.08 31.856 0.05 6.93 4.81 14.21
1/15/2022 2:00:00 PM -0.08 31.856 0.05 6.93 5.11 14.19
1/15/2022 2:15:00 PM -0.03 31.946 0.05 6.92 4.7 14.19
1/15/2022 2:30:00 PM 0.1 32.18 0.05 6.93 7.62 14.18
1/15/2022 2:45:00 PM 0.18 32.324 0.05 6.93 3.73 14.18
1/15/2022 3:00:00 PM 0.22 32.396 0.05 6.9 3.71 14.18
1/15/2022 3:15:00 PM 0.24 32.432 0.05 6.91 3.46 14.17
1/15/2022 3:30:00 PM 0.22 32.396 0.05 6.9 3.57 14.17
1/15/2022 3:45:00 PM 0.2 32.36 0.05 6.9 3.39 14.16
1/15/2022 4:00:00 PM 0.17 32.306 0.05 6.91 3.17 14.16
1/15/2022 4:15:00 PM 0.14 32.252 0.05 6.91 3.48 14.16
1/15/2022 4:30:00 PM 0.11 32.198 0.05 6.9 3.28 14.15
1/15/2022 4:45:00 PM 0.06 32.108 0.05 6.88 3.19 14.14
1/15/2022 5:00:00 PM 0.03 32.054 0.05 6.87 3.34 14.13
1/15/2022 5:15:00 PM 0 32 0.05 6.87 3.45 14.12
1/15/2022 5:30:00 PM -0.04 31.928 0.05 6.86 3.23 14.12
1/15/2022 5:45:00 PM -0.07 31.874 0.05 6.86 3.26 14.11
1/15/2022 6:00:00 PM -0.09 31.838 0.05 6.85 3.56 14.1
1/15/2022 6:15:00 PM -0.12 31.784 0.05 6.87 3.4 14.1
1/15/2022 6:30:00 PM -0.12 31.784 0.05 6.85 3.75 14.1
1/15/2022 6:45:00 PM -0.1 31.82 0.049 6.83 3.48 14.12
1/15/2022 7:00:00 PM -0.09 31.838 0.049 6.83 3.4 14.12
1/15/2022 7:15:00 PM -0.09 31.838 0.049 6.82 3.34 14.13
1/15/2022 7:30:00 PM -0.09 31.838 0.05 6.8 3.22 14.12
1/15/2022 7:45:00 PM -0.09 31.838 0.05 6.83 3.17 14.13
1/15/2022 8:00:00 PM -0.09 31.838 0.05 6.82 3.44 14.14
1/15/2022 8:15:00 PM -0.09 31.838 0.05 6.82 3.22 14.14
1/15/2022 8:30:00 PM -0.09 31.838 0.05 6.81 3.42 14.15
1/15/2022 8:45:00 PM -0.09 31.838 0.05 6.81 3.46 14.15
1/15/2022 9:00:00 PM -0.09 31.838 0.05 6.82 3.32 14.15
1/15/2022 9:15:00 PM -0.09 31.838 0.05 6.82 3.91 14.16
1/15/2022 9:30:00 PM -0.09 31.838 0.05 6.81 5.11 14.16
1/15/2022 9:45:00 PM -0.09 31.838 0.05 6.82 4.19 14.17
1/15/2022 10:00:00 PM -0.09 31.838 0.05 6.82 4.34 14.16
1/15/2022 10:15:00 PM -0.09 31.838 0.05 6.82 4.42 14.16
1/15/2022 10:30:00 PM -0.09 31.838 0.05 6.82 4.33 14.16
1/15/2022 10:45:00 PM -0.09 31.838 0.05 6.82 4.53 14.17
1/15/2022 11:00:00 PM -0.09 31.838 0.05 6.82 3.66 14.17
1/15/2022 11:15:00 PM -0.09 31.838 0.05 6.84 3.09 14.17
1/15/2022 11:30:00 PM -0.09 31.838 0.05 6.82 3.22 14.18
1/15/2022 11:45:00 PM -0.09 31.838 0.051 6.82 3.13 14.17
1/16/2022 12:00:00 AM -0.08 31.856 0.051 6.82 3.54 14.16
1/16/2022 12:15:00 AM -0.08 31.856 0.051 6.81 3.32 14.16
1/16/2022 12:30:00 AM -0.08 31.856 0.051 6.82 3.16 14.16
1/16/2022 12:45:00 AM -0.08 31.856 0.051 6.81 3.09 14.15
1/16/2022 1:00:00 AM -0.08 31.856 0.051 6.8 2.92 14.15
1/16/2022 1:15:00 AM -0.08 31.856 0.051 6.81 3.04 14.15
1/16/2022 1:30:00 AM -0.08 31.856 0.051 6.81 2.86 14.15
1/16/2022 1:45:00 AM -0.08 31.856 0.051 6.82 3.03 14.14
1/16/2022 2:00:00 AM -0.08 31.856 0.051 6.8 3.59 14.15
1/16/2022 2:15:00 AM -0.08 31.856 0.051 6.81 3.11 14.14
1/16/2022 2:30:00 AM -0.08 31.856 0.051 6.81 2.96 14.14
1/16/2022 2:45:00 AM -0.08 31.856 0.051 6.8 2.83 14.14
1/16/2022 3:00:00 AM -0.08 31.856 0.052 6.82 2.81 14.14
1/16/2022 3:15:00 AM -0.08 31.856 0.052 6.81 2.92 14.14
1/16/2022 3:30:00 AM -0.08 31.856 0.052 6.81 3.22 14.14
1/16/2022 3:45:00 AM -0.08 31.856 0.052 6.79 3.43 14.14
1/16/2022 4:00:00 AM -0.08 31.856 0.052 6.83 3.33 14.13
1/16/2022 4:15:00 AM -0.08 31.856 0.052 6.81 2.98 14.13
1/16/2022 4:30:00 AM -0.08 31.856 0.052 6.8 3.1 14.13
1/16/2022 4:45:00 AM -0.08 31.856 0.052 6.81 2.83 14.13
1/16/2022 5:00:00 AM -0.08 31.856 0.052 6.8 2.84 14.13
1/16/2022 5:15:00 AM -0.08 31.856 0.052 6.81 2.83 14.12
1/16/2022 5:30:00 AM -0.08 31.856 0.052 6.81 3.07 14.13
1/16/2022 5:45:00 AM -0.08 31.856 0.052 6.81 3.38 14.12
1/16/2022 6:00:00 AM -0.08 31.856 0.052 6.8 3.25 14.11
1/16/2022 6:15:00 AM -0.08 31.856 0.052 6.81 3.33 14.11
1/16/2022 6:30:00 AM -0.08 31.856 0.052 6.81 3.28 14.11
1/16/2022 6:45:00 AM -0.08 31.856 0.052 6.8 3.09 14.1
1/16/2022 7:00:00 AM -0.08 31.856 0.052 6.8 3.17 14.11
1/16/2022 7:15:00 AM -0.08 31.856 0.052 6.8 3.15 14.1
1/16/2022 7:30:00 AM -0.08 31.856 0.052 6.81 3.2 14.1
1/16/2022 7:45:00 AM -0.08 31.856 0.052 6.81 3.25 14.1
1/16/2022 8:00:00 AM -0.08 31.856 0.052 6.8 3.02 14.1
1/16/2022 8:15:00 AM -0.08 31.856 0.052 6.82 3.21 14.11
1/16/2022 8:30:00 AM -0.08 31.856 0.052 6.82 3.24 14.13
1/16/2022 8:45:00 AM -0.08 31.856 0.052 6.82 3.24 14.13
1/16/2022 9:00:00 AM -0.08 31.856 0.053 6.86 3.29 14.15
1/16/2022 9:15:00 AM -0.08 31.856 0.052 6.83 3.52 14.17
1/16/2022 9:30:00 AM -0.08 31.856 0.052 6.84 3.39 14.17
1/16/2022 9:45:00 AM -0.08 31.856 0.052 6.83 3.57 14.19
1/16/2022 10:00:00 AM -0.08 31.856 0.052 6.85 3.41 14.2
1/16/2022 10:15:00 AM -0.08 31.856 0.052 6.85 3.71 14.2
1/16/2022 10:30:00 AM